<?xml version="1.0" encoding="UTF-8" standalone="no" ?>
<gpx xmlns="http://www.topografix.com/GPX/1/1" xmlns:xsi="http://www.w3.org/2001/XMLSchema-instance" xsi:schemaLocation="http://www.topografix.com/GPX/1/1 http://www.topografix.com/GPX/1/1/gpx.xsd" version="1.1" creator="VisuGPX - https://www.visugpx.com">
  <metadata>
    <name>24 juin 2020 tour de payolle</name>
    <desc><![CDATA[grp_trc:[visibles]]]></desc>
  </metadata>
  <trk>
    <name><![CDATA[24 juin 2020]]></name>
    <cmt><![CDATA[08:44:41]]></cmt>
    <desc><![CDATA[comment ...]]></desc>
    <trkseg>
      <trkpt lat="42.94278" lon="0.28508">
        <ele>1094</ele>
        <time>2020-06-24T06:44:43Z</time>
      </trkpt>
      <trkpt lat="42.94278" lon="0.28508">
        <ele>1094</ele>
        <time>2020-06-24T06:44:44Z</time>
      </trkpt>
      <trkpt lat="42.94325" lon="0.28598">
        <ele>1094</ele>
        <time>2020-06-24T06:45:14Z</time>
      </trkpt>
      <trkpt lat="42.94392" lon="0.28718">
        <ele>1096</ele>
        <time>2020-06-24T06:45:44Z</time>
      </trkpt>
      <trkpt lat="42.94437" lon="0.28793">
        <ele>1097</ele>
        <time>2020-06-24T06:46:12Z</time>
      </trkpt>
      <trkpt lat="42.94442" lon="0.28799">
        <ele>1098</ele>
        <time>2020-06-24T06:46:15Z</time>
      </trkpt>
      <trkpt lat="42.94509" lon="0.28838">
        <ele>1100</ele>
        <time>2020-06-24T06:46:38Z</time>
      </trkpt>
      <trkpt lat="42.94549" lon="0.28877">
        <ele>1101</ele>
        <time>2020-06-24T06:46:53Z</time>
      </trkpt>
      <trkpt lat="42.94578" lon="0.28919">
        <ele>1103</ele>
        <time>2020-06-24T06:47:05Z</time>
      </trkpt>
      <trkpt lat="42.94615" lon="0.28956">
        <ele>1103</ele>
        <time>2020-06-24T06:47:19Z</time>
      </trkpt>
      <trkpt lat="42.94619" lon="0.2896">
        <ele>1103</ele>
        <time>2020-06-24T06:47:21Z</time>
      </trkpt>
      <trkpt lat="42.94639" lon="0.28985">
        <ele>1104</ele>
        <time>2020-06-24T06:47:31Z</time>
      </trkpt>
      <trkpt lat="42.94643" lon="0.28994">
        <ele>1104</ele>
        <time>2020-06-24T06:47:33Z</time>
      </trkpt>
      <trkpt lat="42.94657" lon="0.29014">
        <ele>1104</ele>
        <time>2020-06-24T06:47:40Z</time>
      </trkpt>
      <trkpt lat="42.94659" lon="0.29017">
        <ele>1104</ele>
        <time>2020-06-24T06:47:41Z</time>
      </trkpt>
      <trkpt lat="42.94669" lon="0.29031">
        <ele>1104</ele>
        <time>2020-06-24T06:47:46Z</time>
      </trkpt>
      <trkpt lat="42.94676" lon="0.29038">
        <ele>1104</ele>
        <time>2020-06-24T06:47:49Z</time>
      </trkpt>
      <trkpt lat="42.94681" lon="0.29041">
        <ele>1104</ele>
        <time>2020-06-24T06:47:51Z</time>
      </trkpt>
      <trkpt lat="42.94691" lon="0.29049">
        <ele>1104</ele>
        <time>2020-06-24T06:47:53Z</time>
      </trkpt>
      <trkpt lat="42.94702" lon="0.29057">
        <ele>1104</ele>
        <time>2020-06-24T06:47:55Z</time>
      </trkpt>
      <trkpt lat="42.94712" lon="0.29067">
        <ele>1104</ele>
        <time>2020-06-24T06:47:57Z</time>
      </trkpt>
      <trkpt lat="42.94719" lon="0.29071">
        <ele>1104</ele>
        <time>2020-06-24T06:47:59Z</time>
      </trkpt>
      <trkpt lat="42.94723" lon="0.29084">
        <ele>1104</ele>
        <time>2020-06-24T06:48:02Z</time>
      </trkpt>
      <trkpt lat="42.94751" lon="0.29097">
        <ele>1103</ele>
        <time>2020-06-24T06:48:13Z</time>
      </trkpt>
      <trkpt lat="42.94763" lon="0.29103">
        <ele>1104</ele>
        <time>2020-06-24T06:48:19Z</time>
      </trkpt>
      <trkpt lat="42.94787" lon="0.291">
        <ele>1106</ele>
        <time>2020-06-24T06:48:30Z</time>
      </trkpt>
      <trkpt lat="42.94799" lon="0.29106">
        <ele>1107</ele>
        <time>2020-06-24T06:48:34Z</time>
      </trkpt>
      <trkpt lat="42.94812" lon="0.29118">
        <ele>1108</ele>
        <time>2020-06-24T06:48:38Z</time>
      </trkpt>
      <trkpt lat="42.94821" lon="0.29132">
        <ele>1110</ele>
        <time>2020-06-24T06:48:42Z</time>
      </trkpt>
      <trkpt lat="42.94834" lon="0.29157">
        <ele>1114</ele>
        <time>2020-06-24T06:48:50Z</time>
      </trkpt>
      <trkpt lat="42.94836" lon="0.29162">
        <ele>1116</ele>
        <time>2020-06-24T06:48:52Z</time>
      </trkpt>
      <trkpt lat="42.94837" lon="0.29173">
        <ele>1118</ele>
        <time>2020-06-24T06:48:56Z</time>
      </trkpt>
      <trkpt lat="42.94837" lon="0.29178">
        <ele>1118</ele>
        <time>2020-06-24T06:48:58Z</time>
      </trkpt>
      <trkpt lat="42.94837" lon="0.29183">
        <ele>1120</ele>
        <time>2020-06-24T06:49:00Z</time>
      </trkpt>
      <trkpt lat="42.94836" lon="0.29188">
        <ele>1121</ele>
        <time>2020-06-24T06:49:02Z</time>
      </trkpt>
      <trkpt lat="42.94836" lon="0.29207">
        <ele>1125</ele>
        <time>2020-06-24T06:49:09Z</time>
      </trkpt>
      <trkpt lat="42.94842" lon="0.29227">
        <ele>1129</ele>
        <time>2020-06-24T06:49:17Z</time>
      </trkpt>
      <trkpt lat="42.94844" lon="0.29235">
        <ele>1130</ele>
        <time>2020-06-24T06:49:20Z</time>
      </trkpt>
      <trkpt lat="42.94844" lon="0.29241">
        <ele>1132</ele>
        <time>2020-06-24T06:49:22Z</time>
      </trkpt>
      <trkpt lat="42.9485" lon="0.29262">
        <ele>1134</ele>
        <time>2020-06-24T06:49:28Z</time>
      </trkpt>
      <trkpt lat="42.94852" lon="0.29272">
        <ele>1136</ele>
        <time>2020-06-24T06:49:32Z</time>
      </trkpt>
      <trkpt lat="42.94857" lon="0.2929">
        <ele>1138</ele>
        <time>2020-06-24T06:49:36Z</time>
      </trkpt>
      <trkpt lat="42.94872" lon="0.29307">
        <ele>1140</ele>
        <time>2020-06-24T06:49:43Z</time>
      </trkpt>
      <trkpt lat="42.94884" lon="0.29315">
        <ele>1142</ele>
        <time>2020-06-24T06:49:49Z</time>
      </trkpt>
      <trkpt lat="42.94931" lon="0.29325">
        <ele>1147</ele>
        <time>2020-06-24T06:50:09Z</time>
      </trkpt>
      <trkpt lat="42.94948" lon="0.29334">
        <ele>1148</ele>
        <time>2020-06-24T06:50:17Z</time>
      </trkpt>
      <trkpt lat="42.94959" lon="0.29344">
        <ele>1149</ele>
        <time>2020-06-24T06:50:22Z</time>
      </trkpt>
      <trkpt lat="42.94962" lon="0.29347">
        <ele>1149</ele>
        <time>2020-06-24T06:50:23Z</time>
      </trkpt>
      <trkpt lat="42.94969" lon="0.29354">
        <ele>1150</ele>
        <time>2020-06-24T06:50:27Z</time>
      </trkpt>
      <trkpt lat="42.94995" lon="0.29375">
        <ele>1152</ele>
        <time>2020-06-24T06:50:41Z</time>
      </trkpt>
      <trkpt lat="42.95038" lon="0.29392">
        <ele>1155</ele>
        <time>2020-06-24T06:51:04Z</time>
      </trkpt>
      <trkpt lat="42.95054" lon="0.29401">
        <ele>1156</ele>
        <time>2020-06-24T06:51:11Z</time>
      </trkpt>
      <trkpt lat="42.95059" lon="0.29404">
        <ele>1156</ele>
        <time>2020-06-24T06:51:13Z</time>
      </trkpt>
      <trkpt lat="42.95089" lon="0.29423">
        <ele>1158</ele>
        <time>2020-06-24T06:51:29Z</time>
      </trkpt>
      <trkpt lat="42.95096" lon="0.29427">
        <ele>1158</ele>
        <time>2020-06-24T06:51:33Z</time>
      </trkpt>
      <trkpt lat="42.95165" lon="0.2949">
        <ele>1161</ele>
        <time>2020-06-24T06:52:03Z</time>
      </trkpt>
      <trkpt lat="42.95175" lon="0.295">
        <ele>1162</ele>
        <time>2020-06-24T06:52:08Z</time>
      </trkpt>
      <trkpt lat="42.95191" lon="0.2951">
        <ele>1163</ele>
        <time>2020-06-24T06:52:15Z</time>
      </trkpt>
      <trkpt lat="42.95212" lon="0.29517">
        <ele>1164</ele>
        <time>2020-06-24T06:52:25Z</time>
      </trkpt>
      <trkpt lat="42.95217" lon="0.29519">
        <ele>1165</ele>
        <time>2020-06-24T06:52:27Z</time>
      </trkpt>
      <trkpt lat="42.95274" lon="0.29539">
        <ele>1171</ele>
        <time>2020-06-24T06:52:51Z</time>
      </trkpt>
      <trkpt lat="42.95279" lon="0.29541">
        <ele>1171</ele>
        <time>2020-06-24T06:52:53Z</time>
      </trkpt>
      <trkpt lat="42.95282" lon="0.29542">
        <ele>1172</ele>
        <time>2020-06-24T06:52:54Z</time>
      </trkpt>
      <trkpt lat="42.95285" lon="0.2954">
        <ele>1172</ele>
        <time>2020-06-24T06:52:55Z</time>
      </trkpt>
      <trkpt lat="42.95289" lon="0.2954">
        <ele>1173</ele>
        <time>2020-06-24T06:52:56Z</time>
      </trkpt>
      <trkpt lat="42.95293" lon="0.29538">
        <ele>1173</ele>
        <time>2020-06-24T06:52:58Z</time>
      </trkpt>
      <trkpt lat="42.95315" lon="0.29524">
        <ele>1176</ele>
        <time>2020-06-24T06:53:07Z</time>
      </trkpt>
      <trkpt lat="42.95335" lon="0.29507">
        <ele>1180</ele>
        <time>2020-06-24T06:53:17Z</time>
      </trkpt>
      <trkpt lat="42.9537" lon="0.29478">
        <ele>1185</ele>
        <time>2020-06-24T06:53:33Z</time>
      </trkpt>
      <trkpt lat="42.95384" lon="0.29477">
        <ele>1187</ele>
        <time>2020-06-24T06:53:39Z</time>
      </trkpt>
      <trkpt lat="42.95402" lon="0.29489">
        <ele>1190</ele>
        <time>2020-06-24T06:53:47Z</time>
      </trkpt>
      <trkpt lat="42.95413" lon="0.29502">
        <ele>1192</ele>
        <time>2020-06-24T06:53:55Z</time>
      </trkpt>
      <trkpt lat="42.95446" lon="0.29551">
        <ele>1199</ele>
        <time>2020-06-24T06:54:19Z</time>
      </trkpt>
      <trkpt lat="42.9545" lon="0.29561">
        <ele>1199</ele>
        <time>2020-06-24T06:54:23Z</time>
      </trkpt>
      <trkpt lat="42.95454" lon="0.29585">
        <ele>1201</ele>
        <time>2020-06-24T06:54:30Z</time>
      </trkpt>
      <trkpt lat="42.95456" lon="0.29593">
        <ele>1202</ele>
        <time>2020-06-24T06:54:32Z</time>
      </trkpt>
      <trkpt lat="42.95459" lon="0.29604">
        <ele>1202</ele>
        <time>2020-06-24T06:54:35Z</time>
      </trkpt>
      <trkpt lat="42.9546" lon="0.29608">
        <ele>1202</ele>
        <time>2020-06-24T06:54:36Z</time>
      </trkpt>
      <trkpt lat="42.95475" lon="0.29707">
        <ele>1208</ele>
        <time>2020-06-24T06:55:02Z</time>
      </trkpt>
      <trkpt lat="42.95479" lon="0.29725">
        <ele>1209</ele>
        <time>2020-06-24T06:55:08Z</time>
      </trkpt>
      <trkpt lat="42.95479" lon="0.29732">
        <ele>1210</ele>
        <time>2020-06-24T06:55:11Z</time>
      </trkpt>
      <trkpt lat="42.95473" lon="0.29751">
        <ele>1211</ele>
        <time>2020-06-24T06:55:19Z</time>
      </trkpt>
      <trkpt lat="42.95469" lon="0.29758">
        <ele>1211</ele>
        <time>2020-06-24T06:55:21Z</time>
      </trkpt>
      <trkpt lat="42.95456" lon="0.29821">
        <ele>1216</ele>
        <time>2020-06-24T06:55:41Z</time>
      </trkpt>
      <trkpt lat="42.95449" lon="0.29832">
        <ele>1218</ele>
        <time>2020-06-24T06:55:46Z</time>
      </trkpt>
      <trkpt lat="42.95447" lon="0.2985">
        <ele>1219</ele>
        <time>2020-06-24T06:55:52Z</time>
      </trkpt>
      <trkpt lat="42.95442" lon="0.29867">
        <ele>1220</ele>
        <time>2020-06-24T06:55:56Z</time>
      </trkpt>
      <trkpt lat="42.95443" lon="0.29874">
        <ele>1221</ele>
        <time>2020-06-24T06:55:58Z</time>
      </trkpt>
      <trkpt lat="42.95444" lon="0.29881">
        <ele>1221</ele>
        <time>2020-06-24T06:56:00Z</time>
      </trkpt>
      <trkpt lat="42.95447" lon="0.29885">
        <ele>1222</ele>
        <time>2020-06-24T06:56:02Z</time>
      </trkpt>
      <trkpt lat="42.95451" lon="0.29885">
        <ele>1222</ele>
        <time>2020-06-24T06:56:05Z</time>
      </trkpt>
      <trkpt lat="42.95461" lon="0.2988">
        <ele>1223</ele>
        <time>2020-06-24T06:56:09Z</time>
      </trkpt>
      <trkpt lat="42.95475" lon="0.29865">
        <ele>1226</ele>
        <time>2020-06-24T06:56:20Z</time>
      </trkpt>
      <trkpt lat="42.95478" lon="0.2986">
        <ele>1226</ele>
        <time>2020-06-24T06:56:22Z</time>
      </trkpt>
      <trkpt lat="42.95506" lon="0.2983">
        <ele>1230</ele>
        <time>2020-06-24T06:56:40Z</time>
      </trkpt>
      <trkpt lat="42.95509" lon="0.29826">
        <ele>1231</ele>
        <time>2020-06-24T06:56:42Z</time>
      </trkpt>
      <trkpt lat="42.95523" lon="0.2982">
        <ele>1232</ele>
        <time>2020-06-24T06:56:50Z</time>
      </trkpt>
      <trkpt lat="42.95531" lon="0.29819">
        <ele>1233</ele>
        <time>2020-06-24T06:56:54Z</time>
      </trkpt>
      <trkpt lat="42.95556" lon="0.29824">
        <ele>1235</ele>
        <time>2020-06-24T06:57:07Z</time>
      </trkpt>
      <trkpt lat="42.95559" lon="0.29826">
        <ele>1235</ele>
        <time>2020-06-24T06:57:09Z</time>
      </trkpt>
      <trkpt lat="42.95622" lon="0.29854">
        <ele>1241</ele>
        <time>2020-06-24T06:57:40Z</time>
      </trkpt>
      <trkpt lat="42.95633" lon="0.29861">
        <ele>1243</ele>
        <time>2020-06-24T06:57:46Z</time>
      </trkpt>
      <trkpt lat="42.9567" lon="0.29874">
        <ele>1247</ele>
        <time>2020-06-24T06:58:05Z</time>
      </trkpt>
      <trkpt lat="42.95682" lon="0.29877">
        <ele>1248</ele>
        <time>2020-06-24T06:58:11Z</time>
      </trkpt>
      <trkpt lat="42.95698" lon="0.29886">
        <ele>1251</ele>
        <time>2020-06-24T06:58:19Z</time>
      </trkpt>
      <trkpt lat="42.95703" lon="0.29888">
        <ele>1251</ele>
        <time>2020-06-24T06:58:21Z</time>
      </trkpt>
      <trkpt lat="42.95713" lon="0.29892">
        <ele>1254</ele>
        <time>2020-06-24T06:58:27Z</time>
      </trkpt>
      <trkpt lat="42.95724" lon="0.299">
        <ele>1256</ele>
        <time>2020-06-24T06:58:33Z</time>
      </trkpt>
      <trkpt lat="42.9578" lon="0.29932">
        <ele>1267</ele>
        <time>2020-06-24T06:59:03Z</time>
      </trkpt>
      <trkpt lat="42.95791" lon="0.29939">
        <ele>1270</ele>
        <time>2020-06-24T06:59:09Z</time>
      </trkpt>
      <trkpt lat="42.95799" lon="0.29944">
        <ele>1272</ele>
        <time>2020-06-24T06:59:13Z</time>
      </trkpt>
      <trkpt lat="42.95821" lon="0.29961">
        <ele>1277</ele>
        <time>2020-06-24T06:59:26Z</time>
      </trkpt>
      <trkpt lat="42.95829" lon="0.29968">
        <ele>1279</ele>
        <time>2020-06-24T06:59:31Z</time>
      </trkpt>
      <trkpt lat="42.95888" lon="0.30004">
        <ele>1289</ele>
        <time>2020-06-24T07:00:01Z</time>
      </trkpt>
      <trkpt lat="42.95912" lon="0.30021">
        <ele>1293</ele>
        <time>2020-06-24T07:00:15Z</time>
      </trkpt>
      <trkpt lat="42.95924" lon="0.30033">
        <ele>1296</ele>
        <time>2020-06-24T07:00:23Z</time>
      </trkpt>
      <trkpt lat="42.95928" lon="0.30036">
        <ele>1296</ele>
        <time>2020-06-24T07:00:25Z</time>
      </trkpt>
      <trkpt lat="42.95939" lon="0.30048">
        <ele>1298</ele>
        <time>2020-06-24T07:00:33Z</time>
      </trkpt>
      <trkpt lat="42.95974" lon="0.30078">
        <ele>1303</ele>
        <time>2020-06-24T07:00:51Z</time>
      </trkpt>
      <trkpt lat="42.95985" lon="0.30091">
        <ele>1304</ele>
        <time>2020-06-24T07:00:58Z</time>
      </trkpt>
      <trkpt lat="42.96006" lon="0.30109">
        <ele>1307</ele>
        <time>2020-06-24T07:01:10Z</time>
      </trkpt>
      <trkpt lat="42.96026" lon="0.30136">
        <ele>1309</ele>
        <time>2020-06-24T07:01:25Z</time>
      </trkpt>
      <trkpt lat="42.96075" lon="0.30172">
        <ele>1314</ele>
        <time>2020-06-24T07:01:51Z</time>
      </trkpt>
      <trkpt lat="42.96077" lon="0.30173">
        <ele>1314</ele>
        <time>2020-06-24T07:01:52Z</time>
      </trkpt>
      <trkpt lat="42.96085" lon="0.30173">
        <ele>1315</ele>
        <time>2020-06-24T07:01:56Z</time>
      </trkpt>
      <trkpt lat="42.96094" lon="0.30172">
        <ele>1316</ele>
        <time>2020-06-24T07:02:00Z</time>
      </trkpt>
      <trkpt lat="42.96104" lon="0.30174">
        <ele>1316</ele>
        <time>2020-06-24T07:02:05Z</time>
      </trkpt>
      <trkpt lat="42.96119" lon="0.30187">
        <ele>1318</ele>
        <time>2020-06-24T07:02:14Z</time>
      </trkpt>
      <trkpt lat="42.96131" lon="0.30209">
        <ele>1320</ele>
        <time>2020-06-24T07:02:24Z</time>
      </trkpt>
      <trkpt lat="42.96133" lon="0.30213">
        <ele>1320</ele>
        <time>2020-06-24T07:02:26Z</time>
      </trkpt>
      <trkpt lat="42.96175" lon="0.30272">
        <ele>1325</ele>
        <time>2020-06-24T07:02:56Z</time>
      </trkpt>
      <trkpt lat="42.96179" lon="0.30278">
        <ele>1326</ele>
        <time>2020-06-24T07:02:59Z</time>
      </trkpt>
      <trkpt lat="42.96191" lon="0.30286">
        <ele>1327</ele>
        <time>2020-06-24T07:03:05Z</time>
      </trkpt>
      <trkpt lat="42.96222" lon="0.30294">
        <ele>1330</ele>
        <time>2020-06-24T07:03:18Z</time>
      </trkpt>
      <trkpt lat="42.96299" lon="0.30279">
        <ele>1337</ele>
        <time>2020-06-24T07:03:49Z</time>
      </trkpt>
      <trkpt lat="42.96349" lon="0.30301">
        <ele>1341</ele>
        <time>2020-06-24T07:04:10Z</time>
      </trkpt>
      <trkpt lat="42.96403" lon="0.3033">
        <ele>1346</ele>
        <time>2020-06-24T07:04:35Z</time>
      </trkpt>
      <trkpt lat="42.96408" lon="0.30336">
        <ele>1347</ele>
        <time>2020-06-24T07:04:39Z</time>
      </trkpt>
      <trkpt lat="42.96408" lon="0.30334">
        <ele>1348</ele>
        <time>2020-06-24T07:05:13Z</time>
      </trkpt>
      <trkpt lat="42.9641" lon="0.30334">
        <ele>1349</ele>
        <time>2020-06-24T07:05:29Z</time>
      </trkpt>
      <trkpt lat="42.96412" lon="0.30337">
        <ele>1351</ele>
        <time>2020-06-24T07:06:04Z</time>
      </trkpt>
      <trkpt lat="42.96417" lon="0.30348">
        <ele>1353</ele>
        <time>2020-06-24T07:06:07Z</time>
      </trkpt>
      <trkpt lat="42.96419" lon="0.30352">
        <ele>1355</ele>
        <time>2020-06-24T07:06:08Z</time>
      </trkpt>
      <trkpt lat="42.96421" lon="0.30361">
        <ele>1359</ele>
        <time>2020-06-24T07:06:10Z</time>
      </trkpt>
      <trkpt lat="42.96422" lon="0.3037">
        <ele>1363</ele>
        <time>2020-06-24T07:06:12Z</time>
      </trkpt>
      <trkpt lat="42.96411" lon="0.30411">
        <ele>1369</ele>
        <time>2020-06-24T07:06:22Z</time>
      </trkpt>
      <trkpt lat="42.9641" lon="0.3043">
        <ele>1370</ele>
        <time>2020-06-24T07:06:26Z</time>
      </trkpt>
      <trkpt lat="42.96413" lon="0.30446">
        <ele>1370</ele>
        <time>2020-06-24T07:06:29Z</time>
      </trkpt>
      <trkpt lat="42.96427" lon="0.30494">
        <ele>1372</ele>
        <time>2020-06-24T07:06:38Z</time>
      </trkpt>
      <trkpt lat="42.9643" lon="0.30565">
        <ele>1373</ele>
        <time>2020-06-24T07:06:51Z</time>
      </trkpt>
      <trkpt lat="42.96434" lon="0.30581">
        <ele>1373</ele>
        <time>2020-06-24T07:06:54Z</time>
      </trkpt>
      <trkpt lat="42.96434" lon="0.30591">
        <ele>1374</ele>
        <time>2020-06-24T07:06:56Z</time>
      </trkpt>
      <trkpt lat="42.96432" lon="0.30602">
        <ele>1374</ele>
        <time>2020-06-24T07:06:58Z</time>
      </trkpt>
      <trkpt lat="42.96424" lon="0.30628">
        <ele>1376</ele>
        <time>2020-06-24T07:07:03Z</time>
      </trkpt>
      <trkpt lat="42.96421" lon="0.3065">
        <ele>1377</ele>
        <time>2020-06-24T07:07:07Z</time>
      </trkpt>
      <trkpt lat="42.96423" lon="0.30701">
        <ele>1380</ele>
        <time>2020-06-24T07:07:16Z</time>
      </trkpt>
      <trkpt lat="42.9642" lon="0.30718">
        <ele>1381</ele>
        <time>2020-06-24T07:07:19Z</time>
      </trkpt>
      <trkpt lat="42.96416" lon="0.30728">
        <ele>1381</ele>
        <time>2020-06-24T07:07:21Z</time>
      </trkpt>
      <trkpt lat="42.96406" lon="0.30739">
        <ele>1383</ele>
        <time>2020-06-24T07:07:24Z</time>
      </trkpt>
      <trkpt lat="42.96402" lon="0.30743">
        <ele>1383</ele>
        <time>2020-06-24T07:07:25Z</time>
      </trkpt>
      <trkpt lat="42.96381" lon="0.30755">
        <ele>1384</ele>
        <time>2020-06-24T07:07:32Z</time>
      </trkpt>
      <trkpt lat="42.96375" lon="0.30775">
        <ele>1385</ele>
        <time>2020-06-24T07:08:14Z</time>
      </trkpt>
      <trkpt lat="42.96373" lon="0.30782">
        <ele>1386</ele>
        <time>2020-06-24T07:08:32Z</time>
      </trkpt>
      <trkpt lat="42.96372" lon="0.30781">
        <ele>1387</ele>
        <time>2020-06-24T07:08:34Z</time>
      </trkpt>
      <trkpt lat="42.96349" lon="0.30794">
        <ele>1390</ele>
        <time>2020-06-24T07:08:42Z</time>
      </trkpt>
      <trkpt lat="42.96324" lon="0.30819">
        <ele>1394</ele>
        <time>2020-06-24T07:08:52Z</time>
      </trkpt>
      <trkpt lat="42.96316" lon="0.30832">
        <ele>1395</ele>
        <time>2020-06-24T07:08:56Z</time>
      </trkpt>
      <trkpt lat="42.96299" lon="0.30864">
        <ele>1398</ele>
        <time>2020-06-24T07:09:06Z</time>
      </trkpt>
      <trkpt lat="42.96297" lon="0.30867">
        <ele>1398</ele>
        <time>2020-06-24T07:09:08Z</time>
      </trkpt>
      <trkpt lat="42.96287" lon="0.3088">
        <ele>1400</ele>
        <time>2020-06-24T07:09:16Z</time>
      </trkpt>
      <trkpt lat="42.96284" lon="0.30879">
        <ele>1403</ele>
        <time>2020-06-24T07:10:18Z</time>
      </trkpt>
      <trkpt lat="42.96284" lon="0.30883">
        <ele>1406</ele>
        <time>2020-06-24T07:14:22Z</time>
      </trkpt>
      <trkpt lat="42.9628" lon="0.30881">
        <ele>1406</ele>
        <time>2020-06-24T07:15:00Z</time>
      </trkpt>
      <trkpt lat="42.96278" lon="0.30881">
        <ele>1409</ele>
        <time>2020-06-24T07:15:01Z</time>
      </trkpt>
      <trkpt lat="42.96273" lon="0.30876">
        <ele>1412</ele>
        <time>2020-06-24T07:15:05Z</time>
      </trkpt>
      <trkpt lat="42.96272" lon="0.30874">
        <ele>1412</ele>
        <time>2020-06-24T07:15:06Z</time>
      </trkpt>
      <trkpt lat="42.96208" lon="0.30809">
        <ele>1414</ele>
        <time>2020-06-24T07:15:36Z</time>
      </trkpt>
      <trkpt lat="42.96142" lon="0.30737">
        <ele>1416</ele>
        <time>2020-06-24T07:16:06Z</time>
      </trkpt>
      <trkpt lat="42.96109" lon="0.30685">
        <ele>1417</ele>
        <time>2020-06-24T07:16:25Z</time>
      </trkpt>
      <trkpt lat="42.96102" lon="0.30668">
        <ele>1417</ele>
        <time>2020-06-24T07:16:30Z</time>
      </trkpt>
      <trkpt lat="42.96095" lon="0.3066">
        <ele>1417</ele>
        <time>2020-06-24T07:16:35Z</time>
      </trkpt>
      <trkpt lat="42.9609" lon="0.3066">
        <ele>1417</ele>
        <time>2020-06-24T07:16:37Z</time>
      </trkpt>
      <trkpt lat="42.96034" lon="0.30585">
        <ele>1419</ele>
        <time>2020-06-24T07:17:07Z</time>
      </trkpt>
      <trkpt lat="42.96028" lon="0.30576">
        <ele>1419</ele>
        <time>2020-06-24T07:17:10Z</time>
      </trkpt>
      <trkpt lat="42.96026" lon="0.30574">
        <ele>1419</ele>
        <time>2020-06-24T07:17:11Z</time>
      </trkpt>
      <trkpt lat="42.96025" lon="0.30571">
        <ele>1419</ele>
        <time>2020-06-24T07:17:12Z</time>
      </trkpt>
      <trkpt lat="42.96015" lon="0.30559">
        <ele>1420</ele>
        <time>2020-06-24T07:17:16Z</time>
      </trkpt>
      <trkpt lat="42.96013" lon="0.30557">
        <ele>1420</ele>
        <time>2020-06-24T07:17:17Z</time>
      </trkpt>
      <trkpt lat="42.95955" lon="0.30468">
        <ele>1426</ele>
        <time>2020-06-24T07:17:47Z</time>
      </trkpt>
      <trkpt lat="42.95922" lon="0.30414">
        <ele>1432</ele>
        <time>2020-06-24T07:18:06Z</time>
      </trkpt>
      <trkpt lat="42.95921" lon="0.30412">
        <ele>1432</ele>
        <time>2020-06-24T07:18:07Z</time>
      </trkpt>
      <trkpt lat="42.95879" lon="0.30343">
        <ele>1439</ele>
        <time>2020-06-24T07:18:30Z</time>
      </trkpt>
      <trkpt lat="42.95868" lon="0.30333">
        <ele>1440</ele>
        <time>2020-06-24T07:18:35Z</time>
      </trkpt>
      <trkpt lat="42.95866" lon="0.30332">
        <ele>1440</ele>
        <time>2020-06-24T07:18:36Z</time>
      </trkpt>
      <trkpt lat="42.95864" lon="0.30331">
        <ele>1441</ele>
        <time>2020-06-24T07:18:37Z</time>
      </trkpt>
      <trkpt lat="42.95849" lon="0.30316">
        <ele>1442</ele>
        <time>2020-06-24T07:18:43Z</time>
      </trkpt>
      <trkpt lat="42.9584" lon="0.30311">
        <ele>1443</ele>
        <time>2020-06-24T07:18:46Z</time>
      </trkpt>
      <trkpt lat="42.95836" lon="0.30309">
        <ele>1443</ele>
        <time>2020-06-24T07:18:47Z</time>
      </trkpt>
      <trkpt lat="42.95808" lon="0.30301">
        <ele>1450</ele>
        <time>2020-06-24T07:18:53Z</time>
      </trkpt>
      <trkpt lat="42.95789" lon="0.30309">
        <ele>1452</ele>
        <time>2020-06-24T07:18:57Z</time>
      </trkpt>
      <trkpt lat="42.95774" lon="0.3032">
        <ele>1453</ele>
        <time>2020-06-24T07:19:00Z</time>
      </trkpt>
      <trkpt lat="42.95716" lon="0.30387">
        <ele>1455</ele>
        <time>2020-06-24T07:19:14Z</time>
      </trkpt>
      <trkpt lat="42.95702" lon="0.304">
        <ele>1455</ele>
        <time>2020-06-24T07:19:17Z</time>
      </trkpt>
      <trkpt lat="42.95644" lon="0.30478">
        <ele>1456</ele>
        <time>2020-06-24T07:19:39Z</time>
      </trkpt>
      <trkpt lat="42.95628" lon="0.3051">
        <ele>1456</ele>
        <time>2020-06-24T07:19:48Z</time>
      </trkpt>
      <trkpt lat="42.9561" lon="0.306">
        <ele>1456</ele>
        <time>2020-06-24T07:20:05Z</time>
      </trkpt>
      <trkpt lat="42.95607" lon="0.30601">
        <ele>1456</ele>
        <time>2020-06-24T07:20:27Z</time>
      </trkpt>
      <trkpt lat="42.95602" lon="0.3061">
        <ele>1457</ele>
        <time>2020-06-24T07:20:30Z</time>
      </trkpt>
      <trkpt lat="42.95598" lon="0.30625">
        <ele>1457</ele>
        <time>2020-06-24T07:20:33Z</time>
      </trkpt>
      <trkpt lat="42.9559" lon="0.30687">
        <ele>1457</ele>
        <time>2020-06-24T07:20:40Z</time>
      </trkpt>
      <trkpt lat="42.9558" lon="0.30722">
        <ele>1457</ele>
        <time>2020-06-24T07:20:47Z</time>
      </trkpt>
      <trkpt lat="42.95578" lon="0.30726">
        <ele>1457</ele>
        <time>2020-06-24T07:20:48Z</time>
      </trkpt>
      <trkpt lat="42.95566" lon="0.3077">
        <ele>1457</ele>
        <time>2020-06-24T07:20:56Z</time>
      </trkpt>
      <trkpt lat="42.9556" lon="0.30781">
        <ele>1458</ele>
        <time>2020-06-24T07:20:59Z</time>
      </trkpt>
      <trkpt lat="42.95554" lon="0.30799">
        <ele>1458</ele>
        <time>2020-06-24T07:21:03Z</time>
      </trkpt>
      <trkpt lat="42.9555" lon="0.30807">
        <ele>1458</ele>
        <time>2020-06-24T07:21:05Z</time>
      </trkpt>
      <trkpt lat="42.95547" lon="0.30811">
        <ele>1458</ele>
        <time>2020-06-24T07:21:06Z</time>
      </trkpt>
      <trkpt lat="42.95544" lon="0.30814">
        <ele>1458</ele>
        <time>2020-06-24T07:21:07Z</time>
      </trkpt>
      <trkpt lat="42.95541" lon="0.30816">
        <ele>1458</ele>
        <time>2020-06-24T07:21:08Z</time>
      </trkpt>
      <trkpt lat="42.95529" lon="0.30816">
        <ele>1458</ele>
        <time>2020-06-24T07:21:12Z</time>
      </trkpt>
      <trkpt lat="42.95504" lon="0.30792">
        <ele>1458</ele>
        <time>2020-06-24T07:21:21Z</time>
      </trkpt>
      <trkpt lat="42.9542" lon="0.30653">
        <ele>1456</ele>
        <time>2020-06-24T07:21:51Z</time>
      </trkpt>
      <trkpt lat="42.95386" lon="0.30614">
        <ele>1456</ele>
        <time>2020-06-24T07:22:01Z</time>
      </trkpt>
      <trkpt lat="42.95364" lon="0.30585">
        <ele>1455</ele>
        <time>2020-06-24T07:22:08Z</time>
      </trkpt>
      <trkpt lat="42.95339" lon="0.3056">
        <ele>1455</ele>
        <time>2020-06-24T07:22:18Z</time>
      </trkpt>
      <trkpt lat="42.95337" lon="0.30557">
        <ele>1455</ele>
        <time>2020-06-24T07:22:20Z</time>
      </trkpt>
      <trkpt lat="42.95333" lon="0.30533">
        <ele>1455</ele>
        <time>2020-06-24T07:22:27Z</time>
      </trkpt>
      <trkpt lat="42.95331" lon="0.30528">
        <ele>1455</ele>
        <time>2020-06-24T07:22:28Z</time>
      </trkpt>
      <trkpt lat="42.95328" lon="0.30521">
        <ele>1455</ele>
        <time>2020-06-24T07:22:30Z</time>
      </trkpt>
      <trkpt lat="42.95311" lon="0.30504">
        <ele>1454</ele>
        <time>2020-06-24T07:22:35Z</time>
      </trkpt>
      <trkpt lat="42.95289" lon="0.30493">
        <ele>1454</ele>
        <time>2020-06-24T07:22:41Z</time>
      </trkpt>
      <trkpt lat="42.95285" lon="0.30492">
        <ele>1454</ele>
        <time>2020-06-24T07:22:42Z</time>
      </trkpt>
      <trkpt lat="42.95281" lon="0.30491">
        <ele>1454</ele>
        <time>2020-06-24T07:22:43Z</time>
      </trkpt>
      <trkpt lat="42.95274" lon="0.30489">
        <ele>1454</ele>
        <time>2020-06-24T07:22:44Z</time>
      </trkpt>
      <trkpt lat="42.95247" lon="0.30482">
        <ele>1453</ele>
        <time>2020-06-24T07:22:50Z</time>
      </trkpt>
      <trkpt lat="42.95212" lon="0.30486">
        <ele>1453</ele>
        <time>2020-06-24T07:22:58Z</time>
      </trkpt>
      <trkpt lat="42.95176" lon="0.30501">
        <ele>1453</ele>
        <time>2020-06-24T07:23:06Z</time>
      </trkpt>
      <trkpt lat="42.95167" lon="0.3051">
        <ele>1452</ele>
        <time>2020-06-24T07:23:09Z</time>
      </trkpt>
      <trkpt lat="42.95088" lon="0.30577">
        <ele>1451</ele>
        <time>2020-06-24T07:23:32Z</time>
      </trkpt>
      <trkpt lat="42.95064" lon="0.30588">
        <ele>1451</ele>
        <time>2020-06-24T07:23:38Z</time>
      </trkpt>
      <trkpt lat="42.9506" lon="0.3059">
        <ele>1451</ele>
        <time>2020-06-24T07:23:39Z</time>
      </trkpt>
      <trkpt lat="42.95056" lon="0.30598">
        <ele>1451</ele>
        <time>2020-06-24T07:23:40Z</time>
      </trkpt>
      <trkpt lat="42.9505" lon="0.30601">
        <ele>1451</ele>
        <time>2020-06-24T07:23:42Z</time>
      </trkpt>
      <trkpt lat="42.95043" lon="0.30605">
        <ele>1451</ele>
        <time>2020-06-24T07:23:44Z</time>
      </trkpt>
      <trkpt lat="42.95036" lon="0.30605">
        <ele>1451</ele>
        <time>2020-06-24T07:23:46Z</time>
      </trkpt>
      <trkpt lat="42.95031" lon="0.30601">
        <ele>1451</ele>
        <time>2020-06-24T07:23:48Z</time>
      </trkpt>
      <trkpt lat="42.95029" lon="0.30599">
        <ele>1451</ele>
        <time>2020-06-24T07:23:49Z</time>
      </trkpt>
      <trkpt lat="42.95028" lon="0.30594">
        <ele>1451</ele>
        <time>2020-06-24T07:23:50Z</time>
      </trkpt>
      <trkpt lat="42.95024" lon="0.30586">
        <ele>1451</ele>
        <time>2020-06-24T07:23:52Z</time>
      </trkpt>
      <trkpt lat="42.95003" lon="0.305">
        <ele>1450</ele>
        <time>2020-06-24T07:24:14Z</time>
      </trkpt>
      <trkpt lat="42.94994" lon="0.30481">
        <ele>1450</ele>
        <time>2020-06-24T07:24:19Z</time>
      </trkpt>
      <trkpt lat="42.94986" lon="0.30472">
        <ele>1450</ele>
        <time>2020-06-24T07:24:22Z</time>
      </trkpt>
      <trkpt lat="42.94962" lon="0.30456">
        <ele>1450</ele>
        <time>2020-06-24T07:24:29Z</time>
      </trkpt>
      <trkpt lat="42.9486" lon="0.30434">
        <ele>1448</ele>
        <time>2020-06-24T07:24:59Z</time>
      </trkpt>
      <trkpt lat="42.94799" lon="0.30416">
        <ele>1448</ele>
        <time>2020-06-24T07:25:20Z</time>
      </trkpt>
      <trkpt lat="42.94792" lon="0.30411">
        <ele>1447</ele>
        <time>2020-06-24T07:25:22Z</time>
      </trkpt>
      <trkpt lat="42.9478" lon="0.30406">
        <ele>1447</ele>
        <time>2020-06-24T07:25:26Z</time>
      </trkpt>
      <trkpt lat="42.94731" lon="0.30369">
        <ele>1446</ele>
        <time>2020-06-24T07:25:49Z</time>
      </trkpt>
      <trkpt lat="42.94726" lon="0.30365">
        <ele>1446</ele>
        <time>2020-06-24T07:25:51Z</time>
      </trkpt>
      <trkpt lat="42.94723" lon="0.30364">
        <ele>1446</ele>
        <time>2020-06-24T07:25:52Z</time>
      </trkpt>
      <trkpt lat="42.94653" lon="0.30319">
        <ele>1444</ele>
        <time>2020-06-24T07:26:19Z</time>
      </trkpt>
      <trkpt lat="42.94648" lon="0.30311">
        <ele>1444</ele>
        <time>2020-06-24T07:26:21Z</time>
      </trkpt>
      <trkpt lat="42.94646" lon="0.30307">
        <ele>1443</ele>
        <time>2020-06-24T07:26:22Z</time>
      </trkpt>
      <trkpt lat="42.94644" lon="0.30299">
        <ele>1443</ele>
        <time>2020-06-24T07:26:24Z</time>
      </trkpt>
      <trkpt lat="42.94637" lon="0.30226">
        <ele>1442</ele>
        <time>2020-06-24T07:26:36Z</time>
      </trkpt>
      <trkpt lat="42.94636" lon="0.30215">
        <ele>1442</ele>
        <time>2020-06-24T07:26:38Z</time>
      </trkpt>
      <trkpt lat="42.94636" lon="0.30199">
        <ele>1442</ele>
        <time>2020-06-24T07:26:41Z</time>
      </trkpt>
      <trkpt lat="42.94633" lon="0.30188">
        <ele>1442</ele>
        <time>2020-06-24T07:26:43Z</time>
      </trkpt>
      <trkpt lat="42.9463" lon="0.30183">
        <ele>1442</ele>
        <time>2020-06-24T07:26:44Z</time>
      </trkpt>
      <trkpt lat="42.94539" lon="0.30088">
        <ele>1440</ele>
        <time>2020-06-24T07:27:11Z</time>
      </trkpt>
      <trkpt lat="42.94519" lon="0.30059">
        <ele>1440</ele>
        <time>2020-06-24T07:27:18Z</time>
      </trkpt>
      <trkpt lat="42.94505" lon="0.30044">
        <ele>1440</ele>
        <time>2020-06-24T07:27:22Z</time>
      </trkpt>
      <trkpt lat="42.94502" lon="0.30041">
        <ele>1440</ele>
        <time>2020-06-24T07:27:23Z</time>
      </trkpt>
      <trkpt lat="42.94481" lon="0.30026">
        <ele>1440</ele>
        <time>2020-06-24T07:27:28Z</time>
      </trkpt>
      <trkpt lat="42.94449" lon="0.30014">
        <ele>1439</ele>
        <time>2020-06-24T07:27:35Z</time>
      </trkpt>
      <trkpt lat="42.94335" lon="0.30011">
        <ele>1438</ele>
        <time>2020-06-24T07:27:59Z</time>
      </trkpt>
      <trkpt lat="42.94327" lon="0.30009">
        <ele>1438</ele>
        <time>2020-06-24T07:28:01Z</time>
      </trkpt>
      <trkpt lat="42.94317" lon="0.30011">
        <ele>1438</ele>
        <time>2020-06-24T07:28:03Z</time>
      </trkpt>
      <trkpt lat="42.94297" lon="0.30009">
        <ele>1438</ele>
        <time>2020-06-24T07:28:08Z</time>
      </trkpt>
      <trkpt lat="42.94255" lon="0.3">
        <ele>1438</ele>
        <time>2020-06-24T07:28:16Z</time>
      </trkpt>
      <trkpt lat="42.94245" lon="0.29999">
        <ele>1438</ele>
        <time>2020-06-24T07:28:18Z</time>
      </trkpt>
      <trkpt lat="42.94236" lon="0.30003">
        <ele>1437</ele>
        <time>2020-06-24T07:28:20Z</time>
      </trkpt>
      <trkpt lat="42.942" lon="0.30031">
        <ele>1437</ele>
        <time>2020-06-24T07:28:27Z</time>
      </trkpt>
      <trkpt lat="42.94191" lon="0.30056">
        <ele>1437</ele>
        <time>2020-06-24T07:28:33Z</time>
      </trkpt>
      <trkpt lat="42.94188" lon="0.30078">
        <ele>1437</ele>
        <time>2020-06-24T07:28:38Z</time>
      </trkpt>
      <trkpt lat="42.9419" lon="0.30083">
        <ele>1437</ele>
        <time>2020-06-24T07:28:40Z</time>
      </trkpt>
      <trkpt lat="42.94195" lon="0.30109">
        <ele>1437</ele>
        <time>2020-06-24T07:28:45Z</time>
      </trkpt>
      <trkpt lat="42.94193" lon="0.30149">
        <ele>1436</ele>
        <time>2020-06-24T07:28:55Z</time>
      </trkpt>
      <trkpt lat="42.94195" lon="0.3017">
        <ele>1435</ele>
        <time>2020-06-24T07:29:00Z</time>
      </trkpt>
      <trkpt lat="42.942" lon="0.30186">
        <ele>1434</ele>
        <time>2020-06-24T07:29:04Z</time>
      </trkpt>
      <trkpt lat="42.94227" lon="0.30222">
        <ele>1428</ele>
        <time>2020-06-24T07:29:14Z</time>
      </trkpt>
      <trkpt lat="42.94232" lon="0.30235">
        <ele>1428</ele>
        <time>2020-06-24T07:29:17Z</time>
      </trkpt>
      <trkpt lat="42.94237" lon="0.30285">
        <ele>1424</ele>
        <time>2020-06-24T07:29:28Z</time>
      </trkpt>
      <trkpt lat="42.94245" lon="0.30308">
        <ele>1421</ele>
        <time>2020-06-24T07:29:33Z</time>
      </trkpt>
      <trkpt lat="42.9425" lon="0.30316">
        <ele>1419</ele>
        <time>2020-06-24T07:29:35Z</time>
      </trkpt>
      <trkpt lat="42.94253" lon="0.30326">
        <ele>1418</ele>
        <time>2020-06-24T07:29:37Z</time>
      </trkpt>
      <trkpt lat="42.94257" lon="0.30359">
        <ele>1416</ele>
        <time>2020-06-24T07:29:43Z</time>
      </trkpt>
      <trkpt lat="42.94295" lon="0.30478">
        <ele>1411</ele>
        <time>2020-06-24T07:30:07Z</time>
      </trkpt>
      <trkpt lat="42.94297" lon="0.30483">
        <ele>1411</ele>
        <time>2020-06-24T07:30:08Z</time>
      </trkpt>
      <trkpt lat="42.94302" lon="0.30491">
        <ele>1411</ele>
        <time>2020-06-24T07:30:10Z</time>
      </trkpt>
      <trkpt lat="42.94341" lon="0.30503">
        <ele>1410</ele>
        <time>2020-06-24T07:30:18Z</time>
      </trkpt>
      <trkpt lat="42.94349" lon="0.30509">
        <ele>1410</ele>
        <time>2020-06-24T07:30:20Z</time>
      </trkpt>
      <trkpt lat="42.94352" lon="0.30513">
        <ele>1410</ele>
        <time>2020-06-24T07:30:21Z</time>
      </trkpt>
      <trkpt lat="42.94355" lon="0.30518">
        <ele>1410</ele>
        <time>2020-06-24T07:30:22Z</time>
      </trkpt>
      <trkpt lat="42.94356" lon="0.30523">
        <ele>1410</ele>
        <time>2020-06-24T07:30:23Z</time>
      </trkpt>
      <trkpt lat="42.94354" lon="0.30531">
        <ele>1410</ele>
        <time>2020-06-24T07:30:24Z</time>
      </trkpt>
      <trkpt lat="42.94344" lon="0.30537">
        <ele>1410</ele>
        <time>2020-06-24T07:30:25Z</time>
      </trkpt>
      <trkpt lat="42.94331" lon="0.30552">
        <ele>1409</ele>
        <time>2020-06-24T07:30:28Z</time>
      </trkpt>
      <trkpt lat="42.94328" lon="0.30556">
        <ele>1409</ele>
        <time>2020-06-24T07:30:29Z</time>
      </trkpt>
      <trkpt lat="42.94323" lon="0.30568">
        <ele>1408</ele>
        <time>2020-06-24T07:30:32Z</time>
      </trkpt>
      <trkpt lat="42.94319" lon="0.30582">
        <ele>1408</ele>
        <time>2020-06-24T07:30:35Z</time>
      </trkpt>
      <trkpt lat="42.94307" lon="0.30618">
        <ele>1406</ele>
        <time>2020-06-24T07:30:42Z</time>
      </trkpt>
      <trkpt lat="42.94296" lon="0.30685">
        <ele>1405</ele>
        <time>2020-06-24T07:30:54Z</time>
      </trkpt>
      <trkpt lat="42.94297" lon="0.30691">
        <ele>1405</ele>
        <time>2020-06-24T07:30:56Z</time>
      </trkpt>
      <trkpt lat="42.943" lon="0.30694">
        <ele>1405</ele>
        <time>2020-06-24T07:31:07Z</time>
      </trkpt>
      <trkpt lat="42.94304" lon="0.30694">
        <ele>1404</ele>
        <time>2020-06-24T07:33:02Z</time>
      </trkpt>
      <trkpt lat="42.94309" lon="0.30701">
        <ele>1402</ele>
        <time>2020-06-24T07:33:43Z</time>
      </trkpt>
      <trkpt lat="42.94312" lon="0.30707">
        <ele>1401</ele>
        <time>2020-06-24T07:33:46Z</time>
      </trkpt>
      <trkpt lat="42.94311" lon="0.30714">
        <ele>1401</ele>
        <time>2020-06-24T07:33:48Z</time>
      </trkpt>
      <trkpt lat="42.94301" lon="0.30756">
        <ele>1398</ele>
        <time>2020-06-24T07:34:06Z</time>
      </trkpt>
      <trkpt lat="42.94281" lon="0.30857">
        <ele>1395</ele>
        <time>2020-06-24T07:34:36Z</time>
      </trkpt>
      <trkpt lat="42.94271" lon="0.30905">
        <ele>1394</ele>
        <time>2020-06-24T07:34:52Z</time>
      </trkpt>
      <trkpt lat="42.94269" lon="0.30915">
        <ele>1393</ele>
        <time>2020-06-24T07:34:56Z</time>
      </trkpt>
      <trkpt lat="42.94268" lon="0.30926">
        <ele>1393</ele>
        <time>2020-06-24T07:35:00Z</time>
      </trkpt>
      <trkpt lat="42.94258" lon="0.3101">
        <ele>1391</ele>
        <time>2020-06-24T07:35:32Z</time>
      </trkpt>
      <trkpt lat="42.94251" lon="0.31065">
        <ele>1390</ele>
        <time>2020-06-24T07:35:50Z</time>
      </trkpt>
      <trkpt lat="42.94252" lon="0.31116">
        <ele>1389</ele>
        <time>2020-06-24T07:36:08Z</time>
      </trkpt>
      <trkpt lat="42.94253" lon="0.31126">
        <ele>1389</ele>
        <time>2020-06-24T07:36:12Z</time>
      </trkpt>
      <trkpt lat="42.94255" lon="0.3113">
        <ele>1389</ele>
        <time>2020-06-24T07:36:14Z</time>
      </trkpt>
      <trkpt lat="42.94257" lon="0.31133">
        <ele>1389</ele>
        <time>2020-06-24T07:36:16Z</time>
      </trkpt>
      <trkpt lat="42.94267" lon="0.31143">
        <ele>1389</ele>
        <time>2020-06-24T07:36:21Z</time>
      </trkpt>
      <trkpt lat="42.94269" lon="0.31146">
        <ele>1388</ele>
        <time>2020-06-24T07:36:23Z</time>
      </trkpt>
      <trkpt lat="42.94289" lon="0.3115">
        <ele>1388</ele>
        <time>2020-06-24T07:36:34Z</time>
      </trkpt>
      <trkpt lat="42.94309" lon="0.31165">
        <ele>1389</ele>
        <time>2020-06-24T07:36:44Z</time>
      </trkpt>
      <trkpt lat="42.94343" lon="0.31213">
        <ele>1389</ele>
        <time>2020-06-24T07:37:06Z</time>
      </trkpt>
      <trkpt lat="42.94347" lon="0.31221">
        <ele>1389</ele>
        <time>2020-06-24T07:37:10Z</time>
      </trkpt>
      <trkpt lat="42.94357" lon="0.31239">
        <ele>1389</ele>
        <time>2020-06-24T07:37:18Z</time>
      </trkpt>
      <trkpt lat="42.94388" lon="0.31272">
        <ele>1390</ele>
        <time>2020-06-24T07:37:49Z</time>
      </trkpt>
      <trkpt lat="42.94394" lon="0.31276">
        <ele>1390</ele>
        <time>2020-06-24T07:37:51Z</time>
      </trkpt>
      <trkpt lat="42.94443" lon="0.31394">
        <ele>1392</ele>
        <time>2020-06-24T07:38:21Z</time>
      </trkpt>
      <trkpt lat="42.94469" lon="0.31468">
        <ele>1394</ele>
        <time>2020-06-24T07:38:41Z</time>
      </trkpt>
      <trkpt lat="42.94522" lon="0.31554">
        <ele>1395</ele>
        <time>2020-06-24T07:39:11Z</time>
      </trkpt>
      <trkpt lat="42.94556" lon="0.31604">
        <ele>1397</ele>
        <time>2020-06-24T07:39:31Z</time>
      </trkpt>
      <trkpt lat="42.94579" lon="0.31625">
        <ele>1399</ele>
        <time>2020-06-24T07:39:41Z</time>
      </trkpt>
      <trkpt lat="42.94615" lon="0.31653">
        <ele>1400</ele>
        <time>2020-06-24T07:39:55Z</time>
      </trkpt>
      <trkpt lat="42.94641" lon="0.31689">
        <ele>1403</ele>
        <time>2020-06-24T07:40:13Z</time>
      </trkpt>
      <trkpt lat="42.94644" lon="0.31699">
        <ele>1403</ele>
        <time>2020-06-24T07:40:17Z</time>
      </trkpt>
      <trkpt lat="42.94644" lon="0.31704">
        <ele>1404</ele>
        <time>2020-06-24T07:40:19Z</time>
      </trkpt>
      <trkpt lat="42.94641" lon="0.31711">
        <ele>1404</ele>
        <time>2020-06-24T07:40:21Z</time>
      </trkpt>
      <trkpt lat="42.94637" lon="0.31715">
        <ele>1404</ele>
        <time>2020-06-24T07:40:23Z</time>
      </trkpt>
      <trkpt lat="42.9461" lon="0.31747">
        <ele>1407</ele>
        <time>2020-06-24T07:40:36Z</time>
      </trkpt>
      <trkpt lat="42.94602" lon="0.31757">
        <ele>1408</ele>
        <time>2020-06-24T07:40:40Z</time>
      </trkpt>
      <trkpt lat="42.94596" lon="0.31765">
        <ele>1409</ele>
        <time>2020-06-24T07:40:45Z</time>
      </trkpt>
      <trkpt lat="42.94582" lon="0.31806">
        <ele>1412</ele>
        <time>2020-06-24T07:40:59Z</time>
      </trkpt>
      <trkpt lat="42.94559" lon="0.31883">
        <ele>1415</ele>
        <time>2020-06-24T07:41:24Z</time>
      </trkpt>
      <trkpt lat="42.94556" lon="0.3189">
        <ele>1415</ele>
        <time>2020-06-24T07:41:27Z</time>
      </trkpt>
      <trkpt lat="42.94547" lon="0.31902">
        <ele>1416</ele>
        <time>2020-06-24T07:41:34Z</time>
      </trkpt>
      <trkpt lat="42.94541" lon="0.31909">
        <ele>1416</ele>
        <time>2020-06-24T07:41:40Z</time>
      </trkpt>
      <trkpt lat="42.94538" lon="0.31916">
        <ele>1416</ele>
        <time>2020-06-24T07:41:44Z</time>
      </trkpt>
      <trkpt lat="42.94531" lon="0.31933">
        <ele>1417</ele>
        <time>2020-06-24T07:41:54Z</time>
      </trkpt>
      <trkpt lat="42.94524" lon="0.31942">
        <ele>1418</ele>
        <time>2020-06-24T07:41:59Z</time>
      </trkpt>
      <trkpt lat="42.94505" lon="0.31988">
        <ele>1421</ele>
        <time>2020-06-24T07:42:16Z</time>
      </trkpt>
      <trkpt lat="42.945" lon="0.31998">
        <ele>1422</ele>
        <time>2020-06-24T07:42:20Z</time>
      </trkpt>
      <trkpt lat="42.94454" lon="0.32114">
        <ele>1432</ele>
        <time>2020-06-24T07:42:50Z</time>
      </trkpt>
      <trkpt lat="42.94387" lon="0.32253">
        <ele>1449</ele>
        <time>2020-06-24T07:43:20Z</time>
      </trkpt>
      <trkpt lat="42.94371" lon="0.32283">
        <ele>1450</ele>
        <time>2020-06-24T07:43:27Z</time>
      </trkpt>
      <trkpt lat="42.94365" lon="0.32309">
        <ele>1451</ele>
        <time>2020-06-24T07:43:32Z</time>
      </trkpt>
      <trkpt lat="42.94345" lon="0.3246">
        <ele>1454</ele>
        <time>2020-06-24T07:44:02Z</time>
      </trkpt>
      <trkpt lat="42.94321" lon="0.32587">
        <ele>1457</ele>
        <time>2020-06-24T07:44:29Z</time>
      </trkpt>
      <trkpt lat="42.94317" lon="0.32604">
        <ele>1458</ele>
        <time>2020-06-24T07:44:34Z</time>
      </trkpt>
      <trkpt lat="42.94318" lon="0.32609">
        <ele>1459</ele>
        <time>2020-06-24T07:44:38Z</time>
      </trkpt>
      <trkpt lat="42.94298" lon="0.32656">
        <ele>1465</ele>
        <time>2020-06-24T07:44:55Z</time>
      </trkpt>
      <trkpt lat="42.9427" lon="0.32694">
        <ele>1469</ele>
        <time>2020-06-24T07:45:07Z</time>
      </trkpt>
      <trkpt lat="42.94261" lon="0.32704">
        <ele>1470</ele>
        <time>2020-06-24T07:45:11Z</time>
      </trkpt>
      <trkpt lat="42.94249" lon="0.32719">
        <ele>1473</ele>
        <time>2020-06-24T07:45:19Z</time>
      </trkpt>
      <trkpt lat="42.94244" lon="0.32722">
        <ele>1475</ele>
        <time>2020-06-24T07:45:32Z</time>
      </trkpt>
      <trkpt lat="42.94244" lon="0.32727">
        <ele>1476</ele>
        <time>2020-06-24T07:46:25Z</time>
      </trkpt>
      <trkpt lat="42.94246" lon="0.32727">
        <ele>1478</ele>
        <time>2020-06-24T07:46:27Z</time>
      </trkpt>
      <trkpt lat="42.94246" lon="0.32723">
        <ele>1479</ele>
        <time>2020-06-24T07:47:04Z</time>
      </trkpt>
      <trkpt lat="42.94245" lon="0.32721">
        <ele>1481</ele>
        <time>2020-06-24T07:47:06Z</time>
      </trkpt>
      <trkpt lat="42.94241" lon="0.32722">
        <ele>1482</ele>
        <time>2020-06-24T07:47:22Z</time>
      </trkpt>
      <trkpt lat="42.94235" lon="0.3273">
        <ele>1484</ele>
        <time>2020-06-24T07:47:26Z</time>
      </trkpt>
      <trkpt lat="42.94231" lon="0.32739">
        <ele>1485</ele>
        <time>2020-06-24T07:47:30Z</time>
      </trkpt>
      <trkpt lat="42.94231" lon="0.32744">
        <ele>1486</ele>
        <time>2020-06-24T07:47:33Z</time>
      </trkpt>
      <trkpt lat="42.94233" lon="0.3276">
        <ele>1487</ele>
        <time>2020-06-24T07:47:39Z</time>
      </trkpt>
      <trkpt lat="42.94233" lon="0.32766">
        <ele>1487</ele>
        <time>2020-06-24T07:47:41Z</time>
      </trkpt>
      <trkpt lat="42.94234" lon="0.32768">
        <ele>1488</ele>
        <time>2020-06-24T07:48:08Z</time>
      </trkpt>
      <trkpt lat="42.94231" lon="0.32768">
        <ele>1489</ele>
        <time>2020-06-24T07:48:25Z</time>
      </trkpt>
      <trkpt lat="42.94229" lon="0.32766">
        <ele>1490</ele>
        <time>2020-06-24T07:48:36Z</time>
      </trkpt>
      <trkpt lat="42.94229" lon="0.32764">
        <ele>1491</ele>
        <time>2020-06-24T07:48:54Z</time>
      </trkpt>
      <trkpt lat="42.94227" lon="0.32762">
        <ele>1492</ele>
        <time>2020-06-24T07:49:32Z</time>
      </trkpt>
      <trkpt lat="42.94225" lon="0.32762">
        <ele>1492</ele>
        <time>2020-06-24T07:49:42Z</time>
      </trkpt>
      <trkpt lat="42.94224" lon="0.32762">
        <ele>1493</ele>
        <time>2020-06-24T07:50:14Z</time>
      </trkpt>
      <trkpt lat="42.94223" lon="0.3276">
        <ele>1494</ele>
        <time>2020-06-24T07:51:58Z</time>
      </trkpt>
      <trkpt lat="42.94203" lon="0.32713">
        <ele>1496</ele>
        <time>2020-06-24T07:52:12Z</time>
      </trkpt>
      <trkpt lat="42.942" lon="0.32687">
        <ele>1497</ele>
        <time>2020-06-24T07:52:41Z</time>
      </trkpt>
      <trkpt lat="42.94191" lon="0.32666">
        <ele>1498</ele>
        <time>2020-06-24T07:52:47Z</time>
      </trkpt>
      <trkpt lat="42.94159" lon="0.32531">
        <ele>1500</ele>
        <time>2020-06-24T07:53:17Z</time>
      </trkpt>
      <trkpt lat="42.9414" lon="0.32409">
        <ele>1500</ele>
        <time>2020-06-24T07:53:47Z</time>
      </trkpt>
      <trkpt lat="42.94132" lon="0.32352">
        <ele>1501</ele>
        <time>2020-06-24T07:54:05Z</time>
      </trkpt>
      <trkpt lat="42.9413" lon="0.32345">
        <ele>1501</ele>
        <time>2020-06-24T07:54:07Z</time>
      </trkpt>
      <trkpt lat="42.94124" lon="0.32304">
        <ele>1501</ele>
        <time>2020-06-24T07:54:19Z</time>
      </trkpt>
      <trkpt lat="42.94119" lon="0.32272">
        <ele>1501</ele>
        <time>2020-06-24T07:54:28Z</time>
      </trkpt>
      <trkpt lat="42.94117" lon="0.32253">
        <ele>1501</ele>
        <time>2020-06-24T07:54:33Z</time>
      </trkpt>
      <trkpt lat="42.94109" lon="0.3221">
        <ele>1502</ele>
        <time>2020-06-24T07:54:45Z</time>
      </trkpt>
      <trkpt lat="42.94097" lon="0.32189">
        <ele>1502</ele>
        <time>2020-06-24T07:54:54Z</time>
      </trkpt>
      <trkpt lat="42.94096" lon="0.32186">
        <ele>1502</ele>
        <time>2020-06-24T07:55:07Z</time>
      </trkpt>
      <trkpt lat="42.94095" lon="0.32185">
        <ele>1502</ele>
        <time>2020-06-24T07:56:45Z</time>
      </trkpt>
      <trkpt lat="42.94094" lon="0.32181">
        <ele>1503</ele>
        <time>2020-06-24T07:58:12Z</time>
      </trkpt>
      <trkpt lat="42.94069" lon="0.32168">
        <ele>1504</ele>
        <time>2020-06-24T07:58:21Z</time>
      </trkpt>
      <trkpt lat="42.94058" lon="0.32165">
        <ele>1505</ele>
        <time>2020-06-24T07:58:25Z</time>
      </trkpt>
      <trkpt lat="42.94037" lon="0.3217">
        <ele>1505</ele>
        <time>2020-06-24T07:58:33Z</time>
      </trkpt>
      <trkpt lat="42.94022" lon="0.32181">
        <ele>1505</ele>
        <time>2020-06-24T07:58:39Z</time>
      </trkpt>
      <trkpt lat="42.94015" lon="0.32179">
        <ele>1505</ele>
        <time>2020-06-24T07:58:42Z</time>
      </trkpt>
      <trkpt lat="42.94006" lon="0.32181">
        <ele>1506</ele>
        <time>2020-06-24T07:58:46Z</time>
      </trkpt>
      <trkpt lat="42.94002" lon="0.32182">
        <ele>1506</ele>
        <time>2020-06-24T07:58:48Z</time>
      </trkpt>
      <trkpt lat="42.93999" lon="0.32183">
        <ele>1506</ele>
        <time>2020-06-24T07:58:51Z</time>
      </trkpt>
      <trkpt lat="42.93996" lon="0.32183">
        <ele>1506</ele>
        <time>2020-06-24T07:58:54Z</time>
      </trkpt>
      <trkpt lat="42.93991" lon="0.32182">
        <ele>1506</ele>
        <time>2020-06-24T07:58:56Z</time>
      </trkpt>
      <trkpt lat="42.93979" lon="0.32182">
        <ele>1506</ele>
        <time>2020-06-24T07:59:02Z</time>
      </trkpt>
      <trkpt lat="42.93953" lon="0.32181">
        <ele>1507</ele>
        <time>2020-06-24T07:59:15Z</time>
      </trkpt>
      <trkpt lat="42.93942" lon="0.32178">
        <ele>1507</ele>
        <time>2020-06-24T07:59:18Z</time>
      </trkpt>
      <trkpt lat="42.93938" lon="0.32176">
        <ele>1507</ele>
        <time>2020-06-24T07:59:19Z</time>
      </trkpt>
      <trkpt lat="42.93932" lon="0.32169">
        <ele>1507</ele>
        <time>2020-06-24T07:59:21Z</time>
      </trkpt>
      <trkpt lat="42.93892" lon="0.321">
        <ele>1507</ele>
        <time>2020-06-24T07:59:39Z</time>
      </trkpt>
      <trkpt lat="42.93887" lon="0.32093">
        <ele>1507</ele>
        <time>2020-06-24T07:59:41Z</time>
      </trkpt>
      <trkpt lat="42.93861" lon="0.32049">
        <ele>1508</ele>
        <time>2020-06-24T07:59:52Z</time>
      </trkpt>
      <trkpt lat="42.9384" lon="0.32025">
        <ele>1508</ele>
        <time>2020-06-24T07:59:59Z</time>
      </trkpt>
      <trkpt lat="42.93822" lon="0.32014">
        <ele>1508</ele>
        <time>2020-06-24T08:00:03Z</time>
      </trkpt>
      <trkpt lat="42.93814" lon="0.32006">
        <ele>1508</ele>
        <time>2020-06-24T08:00:05Z</time>
      </trkpt>
      <trkpt lat="42.93772" lon="0.31989">
        <ele>1508</ele>
        <time>2020-06-24T08:00:12Z</time>
      </trkpt>
      <trkpt lat="42.93742" lon="0.31986">
        <ele>1508</ele>
        <time>2020-06-24T08:00:17Z</time>
      </trkpt>
      <trkpt lat="42.93694" lon="0.32">
        <ele>1507</ele>
        <time>2020-06-24T08:00:27Z</time>
      </trkpt>
      <trkpt lat="42.93673" lon="0.32015">
        <ele>1507</ele>
        <time>2020-06-24T08:00:31Z</time>
      </trkpt>
      <trkpt lat="42.93649" lon="0.32017">
        <ele>1507</ele>
        <time>2020-06-24T08:00:35Z</time>
      </trkpt>
      <trkpt lat="42.93644" lon="0.32019">
        <ele>1507</ele>
        <time>2020-06-24T08:00:36Z</time>
      </trkpt>
      <trkpt lat="42.93636" lon="0.32017">
        <ele>1507</ele>
        <time>2020-06-24T08:00:38Z</time>
      </trkpt>
      <trkpt lat="42.93633" lon="0.32014">
        <ele>1507</ele>
        <time>2020-06-24T08:00:39Z</time>
      </trkpt>
      <trkpt lat="42.93619" lon="0.32002">
        <ele>1507</ele>
        <time>2020-06-24T08:00:42Z</time>
      </trkpt>
      <trkpt lat="42.9358" lon="0.31969">
        <ele>1507</ele>
        <time>2020-06-24T08:00:52Z</time>
      </trkpt>
      <trkpt lat="42.93563" lon="0.31945">
        <ele>1506</ele>
        <time>2020-06-24T08:00:58Z</time>
      </trkpt>
      <trkpt lat="42.9352" lon="0.31841">
        <ele>1506</ele>
        <time>2020-06-24T08:01:19Z</time>
      </trkpt>
      <trkpt lat="42.93516" lon="0.31834">
        <ele>1506</ele>
        <time>2020-06-24T08:01:21Z</time>
      </trkpt>
      <trkpt lat="42.93508" lon="0.31834">
        <ele>1506</ele>
        <time>2020-06-24T08:01:22Z</time>
      </trkpt>
      <trkpt lat="42.93505" lon="0.31828">
        <ele>1505</ele>
        <time>2020-06-24T08:01:23Z</time>
      </trkpt>
      <trkpt lat="42.93497" lon="0.31825">
        <ele>1505</ele>
        <time>2020-06-24T08:01:24Z</time>
      </trkpt>
      <trkpt lat="42.93494" lon="0.31819">
        <ele>1505</ele>
        <time>2020-06-24T08:01:25Z</time>
      </trkpt>
      <trkpt lat="42.93487" lon="0.31796">
        <ele>1505</ele>
        <time>2020-06-24T08:01:30Z</time>
      </trkpt>
      <trkpt lat="42.93485" lon="0.31792">
        <ele>1505</ele>
        <time>2020-06-24T08:01:31Z</time>
      </trkpt>
      <trkpt lat="42.93481" lon="0.31784">
        <ele>1505</ele>
        <time>2020-06-24T08:01:33Z</time>
      </trkpt>
      <trkpt lat="42.93474" lon="0.31757">
        <ele>1505</ele>
        <time>2020-06-24T08:01:39Z</time>
      </trkpt>
      <trkpt lat="42.93472" lon="0.31751">
        <ele>1505</ele>
        <time>2020-06-24T08:01:40Z</time>
      </trkpt>
      <trkpt lat="42.9347" lon="0.31736">
        <ele>1505</ele>
        <time>2020-06-24T08:01:43Z</time>
      </trkpt>
      <trkpt lat="42.93466" lon="0.31719">
        <ele>1505</ele>
        <time>2020-06-24T08:01:47Z</time>
      </trkpt>
      <trkpt lat="42.93465" lon="0.31703">
        <ele>1505</ele>
        <time>2020-06-24T08:01:51Z</time>
      </trkpt>
      <trkpt lat="42.93467" lon="0.31697">
        <ele>1505</ele>
        <time>2020-06-24T08:01:53Z</time>
      </trkpt>
      <trkpt lat="42.93485" lon="0.31669">
        <ele>1504</ele>
        <time>2020-06-24T08:02:00Z</time>
      </trkpt>
      <trkpt lat="42.93494" lon="0.31648">
        <ele>1504</ele>
        <time>2020-06-24T08:02:05Z</time>
      </trkpt>
      <trkpt lat="42.93495" lon="0.31639">
        <ele>1504</ele>
        <time>2020-06-24T08:02:07Z</time>
      </trkpt>
      <trkpt lat="42.93499" lon="0.31621">
        <ele>1504</ele>
        <time>2020-06-24T08:02:11Z</time>
      </trkpt>
      <trkpt lat="42.93501" lon="0.31616">
        <ele>1504</ele>
        <time>2020-06-24T08:02:12Z</time>
      </trkpt>
      <trkpt lat="42.93502" lon="0.31607">
        <ele>1504</ele>
        <time>2020-06-24T08:02:14Z</time>
      </trkpt>
      <trkpt lat="42.93502" lon="0.31602">
        <ele>1504</ele>
        <time>2020-06-24T08:02:15Z</time>
      </trkpt>
      <trkpt lat="42.93503" lon="0.31575">
        <ele>1504</ele>
        <time>2020-06-24T08:02:20Z</time>
      </trkpt>
      <trkpt lat="42.93502" lon="0.31569">
        <ele>1504</ele>
        <time>2020-06-24T08:02:21Z</time>
      </trkpt>
      <trkpt lat="42.935" lon="0.31562">
        <ele>1504</ele>
        <time>2020-06-24T08:02:22Z</time>
      </trkpt>
      <trkpt lat="42.935" lon="0.31552">
        <ele>1504</ele>
        <time>2020-06-24T08:02:24Z</time>
      </trkpt>
      <trkpt lat="42.93498" lon="0.31482">
        <ele>1504</ele>
        <time>2020-06-24T08:02:35Z</time>
      </trkpt>
      <trkpt lat="42.935" lon="0.31463">
        <ele>1503</ele>
        <time>2020-06-24T08:02:39Z</time>
      </trkpt>
      <trkpt lat="42.93501" lon="0.31454">
        <ele>1503</ele>
        <time>2020-06-24T08:02:41Z</time>
      </trkpt>
      <trkpt lat="42.93502" lon="0.31437">
        <ele>1503</ele>
        <time>2020-06-24T08:02:44Z</time>
      </trkpt>
      <trkpt lat="42.93502" lon="0.31432">
        <ele>1503</ele>
        <time>2020-06-24T08:02:45Z</time>
      </trkpt>
      <trkpt lat="42.93507" lon="0.31416">
        <ele>1503</ele>
        <time>2020-06-24T08:02:49Z</time>
      </trkpt>
      <trkpt lat="42.9351" lon="0.31409">
        <ele>1503</ele>
        <time>2020-06-24T08:02:51Z</time>
      </trkpt>
      <trkpt lat="42.93513" lon="0.314">
        <ele>1503</ele>
        <time>2020-06-24T08:02:53Z</time>
      </trkpt>
      <trkpt lat="42.93503" lon="0.3132">
        <ele>1503</ele>
        <time>2020-06-24T08:03:06Z</time>
      </trkpt>
      <trkpt lat="42.93501" lon="0.31311">
        <ele>1503</ele>
        <time>2020-06-24T08:03:08Z</time>
      </trkpt>
      <trkpt lat="42.93498" lon="0.31305">
        <ele>1503</ele>
        <time>2020-06-24T08:03:10Z</time>
      </trkpt>
      <trkpt lat="42.9347" lon="0.31259">
        <ele>1503</ele>
        <time>2020-06-24T08:03:21Z</time>
      </trkpt>
      <trkpt lat="42.93467" lon="0.31255">
        <ele>1503</ele>
        <time>2020-06-24T08:03:22Z</time>
      </trkpt>
      <trkpt lat="42.93458" lon="0.31241">
        <ele>1503</ele>
        <time>2020-06-24T08:03:26Z</time>
      </trkpt>
      <trkpt lat="42.93444" lon="0.31207">
        <ele>1502</ele>
        <time>2020-06-24T08:03:35Z</time>
      </trkpt>
      <trkpt lat="42.9344" lon="0.31197">
        <ele>1502</ele>
        <time>2020-06-24T08:03:37Z</time>
      </trkpt>
      <trkpt lat="42.93405" lon="0.31093">
        <ele>1500</ele>
        <time>2020-06-24T08:03:55Z</time>
      </trkpt>
      <trkpt lat="42.93395" lon="0.31072">
        <ele>1500</ele>
        <time>2020-06-24T08:03:59Z</time>
      </trkpt>
      <trkpt lat="42.93392" lon="0.31068">
        <ele>1500</ele>
        <time>2020-06-24T08:04:00Z</time>
      </trkpt>
      <trkpt lat="42.93367" lon="0.31053">
        <ele>1500</ele>
        <time>2020-06-24T08:04:05Z</time>
      </trkpt>
      <trkpt lat="42.93348" lon="0.31055">
        <ele>1499</ele>
        <time>2020-06-24T08:04:09Z</time>
      </trkpt>
      <trkpt lat="42.93343" lon="0.3106">
        <ele>1499</ele>
        <time>2020-06-24T08:04:11Z</time>
      </trkpt>
      <trkpt lat="42.9334" lon="0.31071">
        <ele>1499</ele>
        <time>2020-06-24T08:04:13Z</time>
      </trkpt>
      <trkpt lat="42.93336" lon="0.31082">
        <ele>1496</ele>
        <time>2020-06-24T08:04:15Z</time>
      </trkpt>
      <trkpt lat="42.9333" lon="0.3111">
        <ele>1491</ele>
        <time>2020-06-24T08:04:19Z</time>
      </trkpt>
      <trkpt lat="42.93311" lon="0.31168">
        <ele>1485</ele>
        <time>2020-06-24T08:04:31Z</time>
      </trkpt>
      <trkpt lat="42.93266" lon="0.31233">
        <ele>1477</ele>
        <time>2020-06-24T08:04:56Z</time>
      </trkpt>
      <trkpt lat="42.93263" lon="0.31237">
        <ele>1477</ele>
        <time>2020-06-24T08:04:58Z</time>
      </trkpt>
      <trkpt lat="42.93259" lon="0.3124">
        <ele>1477</ele>
        <time>2020-06-24T08:05:00Z</time>
      </trkpt>
      <trkpt lat="42.93256" lon="0.31245">
        <ele>1476</ele>
        <time>2020-06-24T08:05:02Z</time>
      </trkpt>
      <trkpt lat="42.93251" lon="0.31251">
        <ele>1475</ele>
        <time>2020-06-24T08:05:05Z</time>
      </trkpt>
      <trkpt lat="42.93231" lon="0.3127">
        <ele>1474</ele>
        <time>2020-06-24T08:05:13Z</time>
      </trkpt>
      <trkpt lat="42.93227" lon="0.31274">
        <ele>1473</ele>
        <time>2020-06-24T08:05:15Z</time>
      </trkpt>
      <trkpt lat="42.93213" lon="0.31283">
        <ele>1472</ele>
        <time>2020-06-24T08:05:21Z</time>
      </trkpt>
      <trkpt lat="42.93209" lon="0.31286">
        <ele>1472</ele>
        <time>2020-06-24T08:05:23Z</time>
      </trkpt>
      <trkpt lat="42.93206" lon="0.31291">
        <ele>1471</ele>
        <time>2020-06-24T08:05:25Z</time>
      </trkpt>
      <trkpt lat="42.93202" lon="0.31294">
        <ele>1471</ele>
        <time>2020-06-24T08:05:27Z</time>
      </trkpt>
      <trkpt lat="42.93197" lon="0.31298">
        <ele>1471</ele>
        <time>2020-06-24T08:05:29Z</time>
      </trkpt>
      <trkpt lat="42.93194" lon="0.31303">
        <ele>1470</ele>
        <time>2020-06-24T08:05:31Z</time>
      </trkpt>
      <trkpt lat="42.93187" lon="0.3131">
        <ele>1470</ele>
        <time>2020-06-24T08:05:34Z</time>
      </trkpt>
      <trkpt lat="42.93177" lon="0.31323">
        <ele>1469</ele>
        <time>2020-06-24T08:05:38Z</time>
      </trkpt>
      <trkpt lat="42.93164" lon="0.3133">
        <ele>1469</ele>
        <time>2020-06-24T08:05:43Z</time>
      </trkpt>
      <trkpt lat="42.93147" lon="0.31345">
        <ele>1468</ele>
        <time>2020-06-24T08:05:51Z</time>
      </trkpt>
      <trkpt lat="42.93141" lon="0.31367">
        <ele>1467</ele>
        <time>2020-06-24T08:05:57Z</time>
      </trkpt>
      <trkpt lat="42.9314" lon="0.31375">
        <ele>1467</ele>
        <time>2020-06-24T08:05:59Z</time>
      </trkpt>
      <trkpt lat="42.93135" lon="0.3139">
        <ele>1466</ele>
        <time>2020-06-24T08:06:03Z</time>
      </trkpt>
      <trkpt lat="42.93132" lon="0.31397">
        <ele>1466</ele>
        <time>2020-06-24T08:06:05Z</time>
      </trkpt>
      <trkpt lat="42.931" lon="0.31436">
        <ele>1464</ele>
        <time>2020-06-24T08:06:23Z</time>
      </trkpt>
      <trkpt lat="42.93095" lon="0.31442">
        <ele>1464</ele>
        <time>2020-06-24T08:06:26Z</time>
      </trkpt>
      <trkpt lat="42.93092" lon="0.31449">
        <ele>1464</ele>
        <time>2020-06-24T08:06:28Z</time>
      </trkpt>
      <trkpt lat="42.93087" lon="0.31453">
        <ele>1464</ele>
        <time>2020-06-24T08:06:30Z</time>
      </trkpt>
      <trkpt lat="42.93067" lon="0.31461">
        <ele>1463</ele>
        <time>2020-06-24T08:06:37Z</time>
      </trkpt>
      <trkpt lat="42.93064" lon="0.3146">
        <ele>1463</ele>
        <time>2020-06-24T08:06:39Z</time>
      </trkpt>
      <trkpt lat="42.93059" lon="0.31457">
        <ele>1463</ele>
        <time>2020-06-24T08:06:41Z</time>
      </trkpt>
      <trkpt lat="42.93051" lon="0.31449">
        <ele>1463</ele>
        <time>2020-06-24T08:06:45Z</time>
      </trkpt>
      <trkpt lat="42.93043" lon="0.31441">
        <ele>1463</ele>
        <time>2020-06-24T08:06:48Z</time>
      </trkpt>
      <trkpt lat="42.93025" lon="0.31431">
        <ele>1462</ele>
        <time>2020-06-24T08:06:54Z</time>
      </trkpt>
      <trkpt lat="42.93013" lon="0.31427">
        <ele>1462</ele>
        <time>2020-06-24T08:06:58Z</time>
      </trkpt>
      <trkpt lat="42.93005" lon="0.31421">
        <ele>1462</ele>
        <time>2020-06-24T08:07:01Z</time>
      </trkpt>
      <trkpt lat="42.92998" lon="0.31412">
        <ele>1462</ele>
        <time>2020-06-24T08:07:04Z</time>
      </trkpt>
      <trkpt lat="42.92992" lon="0.31399">
        <ele>1462</ele>
        <time>2020-06-24T08:07:08Z</time>
      </trkpt>
      <trkpt lat="42.92989" lon="0.31395">
        <ele>1462</ele>
        <time>2020-06-24T08:07:10Z</time>
      </trkpt>
      <trkpt lat="42.92957" lon="0.31381">
        <ele>1462</ele>
        <time>2020-06-24T08:07:21Z</time>
      </trkpt>
      <trkpt lat="42.92943" lon="0.31376">
        <ele>1462</ele>
        <time>2020-06-24T08:07:42Z</time>
      </trkpt>
      <trkpt lat="42.92919" lon="0.31376">
        <ele>1461</ele>
        <time>2020-06-24T08:08:00Z</time>
      </trkpt>
      <trkpt lat="42.92894" lon="0.3138">
        <ele>1459</ele>
        <time>2020-06-24T08:08:09Z</time>
      </trkpt>
      <trkpt lat="42.92886" lon="0.31381">
        <ele>1459</ele>
        <time>2020-06-24T08:08:11Z</time>
      </trkpt>
      <trkpt lat="42.92877" lon="0.31381">
        <ele>1459</ele>
        <time>2020-06-24T08:08:13Z</time>
      </trkpt>
      <trkpt lat="42.92861" lon="0.3137">
        <ele>1458</ele>
        <time>2020-06-24T08:08:22Z</time>
      </trkpt>
      <trkpt lat="42.92859" lon="0.31366">
        <ele>1458</ele>
        <time>2020-06-24T08:08:46Z</time>
      </trkpt>
      <trkpt lat="42.92858" lon="0.31363">
        <ele>1458</ele>
        <time>2020-06-24T08:08:47Z</time>
      </trkpt>
      <trkpt lat="42.92852" lon="0.31355">
        <ele>1458</ele>
        <time>2020-06-24T08:08:49Z</time>
      </trkpt>
      <trkpt lat="42.92848" lon="0.31351">
        <ele>1457</ele>
        <time>2020-06-24T08:08:50Z</time>
      </trkpt>
      <trkpt lat="42.92827" lon="0.31341">
        <ele>1457</ele>
        <time>2020-06-24T08:08:54Z</time>
      </trkpt>
      <trkpt lat="42.92824" lon="0.31336">
        <ele>1457</ele>
        <time>2020-06-24T08:08:55Z</time>
      </trkpt>
      <trkpt lat="42.92816" lon="0.31328">
        <ele>1457</ele>
        <time>2020-06-24T08:08:57Z</time>
      </trkpt>
      <trkpt lat="42.92777" lon="0.313">
        <ele>1455</ele>
        <time>2020-06-24T08:09:07Z</time>
      </trkpt>
      <trkpt lat="42.92753" lon="0.31267">
        <ele>1454</ele>
        <time>2020-06-24T08:09:16Z</time>
      </trkpt>
      <trkpt lat="42.92747" lon="0.31261">
        <ele>1454</ele>
        <time>2020-06-24T08:09:18Z</time>
      </trkpt>
      <trkpt lat="42.92744" lon="0.31257">
        <ele>1454</ele>
        <time>2020-06-24T08:09:19Z</time>
      </trkpt>
      <trkpt lat="42.92738" lon="0.31237">
        <ele>1453</ele>
        <time>2020-06-24T08:09:23Z</time>
      </trkpt>
      <trkpt lat="42.92737" lon="0.31231">
        <ele>1453</ele>
        <time>2020-06-24T08:09:24Z</time>
      </trkpt>
      <trkpt lat="42.92737" lon="0.31226">
        <ele>1453</ele>
        <time>2020-06-24T08:09:25Z</time>
      </trkpt>
      <trkpt lat="42.92738" lon="0.31221">
        <ele>1453</ele>
        <time>2020-06-24T08:09:26Z</time>
      </trkpt>
      <trkpt lat="42.9274" lon="0.31217">
        <ele>1453</ele>
        <time>2020-06-24T08:09:27Z</time>
      </trkpt>
      <trkpt lat="42.92739" lon="0.31211">
        <ele>1453</ele>
        <time>2020-06-24T08:09:28Z</time>
      </trkpt>
      <trkpt lat="42.9274" lon="0.31193">
        <ele>1453</ele>
        <time>2020-06-24T08:09:31Z</time>
      </trkpt>
      <trkpt lat="42.92731" lon="0.31121">
        <ele>1452</ele>
        <time>2020-06-24T08:09:44Z</time>
      </trkpt>
      <trkpt lat="42.92728" lon="0.31111">
        <ele>1452</ele>
        <time>2020-06-24T08:09:46Z</time>
      </trkpt>
      <trkpt lat="42.92723" lon="0.31102">
        <ele>1452</ele>
        <time>2020-06-24T08:09:48Z</time>
      </trkpt>
      <trkpt lat="42.92721" lon="0.31099">
        <ele>1452</ele>
        <time>2020-06-24T08:09:49Z</time>
      </trkpt>
      <trkpt lat="42.92705" lon="0.31085">
        <ele>1451</ele>
        <time>2020-06-24T08:09:55Z</time>
      </trkpt>
      <trkpt lat="42.92604" lon="0.31015">
        <ele>1449</ele>
        <time>2020-06-24T08:10:20Z</time>
      </trkpt>
      <trkpt lat="42.92602" lon="0.31013">
        <ele>1449</ele>
        <time>2020-06-24T08:10:21Z</time>
      </trkpt>
      <trkpt lat="42.92598" lon="0.31006">
        <ele>1449</ele>
        <time>2020-06-24T08:10:23Z</time>
      </trkpt>
      <trkpt lat="42.92595" lon="0.31003">
        <ele>1449</ele>
        <time>2020-06-24T08:10:24Z</time>
      </trkpt>
      <trkpt lat="42.92593" lon="0.30998">
        <ele>1449</ele>
        <time>2020-06-24T08:10:25Z</time>
      </trkpt>
      <trkpt lat="42.92589" lon="0.30995">
        <ele>1449</ele>
        <time>2020-06-24T08:10:26Z</time>
      </trkpt>
      <trkpt lat="42.92585" lon="0.30992">
        <ele>1449</ele>
        <time>2020-06-24T08:10:27Z</time>
      </trkpt>
      <trkpt lat="42.92574" lon="0.30984">
        <ele>1448</ele>
        <time>2020-06-24T08:10:30Z</time>
      </trkpt>
      <trkpt lat="42.92568" lon="0.30979">
        <ele>1448</ele>
        <time>2020-06-24T08:10:33Z</time>
      </trkpt>
      <trkpt lat="42.92566" lon="0.30976">
        <ele>1448</ele>
        <time>2020-06-24T08:10:34Z</time>
      </trkpt>
      <trkpt lat="42.92564" lon="0.30969">
        <ele>1448</ele>
        <time>2020-06-24T08:10:36Z</time>
      </trkpt>
      <trkpt lat="42.92563" lon="0.30957">
        <ele>1448</ele>
        <time>2020-06-24T08:10:39Z</time>
      </trkpt>
      <trkpt lat="42.92561" lon="0.30948">
        <ele>1448</ele>
        <time>2020-06-24T08:10:41Z</time>
      </trkpt>
      <trkpt lat="42.92556" lon="0.30942">
        <ele>1448</ele>
        <time>2020-06-24T08:10:43Z</time>
      </trkpt>
      <trkpt lat="42.92548" lon="0.30928">
        <ele>1448</ele>
        <time>2020-06-24T08:10:46Z</time>
      </trkpt>
      <trkpt lat="42.92544" lon="0.30917">
        <ele>1447</ele>
        <time>2020-06-24T08:10:48Z</time>
      </trkpt>
      <trkpt lat="42.92531" lon="0.30874">
        <ele>1445</ele>
        <time>2020-06-24T08:10:55Z</time>
      </trkpt>
      <trkpt lat="42.9253" lon="0.30867">
        <ele>1445</ele>
        <time>2020-06-24T08:10:56Z</time>
      </trkpt>
      <trkpt lat="42.92526" lon="0.30831">
        <ele>1444</ele>
        <time>2020-06-24T08:11:02Z</time>
      </trkpt>
      <trkpt lat="42.92524" lon="0.30826">
        <ele>1444</ele>
        <time>2020-06-24T08:11:03Z</time>
      </trkpt>
      <trkpt lat="42.92524" lon="0.30817">
        <ele>1444</ele>
        <time>2020-06-24T08:11:06Z</time>
      </trkpt>
      <trkpt lat="42.92522" lon="0.30812">
        <ele>1444</ele>
        <time>2020-06-24T08:11:08Z</time>
      </trkpt>
      <trkpt lat="42.9252" lon="0.30808">
        <ele>1444</ele>
        <time>2020-06-24T08:11:10Z</time>
      </trkpt>
      <trkpt lat="42.92519" lon="0.30803">
        <ele>1443</ele>
        <time>2020-06-24T08:11:14Z</time>
      </trkpt>
      <trkpt lat="42.92524" lon="0.30797">
        <ele>1443</ele>
        <time>2020-06-24T08:11:16Z</time>
      </trkpt>
      <trkpt lat="42.92529" lon="0.30778">
        <ele>1443</ele>
        <time>2020-06-24T08:11:19Z</time>
      </trkpt>
      <trkpt lat="42.9254" lon="0.30762">
        <ele>1442</ele>
        <time>2020-06-24T08:11:25Z</time>
      </trkpt>
      <trkpt lat="42.92628" lon="0.30728">
        <ele>1437</ele>
        <time>2020-06-24T08:11:46Z</time>
      </trkpt>
      <trkpt lat="42.92655" lon="0.30704">
        <ele>1435</ele>
        <time>2020-06-24T08:11:52Z</time>
      </trkpt>
      <trkpt lat="42.92659" lon="0.307">
        <ele>1435</ele>
        <time>2020-06-24T08:11:53Z</time>
      </trkpt>
      <trkpt lat="42.92661" lon="0.30694">
        <ele>1434</ele>
        <time>2020-06-24T08:11:54Z</time>
      </trkpt>
      <trkpt lat="42.92672" lon="0.30683">
        <ele>1434</ele>
        <time>2020-06-24T08:11:57Z</time>
      </trkpt>
      <trkpt lat="42.92676" lon="0.30677">
        <ele>1433</ele>
        <time>2020-06-24T08:11:59Z</time>
      </trkpt>
      <trkpt lat="42.92679" lon="0.30674">
        <ele>1433</ele>
        <time>2020-06-24T08:12:00Z</time>
      </trkpt>
      <trkpt lat="42.92683" lon="0.3067">
        <ele>1433</ele>
        <time>2020-06-24T08:12:01Z</time>
      </trkpt>
      <trkpt lat="42.92686" lon="0.30663">
        <ele>1433</ele>
        <time>2020-06-24T08:12:02Z</time>
      </trkpt>
      <trkpt lat="42.92693" lon="0.30654">
        <ele>1432</ele>
        <time>2020-06-24T08:12:04Z</time>
      </trkpt>
      <trkpt lat="42.92697" lon="0.30651">
        <ele>1432</ele>
        <time>2020-06-24T08:12:05Z</time>
      </trkpt>
      <trkpt lat="42.92705" lon="0.30647">
        <ele>1431</ele>
        <time>2020-06-24T08:12:07Z</time>
      </trkpt>
      <trkpt lat="42.92707" lon="0.30641">
        <ele>1431</ele>
        <time>2020-06-24T08:12:08Z</time>
      </trkpt>
      <trkpt lat="42.92711" lon="0.30637">
        <ele>1431</ele>
        <time>2020-06-24T08:12:09Z</time>
      </trkpt>
      <trkpt lat="42.92749" lon="0.30595">
        <ele>1427</ele>
        <time>2020-06-24T08:12:18Z</time>
      </trkpt>
      <trkpt lat="42.9275" lon="0.30558">
        <ele>1425</ele>
        <time>2020-06-24T08:12:23Z</time>
      </trkpt>
      <trkpt lat="42.92747" lon="0.3055">
        <ele>1425</ele>
        <time>2020-06-24T08:12:24Z</time>
      </trkpt>
      <trkpt lat="42.92745" lon="0.30525">
        <ele>1422</ele>
        <time>2020-06-24T08:12:27Z</time>
      </trkpt>
      <trkpt lat="42.92744" lon="0.30514">
        <ele>1421</ele>
        <time>2020-06-24T08:12:28Z</time>
      </trkpt>
      <trkpt lat="42.92742" lon="0.30504">
        <ele>1420</ele>
        <time>2020-06-24T08:12:29Z</time>
      </trkpt>
      <trkpt lat="42.92741" lon="0.30495">
        <ele>1419</ele>
        <time>2020-06-24T08:12:30Z</time>
      </trkpt>
      <trkpt lat="42.92738" lon="0.30462">
        <ele>1416</ele>
        <time>2020-06-24T08:12:34Z</time>
      </trkpt>
      <trkpt lat="42.92729" lon="0.30406">
        <ele>1412</ele>
        <time>2020-06-24T08:12:42Z</time>
      </trkpt>
      <trkpt lat="42.92727" lon="0.30386">
        <ele>1411</ele>
        <time>2020-06-24T08:12:45Z</time>
      </trkpt>
      <trkpt lat="42.92724" lon="0.30354">
        <ele>1410</ele>
        <time>2020-06-24T08:12:50Z</time>
      </trkpt>
      <trkpt lat="42.92724" lon="0.30347">
        <ele>1410</ele>
        <time>2020-06-24T08:12:51Z</time>
      </trkpt>
      <trkpt lat="42.92726" lon="0.30338">
        <ele>1409</ele>
        <time>2020-06-24T08:12:53Z</time>
      </trkpt>
      <trkpt lat="42.92728" lon="0.30332">
        <ele>1409</ele>
        <time>2020-06-24T08:12:54Z</time>
      </trkpt>
      <trkpt lat="42.92725" lon="0.30312">
        <ele>1408</ele>
        <time>2020-06-24T08:12:57Z</time>
      </trkpt>
      <trkpt lat="42.92704" lon="0.30257">
        <ele>1403</ele>
        <time>2020-06-24T08:13:04Z</time>
      </trkpt>
      <trkpt lat="42.92695" lon="0.30239">
        <ele>1401</ele>
        <time>2020-06-24T08:13:07Z</time>
      </trkpt>
      <trkpt lat="42.92625" lon="0.302">
        <ele>1398</ele>
        <time>2020-06-24T08:13:23Z</time>
      </trkpt>
      <trkpt lat="42.92608" lon="0.30196">
        <ele>1397</ele>
        <time>2020-06-24T08:13:28Z</time>
      </trkpt>
      <trkpt lat="42.92594" lon="0.30199">
        <ele>1397</ele>
        <time>2020-06-24T08:13:32Z</time>
      </trkpt>
      <trkpt lat="42.92539" lon="0.30193">
        <ele>1394</ele>
        <time>2020-06-24T08:13:45Z</time>
      </trkpt>
      <trkpt lat="42.92535" lon="0.30193">
        <ele>1393</ele>
        <time>2020-06-24T08:13:47Z</time>
      </trkpt>
      <trkpt lat="42.92513" lon="0.30194">
        <ele>1392</ele>
        <time>2020-06-24T08:13:52Z</time>
      </trkpt>
      <trkpt lat="42.92504" lon="0.30196">
        <ele>1391</ele>
        <time>2020-06-24T08:13:54Z</time>
      </trkpt>
      <trkpt lat="42.925" lon="0.30196">
        <ele>1391</ele>
        <time>2020-06-24T08:13:55Z</time>
      </trkpt>
      <trkpt lat="42.92488" lon="0.30195">
        <ele>1391</ele>
        <time>2020-06-24T08:13:58Z</time>
      </trkpt>
      <trkpt lat="42.92474" lon="0.30189">
        <ele>1390</ele>
        <time>2020-06-24T08:14:02Z</time>
      </trkpt>
      <trkpt lat="42.9247" lon="0.30186">
        <ele>1390</ele>
        <time>2020-06-24T08:14:03Z</time>
      </trkpt>
      <trkpt lat="42.92459" lon="0.30165">
        <ele>1387</ele>
        <time>2020-06-24T08:14:07Z</time>
      </trkpt>
      <trkpt lat="42.92452" lon="0.30154">
        <ele>1386</ele>
        <time>2020-06-24T08:14:11Z</time>
      </trkpt>
      <trkpt lat="42.92448" lon="0.30143">
        <ele>1385</ele>
        <time>2020-06-24T08:14:17Z</time>
      </trkpt>
      <trkpt lat="42.92452" lon="0.30144">
        <ele>1384</ele>
        <time>2020-06-24T08:15:43Z</time>
      </trkpt>
      <trkpt lat="42.92457" lon="0.3014">
        <ele>1383</ele>
        <time>2020-06-24T08:15:45Z</time>
      </trkpt>
      <trkpt lat="42.92485" lon="0.30114">
        <ele>1374</ele>
        <time>2020-06-24T08:15:53Z</time>
      </trkpt>
      <trkpt lat="42.92492" lon="0.30105">
        <ele>1373</ele>
        <time>2020-06-24T08:15:59Z</time>
      </trkpt>
      <trkpt lat="42.92493" lon="0.30101">
        <ele>1372</ele>
        <time>2020-06-24T08:16:44Z</time>
      </trkpt>
      <trkpt lat="42.92499" lon="0.30096">
        <ele>1369</ele>
        <time>2020-06-24T08:16:46Z</time>
      </trkpt>
      <trkpt lat="42.92505" lon="0.3009">
        <ele>1368</ele>
        <time>2020-06-24T08:16:48Z</time>
      </trkpt>
      <trkpt lat="42.9251" lon="0.30071">
        <ele>1366</ele>
        <time>2020-06-24T08:16:52Z</time>
      </trkpt>
      <trkpt lat="42.92515" lon="0.30052">
        <ele>1360</ele>
        <time>2020-06-24T08:16:55Z</time>
      </trkpt>
      <trkpt lat="42.92532" lon="0.3">
        <ele>1352</ele>
        <time>2020-06-24T08:17:04Z</time>
      </trkpt>
      <trkpt lat="42.92533" lon="0.29995">
        <ele>1352</ele>
        <time>2020-06-24T08:17:05Z</time>
      </trkpt>
      <trkpt lat="42.92533" lon="0.29988">
        <ele>1352</ele>
        <time>2020-06-24T08:17:06Z</time>
      </trkpt>
      <trkpt lat="42.92534" lon="0.29977">
        <ele>1352</ele>
        <time>2020-06-24T08:17:08Z</time>
      </trkpt>
      <trkpt lat="42.92535" lon="0.29961">
        <ele>1352</ele>
        <time>2020-06-24T08:17:12Z</time>
      </trkpt>
      <trkpt lat="42.92536" lon="0.29949">
        <ele>1352</ele>
        <time>2020-06-24T08:17:14Z</time>
      </trkpt>
      <trkpt lat="42.9254" lon="0.29932">
        <ele>1351</ele>
        <time>2020-06-24T08:17:17Z</time>
      </trkpt>
      <trkpt lat="42.92545" lon="0.29917">
        <ele>1350</ele>
        <time>2020-06-24T08:17:20Z</time>
      </trkpt>
      <trkpt lat="42.92547" lon="0.29911">
        <ele>1350</ele>
        <time>2020-06-24T08:17:21Z</time>
      </trkpt>
      <trkpt lat="42.92548" lon="0.29898">
        <ele>1350</ele>
        <time>2020-06-24T08:17:24Z</time>
      </trkpt>
      <trkpt lat="42.92548" lon="0.29892">
        <ele>1350</ele>
        <time>2020-06-24T08:17:25Z</time>
      </trkpt>
      <trkpt lat="42.92554" lon="0.2987">
        <ele>1350</ele>
        <time>2020-06-24T08:17:31Z</time>
      </trkpt>
      <trkpt lat="42.92561" lon="0.29865">
        <ele>1350</ele>
        <time>2020-06-24T08:17:36Z</time>
      </trkpt>
      <trkpt lat="42.92567" lon="0.29862">
        <ele>1350</ele>
        <time>2020-06-24T08:17:38Z</time>
      </trkpt>
      <trkpt lat="42.9261" lon="0.29797">
        <ele>1349</ele>
        <time>2020-06-24T08:17:56Z</time>
      </trkpt>
      <trkpt lat="42.92615" lon="0.29792">
        <ele>1348</ele>
        <time>2020-06-24T08:17:58Z</time>
      </trkpt>
      <trkpt lat="42.92623" lon="0.29786">
        <ele>1348</ele>
        <time>2020-06-24T08:18:01Z</time>
      </trkpt>
      <trkpt lat="42.92702" lon="0.29681">
        <ele>1345</ele>
        <time>2020-06-24T08:18:31Z</time>
      </trkpt>
      <trkpt lat="42.92738" lon="0.29638">
        <ele>1344</ele>
        <time>2020-06-24T08:18:44Z</time>
      </trkpt>
      <trkpt lat="42.92739" lon="0.29632">
        <ele>1344</ele>
        <time>2020-06-24T08:18:46Z</time>
      </trkpt>
      <trkpt lat="42.92739" lon="0.29626">
        <ele>1344</ele>
        <time>2020-06-24T08:18:48Z</time>
      </trkpt>
      <trkpt lat="42.92737" lon="0.29618">
        <ele>1344</ele>
        <time>2020-06-24T08:18:52Z</time>
      </trkpt>
      <trkpt lat="42.92735" lon="0.29615">
        <ele>1344</ele>
        <time>2020-06-24T08:19:26Z</time>
      </trkpt>
      <trkpt lat="42.92735" lon="0.29611">
        <ele>1344</ele>
        <time>2020-06-24T08:19:28Z</time>
      </trkpt>
      <trkpt lat="42.92734" lon="0.29605">
        <ele>1343</ele>
        <time>2020-06-24T08:19:30Z</time>
      </trkpt>
      <trkpt lat="42.92731" lon="0.29606">
        <ele>1343</ele>
        <time>2020-06-24T08:19:33Z</time>
      </trkpt>
      <trkpt lat="42.92722" lon="0.29613">
        <ele>1343</ele>
        <time>2020-06-24T08:19:37Z</time>
      </trkpt>
      <trkpt lat="42.92717" lon="0.29617">
        <ele>1342</ele>
        <time>2020-06-24T08:19:39Z</time>
      </trkpt>
      <trkpt lat="42.92713" lon="0.29619">
        <ele>1342</ele>
        <time>2020-06-24T08:19:41Z</time>
      </trkpt>
      <trkpt lat="42.927" lon="0.29616">
        <ele>1342</ele>
        <time>2020-06-24T08:19:45Z</time>
      </trkpt>
      <trkpt lat="42.92694" lon="0.29615">
        <ele>1341</ele>
        <time>2020-06-24T08:19:57Z</time>
      </trkpt>
      <trkpt lat="42.92697" lon="0.29615">
        <ele>1340</ele>
        <time>2020-06-24T08:20:45Z</time>
      </trkpt>
      <trkpt lat="42.927" lon="0.29614">
        <ele>1340</ele>
        <time>2020-06-24T08:20:47Z</time>
      </trkpt>
      <trkpt lat="42.92717" lon="0.29617">
        <ele>1335</ele>
        <time>2020-06-24T08:20:59Z</time>
      </trkpt>
      <trkpt lat="42.9273" lon="0.29613">
        <ele>1333</ele>
        <time>2020-06-24T08:21:12Z</time>
      </trkpt>
      <trkpt lat="42.9273" lon="0.29609">
        <ele>1332</ele>
        <time>2020-06-24T08:21:18Z</time>
      </trkpt>
      <trkpt lat="42.92729" lon="0.29605">
        <ele>1332</ele>
        <time>2020-06-24T08:21:26Z</time>
      </trkpt>
      <trkpt lat="42.92727" lon="0.29605">
        <ele>1330</ele>
        <time>2020-06-24T08:23:23Z</time>
      </trkpt>
      <trkpt lat="42.92725" lon="0.29603">
        <ele>1330</ele>
        <time>2020-06-24T08:23:49Z</time>
      </trkpt>
      <trkpt lat="42.92722" lon="0.29602">
        <ele>1329</ele>
        <time>2020-06-24T08:24:01Z</time>
      </trkpt>
      <trkpt lat="42.92711" lon="0.29588">
        <ele>1327</ele>
        <time>2020-06-24T08:24:09Z</time>
      </trkpt>
      <trkpt lat="42.92683" lon="0.29562">
        <ele>1326</ele>
        <time>2020-06-24T08:24:20Z</time>
      </trkpt>
      <trkpt lat="42.92656" lon="0.29545">
        <ele>1324</ele>
        <time>2020-06-24T08:24:31Z</time>
      </trkpt>
      <trkpt lat="42.92648" lon="0.29538">
        <ele>1324</ele>
        <time>2020-06-24T08:24:33Z</time>
      </trkpt>
      <trkpt lat="42.92643" lon="0.29535">
        <ele>1324</ele>
        <time>2020-06-24T08:24:35Z</time>
      </trkpt>
      <trkpt lat="42.9263" lon="0.29531">
        <ele>1324</ele>
        <time>2020-06-24T08:24:39Z</time>
      </trkpt>
      <trkpt lat="42.92614" lon="0.29516">
        <ele>1323</ele>
        <time>2020-06-24T08:24:44Z</time>
      </trkpt>
      <trkpt lat="42.92612" lon="0.29515">
        <ele>1323</ele>
        <time>2020-06-24T08:24:45Z</time>
      </trkpt>
      <trkpt lat="42.92609" lon="0.29514">
        <ele>1323</ele>
        <time>2020-06-24T08:24:46Z</time>
      </trkpt>
      <trkpt lat="42.926" lon="0.2951">
        <ele>1322</ele>
        <time>2020-06-24T08:24:48Z</time>
      </trkpt>
      <trkpt lat="42.92595" lon="0.29507">
        <ele>1322</ele>
        <time>2020-06-24T08:24:49Z</time>
      </trkpt>
      <trkpt lat="42.92581" lon="0.29493">
        <ele>1321</ele>
        <time>2020-06-24T08:24:52Z</time>
      </trkpt>
      <trkpt lat="42.92569" lon="0.29482">
        <ele>1321</ele>
        <time>2020-06-24T08:24:56Z</time>
      </trkpt>
      <trkpt lat="42.92563" lon="0.29477">
        <ele>1321</ele>
        <time>2020-06-24T08:24:58Z</time>
      </trkpt>
      <trkpt lat="42.92556" lon="0.29476">
        <ele>1321</ele>
        <time>2020-06-24T08:24:59Z</time>
      </trkpt>
      <trkpt lat="42.92494" lon="0.29419">
        <ele>1319</ele>
        <time>2020-06-24T08:25:13Z</time>
      </trkpt>
      <trkpt lat="42.92449" lon="0.29358">
        <ele>1318</ele>
        <time>2020-06-24T08:25:27Z</time>
      </trkpt>
      <trkpt lat="42.92423" lon="0.29332">
        <ele>1318</ele>
        <time>2020-06-24T08:25:35Z</time>
      </trkpt>
      <trkpt lat="42.92414" lon="0.29327">
        <ele>1318</ele>
        <time>2020-06-24T08:25:37Z</time>
      </trkpt>
      <trkpt lat="42.92402" lon="0.29318">
        <ele>1318</ele>
        <time>2020-06-24T08:25:40Z</time>
      </trkpt>
      <trkpt lat="42.92369" lon="0.29309">
        <ele>1317</ele>
        <time>2020-06-24T08:25:46Z</time>
      </trkpt>
      <trkpt lat="42.92351" lon="0.29309">
        <ele>1316</ele>
        <time>2020-06-24T08:25:51Z</time>
      </trkpt>
      <trkpt lat="42.92347" lon="0.2931">
        <ele>1315</ele>
        <time>2020-06-24T08:25:53Z</time>
      </trkpt>
      <trkpt lat="42.9234" lon="0.29307">
        <ele>1314</ele>
        <time>2020-06-24T08:26:30Z</time>
      </trkpt>
      <trkpt lat="42.9233" lon="0.29308">
        <ele>1312</ele>
        <time>2020-06-24T08:26:40Z</time>
      </trkpt>
      <trkpt lat="42.92304" lon="0.29322">
        <ele>1309</ele>
        <time>2020-06-24T08:26:49Z</time>
      </trkpt>
      <trkpt lat="42.92217" lon="0.2934">
        <ele>1291</ele>
        <time>2020-06-24T08:27:16Z</time>
      </trkpt>
      <trkpt lat="42.92211" lon="0.29339">
        <ele>1291</ele>
        <time>2020-06-24T08:27:18Z</time>
      </trkpt>
      <trkpt lat="42.92207" lon="0.29338">
        <ele>1291</ele>
        <time>2020-06-24T08:27:20Z</time>
      </trkpt>
      <trkpt lat="42.92204" lon="0.29337">
        <ele>1290</ele>
        <time>2020-06-24T08:27:23Z</time>
      </trkpt>
      <trkpt lat="42.92202" lon="0.29333">
        <ele>1290</ele>
        <time>2020-06-24T08:27:40Z</time>
      </trkpt>
      <trkpt lat="42.92201" lon="0.29328">
        <ele>1290</ele>
        <time>2020-06-24T08:27:42Z</time>
      </trkpt>
      <trkpt lat="42.92199" lon="0.29322">
        <ele>1289</ele>
        <time>2020-06-24T08:27:44Z</time>
      </trkpt>
      <trkpt lat="42.9219" lon="0.29309">
        <ele>1289</ele>
        <time>2020-06-24T08:27:48Z</time>
      </trkpt>
      <trkpt lat="42.92178" lon="0.29298">
        <ele>1288</ele>
        <time>2020-06-24T08:27:51Z</time>
      </trkpt>
      <trkpt lat="42.9213" lon="0.2923">
        <ele>1285</ele>
        <time>2020-06-24T08:28:09Z</time>
      </trkpt>
      <trkpt lat="42.92118" lon="0.29223">
        <ele>1285</ele>
        <time>2020-06-24T08:28:13Z</time>
      </trkpt>
      <trkpt lat="42.92106" lon="0.2922">
        <ele>1284</ele>
        <time>2020-06-24T08:28:19Z</time>
      </trkpt>
      <trkpt lat="42.921" lon="0.2922">
        <ele>1283</ele>
        <time>2020-06-24T08:28:22Z</time>
      </trkpt>
      <trkpt lat="42.92084" lon="0.29232">
        <ele>1281</ele>
        <time>2020-06-24T08:28:31Z</time>
      </trkpt>
      <trkpt lat="42.92078" lon="0.29235">
        <ele>1281</ele>
        <time>2020-06-24T08:28:34Z</time>
      </trkpt>
      <trkpt lat="42.92067" lon="0.29238">
        <ele>1280</ele>
        <time>2020-06-24T08:28:40Z</time>
      </trkpt>
      <trkpt lat="42.92062" lon="0.2924">
        <ele>1279</ele>
        <time>2020-06-24T08:28:43Z</time>
      </trkpt>
      <trkpt lat="42.92055" lon="0.29238">
        <ele>1279</ele>
        <time>2020-06-24T08:28:47Z</time>
      </trkpt>
      <trkpt lat="42.9199" lon="0.29244">
        <ele>1274</ele>
        <time>2020-06-24T08:29:18Z</time>
      </trkpt>
      <trkpt lat="42.91961" lon="0.29254">
        <ele>1272</ele>
        <time>2020-06-24T08:29:32Z</time>
      </trkpt>
      <trkpt lat="42.9195" lon="0.29258">
        <ele>1272</ele>
        <time>2020-06-24T08:29:37Z</time>
      </trkpt>
      <trkpt lat="42.91945" lon="0.29257">
        <ele>1272</ele>
        <time>2020-06-24T08:29:39Z</time>
      </trkpt>
      <trkpt lat="42.9193" lon="0.29249">
        <ele>1271</ele>
        <time>2020-06-24T08:29:46Z</time>
      </trkpt>
      <trkpt lat="42.9191" lon="0.29248">
        <ele>1271</ele>
        <time>2020-06-24T08:29:54Z</time>
      </trkpt>
      <trkpt lat="42.91843" lon="0.29211">
        <ele>1269</ele>
        <time>2020-06-24T08:30:49Z</time>
      </trkpt>
      <trkpt lat="42.91759" lon="0.29139">
        <ele>1270</ele>
        <time>2020-06-24T08:31:19Z</time>
      </trkpt>
      <trkpt lat="42.91734" lon="0.29121">
        <ele>1270</ele>
        <time>2020-06-24T08:31:30Z</time>
      </trkpt>
      <trkpt lat="42.9173" lon="0.29118">
        <ele>1270</ele>
        <time>2020-06-24T08:31:32Z</time>
      </trkpt>
      <trkpt lat="42.91727" lon="0.29114">
        <ele>1270</ele>
        <time>2020-06-24T08:31:34Z</time>
      </trkpt>
      <trkpt lat="42.91706" lon="0.29102">
        <ele>1270</ele>
        <time>2020-06-24T08:31:46Z</time>
      </trkpt>
      <trkpt lat="42.91699" lon="0.291">
        <ele>1270</ele>
        <time>2020-06-24T08:31:50Z</time>
      </trkpt>
      <trkpt lat="42.91697" lon="0.29097">
        <ele>1270</ele>
        <time>2020-06-24T08:31:52Z</time>
      </trkpt>
      <trkpt lat="42.9169" lon="0.29087">
        <ele>1270</ele>
        <time>2020-06-24T08:32:00Z</time>
      </trkpt>
      <trkpt lat="42.91686" lon="0.29084">
        <ele>1270</ele>
        <time>2020-06-24T08:32:03Z</time>
      </trkpt>
      <trkpt lat="42.91664" lon="0.29079">
        <ele>1271</ele>
        <time>2020-06-24T08:32:12Z</time>
      </trkpt>
      <trkpt lat="42.91654" lon="0.2907">
        <ele>1271</ele>
        <time>2020-06-24T08:32:20Z</time>
      </trkpt>
      <trkpt lat="42.91646" lon="0.29069">
        <ele>1271</ele>
        <time>2020-06-24T08:32:32Z</time>
      </trkpt>
      <trkpt lat="42.91642" lon="0.29068">
        <ele>1271</ele>
        <time>2020-06-24T08:32:38Z</time>
      </trkpt>
      <trkpt lat="42.9164" lon="0.29066">
        <ele>1272</ele>
        <time>2020-06-24T08:32:42Z</time>
      </trkpt>
      <trkpt lat="42.91637" lon="0.29066">
        <ele>1272</ele>
        <time>2020-06-24T08:32:44Z</time>
      </trkpt>
      <trkpt lat="42.91634" lon="0.29064">
        <ele>1272</ele>
        <time>2020-06-24T08:32:49Z</time>
      </trkpt>
      <trkpt lat="42.91627" lon="0.29061">
        <ele>1272</ele>
        <time>2020-06-24T08:32:58Z</time>
      </trkpt>
      <trkpt lat="42.91625" lon="0.29059">
        <ele>1272</ele>
        <time>2020-06-24T08:33:01Z</time>
      </trkpt>
      <trkpt lat="42.91621" lon="0.29057">
        <ele>1273</ele>
        <time>2020-06-24T08:33:04Z</time>
      </trkpt>
      <trkpt lat="42.91617" lon="0.29056">
        <ele>1273</ele>
        <time>2020-06-24T08:33:06Z</time>
      </trkpt>
      <trkpt lat="42.91611" lon="0.29055">
        <ele>1273</ele>
        <time>2020-06-24T08:33:12Z</time>
      </trkpt>
      <trkpt lat="42.91608" lon="0.29054">
        <ele>1273</ele>
        <time>2020-06-24T08:33:15Z</time>
      </trkpt>
      <trkpt lat="42.91605" lon="0.29053">
        <ele>1274</ele>
        <time>2020-06-24T08:33:18Z</time>
      </trkpt>
      <trkpt lat="42.91602" lon="0.29051">
        <ele>1274</ele>
        <time>2020-06-24T08:33:24Z</time>
      </trkpt>
      <trkpt lat="42.91599" lon="0.29051">
        <ele>1274</ele>
        <time>2020-06-24T08:33:26Z</time>
      </trkpt>
      <trkpt lat="42.91597" lon="0.29051">
        <ele>1274</ele>
        <time>2020-06-24T08:33:28Z</time>
      </trkpt>
      <trkpt lat="42.91587" lon="0.29047">
        <ele>1275</ele>
        <time>2020-06-24T08:33:37Z</time>
      </trkpt>
      <trkpt lat="42.91575" lon="0.29045">
        <ele>1276</ele>
        <time>2020-06-24T08:33:58Z</time>
      </trkpt>
      <trkpt lat="42.91572" lon="0.29043">
        <ele>1276</ele>
        <time>2020-06-24T08:34:01Z</time>
      </trkpt>
      <trkpt lat="42.9157" lon="0.2904">
        <ele>1276</ele>
        <time>2020-06-24T08:34:05Z</time>
      </trkpt>
      <trkpt lat="42.91558" lon="0.29038">
        <ele>1277</ele>
        <time>2020-06-24T08:34:28Z</time>
      </trkpt>
      <trkpt lat="42.91554" lon="0.29038">
        <ele>1278</ele>
        <time>2020-06-24T08:34:32Z</time>
      </trkpt>
      <trkpt lat="42.91547" lon="0.29033">
        <ele>1278</ele>
        <time>2020-06-24T08:34:41Z</time>
      </trkpt>
      <trkpt lat="42.9154" lon="0.29031">
        <ele>1278</ele>
        <time>2020-06-24T08:34:50Z</time>
      </trkpt>
      <trkpt lat="42.91538" lon="0.29033">
        <ele>1278</ele>
        <time>2020-06-24T08:34:54Z</time>
      </trkpt>
      <trkpt lat="42.91535" lon="0.29033">
        <ele>1279</ele>
        <time>2020-06-24T08:34:58Z</time>
      </trkpt>
      <trkpt lat="42.91532" lon="0.29033">
        <ele>1279</ele>
        <time>2020-06-24T08:35:01Z</time>
      </trkpt>
      <trkpt lat="42.91529" lon="0.29034">
        <ele>1279</ele>
        <time>2020-06-24T08:35:05Z</time>
      </trkpt>
      <trkpt lat="42.91526" lon="0.29037">
        <ele>1279</ele>
        <time>2020-06-24T08:35:09Z</time>
      </trkpt>
      <trkpt lat="42.91524" lon="0.2904">
        <ele>1279</ele>
        <time>2020-06-24T08:35:12Z</time>
      </trkpt>
      <trkpt lat="42.91521" lon="0.29037">
        <ele>1279</ele>
        <time>2020-06-24T08:35:26Z</time>
      </trkpt>
      <trkpt lat="42.91518" lon="0.29037">
        <ele>1279</ele>
        <time>2020-06-24T08:35:29Z</time>
      </trkpt>
      <trkpt lat="42.91516" lon="0.29038">
        <ele>1279</ele>
        <time>2020-06-24T08:35:36Z</time>
      </trkpt>
      <trkpt lat="42.91511" lon="0.29037">
        <ele>1280</ele>
        <time>2020-06-24T08:36:29Z</time>
      </trkpt>
      <trkpt lat="42.91438" lon="0.29031">
        <ele>1281</ele>
        <time>2020-06-24T08:37:00Z</time>
      </trkpt>
      <trkpt lat="42.9143" lon="0.29034">
        <ele>1281</ele>
        <time>2020-06-24T08:37:04Z</time>
      </trkpt>
      <trkpt lat="42.91423" lon="0.29043">
        <ele>1281</ele>
        <time>2020-06-24T08:37:08Z</time>
      </trkpt>
      <trkpt lat="42.91414" lon="0.29048">
        <ele>1281</ele>
        <time>2020-06-24T08:37:12Z</time>
      </trkpt>
      <trkpt lat="42.91376" lon="0.29057">
        <ele>1282</ele>
        <time>2020-06-24T08:37:26Z</time>
      </trkpt>
      <trkpt lat="42.91367" lon="0.29056">
        <ele>1283</ele>
        <time>2020-06-24T08:37:30Z</time>
      </trkpt>
      <trkpt lat="42.91346" lon="0.29044">
        <ele>1284</ele>
        <time>2020-06-24T08:37:40Z</time>
      </trkpt>
      <trkpt lat="42.91259" lon="0.29014">
        <ele>1290</ele>
        <time>2020-06-24T08:38:10Z</time>
      </trkpt>
      <trkpt lat="42.91236" lon="0.29006">
        <ele>1292</ele>
        <time>2020-06-24T08:38:19Z</time>
      </trkpt>
      <trkpt lat="42.91227" lon="0.29006">
        <ele>1294</ele>
        <time>2020-06-24T08:38:23Z</time>
      </trkpt>
      <trkpt lat="42.91203" lon="0.29002">
        <ele>1297</ele>
        <time>2020-06-24T08:38:35Z</time>
      </trkpt>
      <trkpt lat="42.91196" lon="0.29002">
        <ele>1297</ele>
        <time>2020-06-24T08:38:38Z</time>
      </trkpt>
      <trkpt lat="42.91193" lon="0.29002">
        <ele>1298</ele>
        <time>2020-06-24T08:38:39Z</time>
      </trkpt>
      <trkpt lat="42.91183" lon="0.28998">
        <ele>1298</ele>
        <time>2020-06-24T08:38:43Z</time>
      </trkpt>
      <trkpt lat="42.91181" lon="0.28997">
        <ele>1299</ele>
        <time>2020-06-24T08:38:44Z</time>
      </trkpt>
      <trkpt lat="42.91162" lon="0.28994">
        <ele>1300</ele>
        <time>2020-06-24T08:38:52Z</time>
      </trkpt>
      <trkpt lat="42.9116" lon="0.28994">
        <ele>1300</ele>
        <time>2020-06-24T08:38:53Z</time>
      </trkpt>
      <trkpt lat="42.91097" lon="0.28996">
        <ele>1304</ele>
        <time>2020-06-24T08:39:15Z</time>
      </trkpt>
      <trkpt lat="42.91094" lon="0.28995">
        <ele>1304</ele>
        <time>2020-06-24T08:39:16Z</time>
      </trkpt>
      <trkpt lat="42.91091" lon="0.28995">
        <ele>1304</ele>
        <time>2020-06-24T08:39:17Z</time>
      </trkpt>
      <trkpt lat="42.91087" lon="0.2899">
        <ele>1305</ele>
        <time>2020-06-24T08:39:19Z</time>
      </trkpt>
      <trkpt lat="42.91084" lon="0.28989">
        <ele>1305</ele>
        <time>2020-06-24T08:39:20Z</time>
      </trkpt>
      <trkpt lat="42.91055" lon="0.28984">
        <ele>1306</ele>
        <time>2020-06-24T08:39:30Z</time>
      </trkpt>
      <trkpt lat="42.91053" lon="0.28984">
        <ele>1306</ele>
        <time>2020-06-24T08:39:31Z</time>
      </trkpt>
      <trkpt lat="42.91039" lon="0.28996">
        <ele>1307</ele>
        <time>2020-06-24T08:39:37Z</time>
      </trkpt>
      <trkpt lat="42.91023" lon="0.29002">
        <ele>1308</ele>
        <time>2020-06-24T08:39:43Z</time>
      </trkpt>
      <trkpt lat="42.91015" lon="0.29003">
        <ele>1309</ele>
        <time>2020-06-24T08:39:46Z</time>
      </trkpt>
      <trkpt lat="42.91" lon="0.28999">
        <ele>1310</ele>
        <time>2020-06-24T08:39:52Z</time>
      </trkpt>
      <trkpt lat="42.90962" lon="0.28965">
        <ele>1312</ele>
        <time>2020-06-24T08:40:12Z</time>
      </trkpt>
      <trkpt lat="42.90958" lon="0.28963">
        <ele>1312</ele>
        <time>2020-06-24T08:40:14Z</time>
      </trkpt>
      <trkpt lat="42.90956" lon="0.2896">
        <ele>1313</ele>
        <time>2020-06-24T08:40:17Z</time>
      </trkpt>
      <trkpt lat="42.90954" lon="0.2896">
        <ele>1313</ele>
        <time>2020-06-24T08:41:01Z</time>
      </trkpt>
      <trkpt lat="42.90952" lon="0.28961">
        <ele>1313</ele>
        <time>2020-06-24T08:41:15Z</time>
      </trkpt>
      <trkpt lat="42.90949" lon="0.28967">
        <ele>1315</ele>
        <time>2020-06-24T08:41:46Z</time>
      </trkpt>
      <trkpt lat="42.90945" lon="0.28969">
        <ele>1317</ele>
        <time>2020-06-24T08:42:58Z</time>
      </trkpt>
      <trkpt lat="42.90945" lon="0.28966">
        <ele>1320</ele>
        <time>2020-06-24T08:44:15Z</time>
      </trkpt>
      <trkpt lat="42.90944" lon="0.28963">
        <ele>1326</ele>
        <time>2020-06-24T08:45:32Z</time>
      </trkpt>
      <trkpt lat="42.90888" lon="0.28909">
        <ele>1333</ele>
        <time>2020-06-24T08:46:01Z</time>
      </trkpt>
      <trkpt lat="42.90883" lon="0.28906">
        <ele>1333</ele>
        <time>2020-06-24T08:46:03Z</time>
      </trkpt>
      <trkpt lat="42.90881" lon="0.28906">
        <ele>1334</ele>
        <time>2020-06-24T08:46:13Z</time>
      </trkpt>
      <trkpt lat="42.9088" lon="0.28906">
        <ele>1334</ele>
        <time>2020-06-24T08:46:25Z</time>
      </trkpt>
      <trkpt lat="42.90877" lon="0.28901">
        <ele>1334</ele>
        <time>2020-06-24T08:46:27Z</time>
      </trkpt>
      <trkpt lat="42.90874" lon="0.28895">
        <ele>1335</ele>
        <time>2020-06-24T08:46:29Z</time>
      </trkpt>
      <trkpt lat="42.90828" lon="0.28852">
        <ele>1337</ele>
        <time>2020-06-24T08:46:50Z</time>
      </trkpt>
      <trkpt lat="42.90806" lon="0.28842">
        <ele>1338</ele>
        <time>2020-06-24T08:46:59Z</time>
      </trkpt>
      <trkpt lat="42.90768" lon="0.28832">
        <ele>1339</ele>
        <time>2020-06-24T08:47:14Z</time>
      </trkpt>
      <trkpt lat="42.90761" lon="0.28829">
        <ele>1339</ele>
        <time>2020-06-24T08:47:17Z</time>
      </trkpt>
      <trkpt lat="42.9074" lon="0.28824">
        <ele>1340</ele>
        <time>2020-06-24T08:47:26Z</time>
      </trkpt>
      <trkpt lat="42.90729" lon="0.28819">
        <ele>1340</ele>
        <time>2020-06-24T08:47:31Z</time>
      </trkpt>
      <trkpt lat="42.9066" lon="0.28804">
        <ele>1342</ele>
        <time>2020-06-24T08:48:01Z</time>
      </trkpt>
      <trkpt lat="42.90632" lon="0.28798">
        <ele>1342</ele>
        <time>2020-06-24T08:48:15Z</time>
      </trkpt>
      <trkpt lat="42.9063" lon="0.28797">
        <ele>1343</ele>
        <time>2020-06-24T08:48:16Z</time>
      </trkpt>
      <trkpt lat="42.90628" lon="0.28798">
        <ele>1343</ele>
        <time>2020-06-24T08:48:17Z</time>
      </trkpt>
      <trkpt lat="42.90581" lon="0.28788">
        <ele>1344</ele>
        <time>2020-06-24T08:48:43Z</time>
      </trkpt>
      <trkpt lat="42.90561" lon="0.28792">
        <ele>1345</ele>
        <time>2020-06-24T08:48:53Z</time>
      </trkpt>
      <trkpt lat="42.90554" lon="0.28791">
        <ele>1345</ele>
        <time>2020-06-24T08:48:57Z</time>
      </trkpt>
      <trkpt lat="42.90551" lon="0.28791">
        <ele>1345</ele>
        <time>2020-06-24T08:48:59Z</time>
      </trkpt>
      <trkpt lat="42.90543" lon="0.28794">
        <ele>1346</ele>
        <time>2020-06-24T08:49:41Z</time>
      </trkpt>
      <trkpt lat="42.90519" lon="0.28818">
        <ele>1351</ele>
        <time>2020-06-24T08:49:48Z</time>
      </trkpt>
      <trkpt lat="42.90515" lon="0.28824">
        <ele>1352</ele>
        <time>2020-06-24T08:49:49Z</time>
      </trkpt>
      <trkpt lat="42.90512" lon="0.2883">
        <ele>1352</ele>
        <time>2020-06-24T08:49:50Z</time>
      </trkpt>
      <trkpt lat="42.90507" lon="0.28846">
        <ele>1353</ele>
        <time>2020-06-24T08:49:52Z</time>
      </trkpt>
      <trkpt lat="42.90504" lon="0.28924">
        <ele>1355</ele>
        <time>2020-06-24T08:50:03Z</time>
      </trkpt>
      <trkpt lat="42.90505" lon="0.28939">
        <ele>1356</ele>
        <time>2020-06-24T08:50:05Z</time>
      </trkpt>
      <trkpt lat="42.9053" lon="0.28993">
        <ele>1358</ele>
        <time>2020-06-24T08:50:15Z</time>
      </trkpt>
      <trkpt lat="42.90544" lon="0.29015">
        <ele>1360</ele>
        <time>2020-06-24T08:50:20Z</time>
      </trkpt>
      <trkpt lat="42.90589" lon="0.29049">
        <ele>1367</ele>
        <time>2020-06-24T08:50:32Z</time>
      </trkpt>
      <trkpt lat="42.90656" lon="0.29101">
        <ele>1376</ele>
        <time>2020-06-24T08:50:51Z</time>
      </trkpt>
      <trkpt lat="42.90673" lon="0.29127">
        <ele>1379</ele>
        <time>2020-06-24T08:51:03Z</time>
      </trkpt>
      <trkpt lat="42.90689" lon="0.2918">
        <ele>1383</ele>
        <time>2020-06-24T08:51:20Z</time>
      </trkpt>
      <trkpt lat="42.90691" lon="0.29185">
        <ele>1383</ele>
        <time>2020-06-24T08:51:22Z</time>
      </trkpt>
      <trkpt lat="42.90702" lon="0.29215">
        <ele>1386</ele>
        <time>2020-06-24T08:51:32Z</time>
      </trkpt>
      <trkpt lat="42.90743" lon="0.29279">
        <ele>1393</ele>
        <time>2020-06-24T08:51:58Z</time>
      </trkpt>
      <trkpt lat="42.90766" lon="0.29302">
        <ele>1396</ele>
        <time>2020-06-24T08:52:10Z</time>
      </trkpt>
      <trkpt lat="42.90775" lon="0.29309">
        <ele>1397</ele>
        <time>2020-06-24T08:52:14Z</time>
      </trkpt>
      <trkpt lat="42.90795" lon="0.29329">
        <ele>1399</ele>
        <time>2020-06-24T08:52:24Z</time>
      </trkpt>
      <trkpt lat="42.90844" lon="0.29409">
        <ele>1404</ele>
        <time>2020-06-24T08:52:54Z</time>
      </trkpt>
      <trkpt lat="42.90863" lon="0.29434">
        <ele>1405</ele>
        <time>2020-06-24T08:53:04Z</time>
      </trkpt>
      <trkpt lat="42.90892" lon="0.29477">
        <ele>1406</ele>
        <time>2020-06-24T08:53:18Z</time>
      </trkpt>
      <trkpt lat="42.90938" lon="0.29541">
        <ele>1408</ele>
        <time>2020-06-24T08:53:40Z</time>
      </trkpt>
      <trkpt lat="42.90992" lon="0.29641">
        <ele>1411</ele>
        <time>2020-06-24T08:54:10Z</time>
      </trkpt>
      <trkpt lat="42.91048" lon="0.29749">
        <ele>1416</ele>
        <time>2020-06-24T08:54:39Z</time>
      </trkpt>
      <trkpt lat="42.91057" lon="0.29785">
        <ele>1417</ele>
        <time>2020-06-24T08:54:45Z</time>
      </trkpt>
      <trkpt lat="42.91057" lon="0.29809">
        <ele>1418</ele>
        <time>2020-06-24T08:54:49Z</time>
      </trkpt>
      <trkpt lat="42.91056" lon="0.29821">
        <ele>1418</ele>
        <time>2020-06-24T08:54:51Z</time>
      </trkpt>
      <trkpt lat="42.91044" lon="0.29841">
        <ele>1419</ele>
        <time>2020-06-24T08:54:55Z</time>
      </trkpt>
      <trkpt lat="42.90927" lon="0.29928">
        <ele>1423</ele>
        <time>2020-06-24T08:55:21Z</time>
      </trkpt>
      <trkpt lat="42.90801" lon="0.29985">
        <ele>1429</ele>
        <time>2020-06-24T08:55:52Z</time>
      </trkpt>
      <trkpt lat="42.9079" lon="0.29989">
        <ele>1429</ele>
        <time>2020-06-24T08:55:56Z</time>
      </trkpt>
      <trkpt lat="42.90736" lon="0.30012">
        <ele>1430</ele>
        <time>2020-06-24T08:56:15Z</time>
      </trkpt>
      <trkpt lat="42.90653" lon="0.30034">
        <ele>1433</ele>
        <time>2020-06-24T08:56:45Z</time>
      </trkpt>
      <trkpt lat="42.90568" lon="0.30077">
        <ele>1437</ele>
        <time>2020-06-24T08:57:15Z</time>
      </trkpt>
      <trkpt lat="42.90535" lon="0.30095">
        <ele>1439</ele>
        <time>2020-06-24T08:57:27Z</time>
      </trkpt>
      <trkpt lat="42.90513" lon="0.30103">
        <ele>1441</ele>
        <time>2020-06-24T08:57:34Z</time>
      </trkpt>
      <trkpt lat="42.9051" lon="0.30104">
        <ele>1441</ele>
        <time>2020-06-24T08:57:35Z</time>
      </trkpt>
      <trkpt lat="42.90507" lon="0.30107">
        <ele>1441</ele>
        <time>2020-06-24T08:57:36Z</time>
      </trkpt>
      <trkpt lat="42.90505" lon="0.3011">
        <ele>1441</ele>
        <time>2020-06-24T08:57:37Z</time>
      </trkpt>
      <trkpt lat="42.90503" lon="0.30115">
        <ele>1442</ele>
        <time>2020-06-24T08:57:38Z</time>
      </trkpt>
      <trkpt lat="42.90503" lon="0.30119">
        <ele>1442</ele>
        <time>2020-06-24T08:57:39Z</time>
      </trkpt>
      <trkpt lat="42.90504" lon="0.30124">
        <ele>1442</ele>
        <time>2020-06-24T08:57:40Z</time>
      </trkpt>
      <trkpt lat="42.90506" lon="0.30128">
        <ele>1442</ele>
        <time>2020-06-24T08:57:41Z</time>
      </trkpt>
      <trkpt lat="42.90508" lon="0.30132">
        <ele>1442</ele>
        <time>2020-06-24T08:57:42Z</time>
      </trkpt>
      <trkpt lat="42.90515" lon="0.30134">
        <ele>1443</ele>
        <time>2020-06-24T08:57:44Z</time>
      </trkpt>
      <trkpt lat="42.90547" lon="0.30121">
        <ele>1452</ele>
        <time>2020-06-24T08:57:53Z</time>
      </trkpt>
      <trkpt lat="42.90622" lon="0.30105">
        <ele>1457</ele>
        <time>2020-06-24T08:58:14Z</time>
      </trkpt>
      <trkpt lat="42.90629" lon="0.30105">
        <ele>1457</ele>
        <time>2020-06-24T08:58:16Z</time>
      </trkpt>
      <trkpt lat="42.90633" lon="0.30106">
        <ele>1457</ele>
        <time>2020-06-24T08:58:17Z</time>
      </trkpt>
      <trkpt lat="42.90636" lon="0.30108">
        <ele>1457</ele>
        <time>2020-06-24T08:58:18Z</time>
      </trkpt>
      <trkpt lat="42.90638" lon="0.30111">
        <ele>1457</ele>
        <time>2020-06-24T08:58:19Z</time>
      </trkpt>
      <trkpt lat="42.90639" lon="0.30115">
        <ele>1457</ele>
        <time>2020-06-24T08:58:20Z</time>
      </trkpt>
      <trkpt lat="42.90638" lon="0.30122">
        <ele>1457</ele>
        <time>2020-06-24T08:58:22Z</time>
      </trkpt>
      <trkpt lat="42.90634" lon="0.30128">
        <ele>1458</ele>
        <time>2020-06-24T08:58:24Z</time>
      </trkpt>
      <trkpt lat="42.90619" lon="0.30137">
        <ele>1458</ele>
        <time>2020-06-24T08:58:29Z</time>
      </trkpt>
      <trkpt lat="42.90577" lon="0.30151">
        <ele>1460</ele>
        <time>2020-06-24T08:58:42Z</time>
      </trkpt>
      <trkpt lat="42.90498" lon="0.30227">
        <ele>1464</ele>
        <time>2020-06-24T08:59:12Z</time>
      </trkpt>
      <trkpt lat="42.90427" lon="0.30311">
        <ele>1471</ele>
        <time>2020-06-24T08:59:42Z</time>
      </trkpt>
      <trkpt lat="42.90392" lon="0.30349">
        <ele>1474</ele>
        <time>2020-06-24T08:59:56Z</time>
      </trkpt>
      <trkpt lat="42.903" lon="0.30409">
        <ele>1485</ele>
        <time>2020-06-24T09:00:26Z</time>
      </trkpt>
      <trkpt lat="42.90223" lon="0.3046">
        <ele>1501</ele>
        <time>2020-06-24T09:00:49Z</time>
      </trkpt>
      <trkpt lat="42.90195" lon="0.30496">
        <ele>1506</ele>
        <time>2020-06-24T09:00:59Z</time>
      </trkpt>
      <trkpt lat="42.90159" lon="0.30542">
        <ele>1510</ele>
        <time>2020-06-24T09:01:12Z</time>
      </trkpt>
      <trkpt lat="42.90145" lon="0.30556">
        <ele>1511</ele>
        <time>2020-06-24T09:01:17Z</time>
      </trkpt>
      <trkpt lat="42.90142" lon="0.30558">
        <ele>1511</ele>
        <time>2020-06-24T09:01:18Z</time>
      </trkpt>
      <trkpt lat="42.90133" lon="0.30558">
        <ele>1511</ele>
        <time>2020-06-24T09:01:21Z</time>
      </trkpt>
      <trkpt lat="42.90113" lon="0.30549">
        <ele>1512</ele>
        <time>2020-06-24T09:01:27Z</time>
      </trkpt>
      <trkpt lat="42.90085" lon="0.30527">
        <ele>1513</ele>
        <time>2020-06-24T09:01:37Z</time>
      </trkpt>
      <trkpt lat="42.90064" lon="0.30504">
        <ele>1515</ele>
        <time>2020-06-24T09:01:45Z</time>
      </trkpt>
      <trkpt lat="42.90018" lon="0.30415">
        <ele>1530</ele>
        <time>2020-06-24T09:02:06Z</time>
      </trkpt>
      <trkpt lat="42.90016" lon="0.30411">
        <ele>1530</ele>
        <time>2020-06-24T09:02:07Z</time>
      </trkpt>
      <trkpt lat="42.90012" lon="0.30409">
        <ele>1530</ele>
        <time>2020-06-24T09:02:08Z</time>
      </trkpt>
      <trkpt lat="42.90009" lon="0.30408">
        <ele>1531</ele>
        <time>2020-06-24T09:02:09Z</time>
      </trkpt>
      <trkpt lat="42.90005" lon="0.30408">
        <ele>1531</ele>
        <time>2020-06-24T09:02:10Z</time>
      </trkpt>
      <trkpt lat="42.90001" lon="0.30411">
        <ele>1531</ele>
        <time>2020-06-24T09:02:11Z</time>
      </trkpt>
      <trkpt lat="42.89999" lon="0.30417">
        <ele>1532</ele>
        <time>2020-06-24T09:02:12Z</time>
      </trkpt>
      <trkpt lat="42.89998" lon="0.30423">
        <ele>1532</ele>
        <time>2020-06-24T09:02:13Z</time>
      </trkpt>
      <trkpt lat="42.90003" lon="0.30441">
        <ele>1533</ele>
        <time>2020-06-24T09:02:16Z</time>
      </trkpt>
      <trkpt lat="42.90017" lon="0.3047">
        <ele>1534</ele>
        <time>2020-06-24T09:02:22Z</time>
      </trkpt>
      <trkpt lat="42.9005" lon="0.30565">
        <ele>1538</ele>
        <time>2020-06-24T09:02:42Z</time>
      </trkpt>
      <trkpt lat="42.90051" lon="0.30569">
        <ele>1538</ele>
        <time>2020-06-24T09:02:43Z</time>
      </trkpt>
      <trkpt lat="42.90051" lon="0.30573">
        <ele>1538</ele>
        <time>2020-06-24T09:02:44Z</time>
      </trkpt>
      <trkpt lat="42.9005" lon="0.30577">
        <ele>1538</ele>
        <time>2020-06-24T09:02:45Z</time>
      </trkpt>
      <trkpt lat="42.90047" lon="0.30581">
        <ele>1538</ele>
        <time>2020-06-24T09:02:46Z</time>
      </trkpt>
      <trkpt lat="42.90044" lon="0.30583">
        <ele>1538</ele>
        <time>2020-06-24T09:02:47Z</time>
      </trkpt>
      <trkpt lat="42.90041" lon="0.30583">
        <ele>1538</ele>
        <time>2020-06-24T09:02:48Z</time>
      </trkpt>
      <trkpt lat="42.90038" lon="0.30582">
        <ele>1538</ele>
        <time>2020-06-24T09:02:49Z</time>
      </trkpt>
      <trkpt lat="42.90034" lon="0.30579">
        <ele>1538</ele>
        <time>2020-06-24T09:02:51Z</time>
      </trkpt>
      <trkpt lat="42.90032" lon="0.30577">
        <ele>1538</ele>
        <time>2020-06-24T09:02:53Z</time>
      </trkpt>
      <trkpt lat="42.90031" lon="0.30579">
        <ele>1539</ele>
        <time>2020-06-24T09:03:13Z</time>
      </trkpt>
      <trkpt lat="42.90037" lon="0.30591">
        <ele>1540</ele>
        <time>2020-06-24T09:03:46Z</time>
      </trkpt>
      <trkpt lat="42.90039" lon="0.30593">
        <ele>1541</ele>
        <time>2020-06-24T09:03:52Z</time>
      </trkpt>
      <trkpt lat="42.90039" lon="0.3059">
        <ele>1541</ele>
        <time>2020-06-24T09:03:54Z</time>
      </trkpt>
      <trkpt lat="42.90041" lon="0.30587">
        <ele>1542</ele>
        <time>2020-06-24T09:03:56Z</time>
      </trkpt>
      <trkpt lat="42.90041" lon="0.30584">
        <ele>1542</ele>
        <time>2020-06-24T09:04:01Z</time>
      </trkpt>
      <trkpt lat="42.90039" lon="0.30586">
        <ele>1545</ele>
        <time>2020-06-24T09:05:53Z</time>
      </trkpt>
      <trkpt lat="42.9004" lon="0.30585">
        <ele>1548</ele>
        <time>2020-06-24T09:08:24Z</time>
      </trkpt>
      <trkpt lat="42.90041" lon="0.3058">
        <ele>1554</ele>
        <time>2020-06-24T09:09:01Z</time>
      </trkpt>
      <trkpt lat="42.9004" lon="0.30579">
        <ele>1556</ele>
        <time>2020-06-24T09:11:00Z</time>
      </trkpt>
      <trkpt lat="42.90039" lon="0.30578">
        <ele>1560</ele>
        <time>2020-06-24T09:16:32Z</time>
      </trkpt>
      <trkpt lat="42.90037" lon="0.3058">
        <ele>1561</ele>
        <time>2020-06-24T09:16:34Z</time>
      </trkpt>
      <trkpt lat="42.90036" lon="0.30583">
        <ele>1561</ele>
        <time>2020-06-24T09:16:36Z</time>
      </trkpt>
      <trkpt lat="42.9004" lon="0.30586">
        <ele>1561</ele>
        <time>2020-06-24T09:16:38Z</time>
      </trkpt>
      <trkpt lat="42.90042" lon="0.30587">
        <ele>1561</ele>
        <time>2020-06-24T09:16:39Z</time>
      </trkpt>
      <trkpt lat="42.90045" lon="0.30587">
        <ele>1561</ele>
        <time>2020-06-24T09:16:41Z</time>
      </trkpt>
      <trkpt lat="42.90047" lon="0.30582">
        <ele>1561</ele>
        <time>2020-06-24T09:16:44Z</time>
      </trkpt>
      <trkpt lat="42.90046" lon="0.30572">
        <ele>1561</ele>
        <time>2020-06-24T09:16:47Z</time>
      </trkpt>
      <trkpt lat="42.90042" lon="0.30562">
        <ele>1561</ele>
        <time>2020-06-24T09:16:50Z</time>
      </trkpt>
      <trkpt lat="42.90041" lon="0.3056">
        <ele>1562</ele>
        <time>2020-06-24T09:16:51Z</time>
      </trkpt>
      <trkpt lat="42.9004" lon="0.30556">
        <ele>1562</ele>
        <time>2020-06-24T09:16:53Z</time>
      </trkpt>
      <trkpt lat="42.90039" lon="0.30553">
        <ele>1562</ele>
        <time>2020-06-24T09:16:55Z</time>
      </trkpt>
      <trkpt lat="42.90036" lon="0.30552">
        <ele>1562</ele>
        <time>2020-06-24T09:16:57Z</time>
      </trkpt>
      <trkpt lat="42.90036" lon="0.3055">
        <ele>1562</ele>
        <time>2020-06-24T09:16:59Z</time>
      </trkpt>
      <trkpt lat="42.90039" lon="0.30551">
        <ele>1562</ele>
        <time>2020-06-24T09:17:01Z</time>
      </trkpt>
      <trkpt lat="42.90041" lon="0.30557">
        <ele>1562</ele>
        <time>2020-06-24T09:17:04Z</time>
      </trkpt>
      <trkpt lat="42.90043" lon="0.30561">
        <ele>1562</ele>
        <time>2020-06-24T09:17:06Z</time>
      </trkpt>
      <trkpt lat="42.90048" lon="0.30565">
        <ele>1562</ele>
        <time>2020-06-24T09:17:09Z</time>
      </trkpt>
      <trkpt lat="42.90068" lon="0.30567">
        <ele>1562</ele>
        <time>2020-06-24T09:17:15Z</time>
      </trkpt>
      <trkpt lat="42.90102" lon="0.30572">
        <ele>1562</ele>
        <time>2020-06-24T09:17:31Z</time>
      </trkpt>
      <trkpt lat="42.90105" lon="0.30573">
        <ele>1562</ele>
        <time>2020-06-24T09:17:33Z</time>
      </trkpt>
      <trkpt lat="42.9011" lon="0.30572">
        <ele>1562</ele>
        <time>2020-06-24T09:19:04Z</time>
      </trkpt>
      <trkpt lat="42.90131" lon="0.30573">
        <ele>1562</ele>
        <time>2020-06-24T09:19:11Z</time>
      </trkpt>
      <trkpt lat="42.9023" lon="0.30468">
        <ele>1560</ele>
        <time>2020-06-24T09:19:38Z</time>
      </trkpt>
      <trkpt lat="42.90374" lon="0.30359">
        <ele>1554</ele>
        <time>2020-06-24T09:20:07Z</time>
      </trkpt>
      <trkpt lat="42.90536" lon="0.30183">
        <ele>1546</ele>
        <time>2020-06-24T09:20:37Z</time>
      </trkpt>
      <trkpt lat="42.90557" lon="0.30165">
        <ele>1544</ele>
        <time>2020-06-24T09:20:41Z</time>
      </trkpt>
      <trkpt lat="42.90595" lon="0.30151">
        <ele>1543</ele>
        <time>2020-06-24T09:20:47Z</time>
      </trkpt>
      <trkpt lat="42.90609" lon="0.30145">
        <ele>1541</ele>
        <time>2020-06-24T09:20:50Z</time>
      </trkpt>
      <trkpt lat="42.9062" lon="0.30131">
        <ele>1540</ele>
        <time>2020-06-24T09:20:53Z</time>
      </trkpt>
      <trkpt lat="42.90616" lon="0.30115">
        <ele>1539</ele>
        <time>2020-06-24T09:20:56Z</time>
      </trkpt>
      <trkpt lat="42.90538" lon="0.30128">
        <ele>1537</ele>
        <time>2020-06-24T09:21:14Z</time>
      </trkpt>
      <trkpt lat="42.90513" lon="0.30142">
        <ele>1536</ele>
        <time>2020-06-24T09:21:20Z</time>
      </trkpt>
      <trkpt lat="42.90507" lon="0.30144">
        <ele>1536</ele>
        <time>2020-06-24T09:21:22Z</time>
      </trkpt>
      <trkpt lat="42.90502" lon="0.30142">
        <ele>1536</ele>
        <time>2020-06-24T09:21:23Z</time>
      </trkpt>
      <trkpt lat="42.90492" lon="0.30134">
        <ele>1535</ele>
        <time>2020-06-24T09:21:25Z</time>
      </trkpt>
      <trkpt lat="42.90494" lon="0.30122">
        <ele>1535</ele>
        <time>2020-06-24T09:21:27Z</time>
      </trkpt>
      <trkpt lat="42.90544" lon="0.30103">
        <ele>1532</ele>
        <time>2020-06-24T09:21:35Z</time>
      </trkpt>
      <trkpt lat="42.90601" lon="0.30063">
        <ele>1530</ele>
        <time>2020-06-24T09:21:45Z</time>
      </trkpt>
      <trkpt lat="42.90833" lon="0.29979">
        <ele>1513</ele>
        <time>2020-06-24T09:22:15Z</time>
      </trkpt>
      <trkpt lat="42.91019" lon="0.29872">
        <ele>1503</ele>
        <time>2020-06-24T09:22:32Z</time>
      </trkpt>
      <trkpt lat="42.91038" lon="0.29854">
        <ele>1502</ele>
        <time>2020-06-24T09:22:34Z</time>
      </trkpt>
      <trkpt lat="42.91045" lon="0.29842">
        <ele>1501</ele>
        <time>2020-06-24T09:22:35Z</time>
      </trkpt>
      <trkpt lat="42.91053" lon="0.29819">
        <ele>1499</ele>
        <time>2020-06-24T09:22:37Z</time>
      </trkpt>
      <trkpt lat="42.91053" lon="0.29789">
        <ele>1497</ele>
        <time>2020-06-24T09:22:39Z</time>
      </trkpt>
      <trkpt lat="42.91031" lon="0.29723">
        <ele>1494</ele>
        <time>2020-06-24T09:22:45Z</time>
      </trkpt>
      <trkpt lat="42.91021" lon="0.29718">
        <ele>1493</ele>
        <time>2020-06-24T09:24:07Z</time>
      </trkpt>
      <trkpt lat="42.91014" lon="0.29702">
        <ele>1492</ele>
        <time>2020-06-24T09:24:10Z</time>
      </trkpt>
      <trkpt lat="42.91007" lon="0.29686">
        <ele>1490</ele>
        <time>2020-06-24T09:24:13Z</time>
      </trkpt>
      <trkpt lat="42.90963" lon="0.29601">
        <ele>1483</ele>
        <time>2020-06-24T09:24:41Z</time>
      </trkpt>
      <trkpt lat="42.90957" lon="0.29594">
        <ele>1483</ele>
        <time>2020-06-24T09:24:46Z</time>
      </trkpt>
      <trkpt lat="42.9094" lon="0.29559">
        <ele>1481</ele>
        <time>2020-06-24T09:25:16Z</time>
      </trkpt>
      <trkpt lat="42.90935" lon="0.29551">
        <ele>1480</ele>
        <time>2020-06-24T09:25:18Z</time>
      </trkpt>
      <trkpt lat="42.90907" lon="0.29513">
        <ele>1474</ele>
        <time>2020-06-24T09:25:53Z</time>
      </trkpt>
      <trkpt lat="42.90895" lon="0.29493">
        <ele>1469</ele>
        <time>2020-06-24T09:25:57Z</time>
      </trkpt>
      <trkpt lat="42.90865" lon="0.29449">
        <ele>1463</ele>
        <time>2020-06-24T09:26:04Z</time>
      </trkpt>
      <trkpt lat="42.90854" lon="0.29428">
        <ele>1462</ele>
        <time>2020-06-24T09:26:07Z</time>
      </trkpt>
      <trkpt lat="42.90823" lon="0.29392">
        <ele>1459</ele>
        <time>2020-06-24T09:26:13Z</time>
      </trkpt>
      <trkpt lat="42.90798" lon="0.29339">
        <ele>1457</ele>
        <time>2020-06-24T09:26:19Z</time>
      </trkpt>
      <trkpt lat="42.90708" lon="0.29222">
        <ele>1450</ele>
        <time>2020-06-24T09:26:36Z</time>
      </trkpt>
      <trkpt lat="42.90696" lon="0.29205">
        <ele>1448</ele>
        <time>2020-06-24T09:26:38Z</time>
      </trkpt>
      <trkpt lat="42.90675" lon="0.29132">
        <ele>1441</ele>
        <time>2020-06-24T09:26:45Z</time>
      </trkpt>
      <trkpt lat="42.90672" lon="0.29122">
        <ele>1440</ele>
        <time>2020-06-24T09:26:46Z</time>
      </trkpt>
      <trkpt lat="42.90656" lon="0.29103">
        <ele>1436</ele>
        <time>2020-06-24T09:26:49Z</time>
      </trkpt>
      <trkpt lat="42.90536" lon="0.29007">
        <ele>1424</ele>
        <time>2020-06-24T09:27:04Z</time>
      </trkpt>
      <trkpt lat="42.90503" lon="0.28961">
        <ele>1420</ele>
        <time>2020-06-24T09:27:10Z</time>
      </trkpt>
      <trkpt lat="42.90495" lon="0.28941">
        <ele>1418</ele>
        <time>2020-06-24T09:27:12Z</time>
      </trkpt>
      <trkpt lat="42.90492" lon="0.28896">
        <ele>1417</ele>
        <time>2020-06-24T09:27:16Z</time>
      </trkpt>
      <trkpt lat="42.90495" lon="0.28863">
        <ele>1416</ele>
        <time>2020-06-24T09:27:19Z</time>
      </trkpt>
      <trkpt lat="42.90498" lon="0.28853">
        <ele>1416</ele>
        <time>2020-06-24T09:27:20Z</time>
      </trkpt>
      <trkpt lat="42.90505" lon="0.28837">
        <ele>1415</ele>
        <time>2020-06-24T09:27:22Z</time>
      </trkpt>
      <trkpt lat="42.90525" lon="0.28818">
        <ele>1414</ele>
        <time>2020-06-24T09:27:26Z</time>
      </trkpt>
      <trkpt lat="42.90529" lon="0.28814">
        <ele>1414</ele>
        <time>2020-06-24T09:27:27Z</time>
      </trkpt>
      <trkpt lat="42.90531" lon="0.28808">
        <ele>1414</ele>
        <time>2020-06-24T09:27:28Z</time>
      </trkpt>
      <trkpt lat="42.90532" lon="0.28804">
        <ele>1413</ele>
        <time>2020-06-24T09:27:29Z</time>
      </trkpt>
      <trkpt lat="42.90532" lon="0.28799">
        <ele>1413</ele>
        <time>2020-06-24T09:27:30Z</time>
      </trkpt>
      <trkpt lat="42.90529" lon="0.2879">
        <ele>1413</ele>
        <time>2020-06-24T09:27:32Z</time>
      </trkpt>
      <trkpt lat="42.90522" lon="0.28784">
        <ele>1413</ele>
        <time>2020-06-24T09:27:34Z</time>
      </trkpt>
      <trkpt lat="42.90457" lon="0.28759">
        <ele>1410</ele>
        <time>2020-06-24T09:27:50Z</time>
      </trkpt>
      <trkpt lat="42.9042" lon="0.28757">
        <ele>1409</ele>
        <time>2020-06-24T09:27:59Z</time>
      </trkpt>
      <trkpt lat="42.90413" lon="0.28753">
        <ele>1409</ele>
        <time>2020-06-24T09:28:01Z</time>
      </trkpt>
      <trkpt lat="42.9041" lon="0.28742">
        <ele>1408</ele>
        <time>2020-06-24T09:28:03Z</time>
      </trkpt>
      <trkpt lat="42.90412" lon="0.28729">
        <ele>1408</ele>
        <time>2020-06-24T09:28:05Z</time>
      </trkpt>
      <trkpt lat="42.9043" lon="0.28717">
        <ele>1408</ele>
        <time>2020-06-24T09:28:09Z</time>
      </trkpt>
      <trkpt lat="42.90563" lon="0.28681">
        <ele>1406</ele>
        <time>2020-06-24T09:28:40Z</time>
      </trkpt>
      <trkpt lat="42.90683" lon="0.28643">
        <ele>1408</ele>
        <time>2020-06-24T09:29:10Z</time>
      </trkpt>
      <trkpt lat="42.9069" lon="0.2864">
        <ele>1408</ele>
        <time>2020-06-24T09:29:12Z</time>
      </trkpt>
      <trkpt lat="42.9078" lon="0.28644">
        <ele>1409</ele>
        <time>2020-06-24T09:29:36Z</time>
      </trkpt>
      <trkpt lat="42.90802" lon="0.28654">
        <ele>1409</ele>
        <time>2020-06-24T09:29:42Z</time>
      </trkpt>
      <trkpt lat="42.909" lon="0.28673">
        <ele>1414</ele>
        <time>2020-06-24T09:30:06Z</time>
      </trkpt>
      <trkpt lat="42.90968" lon="0.28685">
        <ele>1418</ele>
        <time>2020-06-24T09:30:24Z</time>
      </trkpt>
      <trkpt lat="42.90982" lon="0.28689">
        <ele>1419</ele>
        <time>2020-06-24T09:30:28Z</time>
      </trkpt>
      <trkpt lat="42.90995" lon="0.2869">
        <ele>1421</ele>
        <time>2020-06-24T09:30:32Z</time>
      </trkpt>
      <trkpt lat="42.91001" lon="0.28689">
        <ele>1421</ele>
        <time>2020-06-24T09:30:34Z</time>
      </trkpt>
      <trkpt lat="42.91016" lon="0.28688">
        <ele>1422</ele>
        <time>2020-06-24T09:30:38Z</time>
      </trkpt>
      <trkpt lat="42.91024" lon="0.28687">
        <ele>1424</ele>
        <time>2020-06-24T09:30:40Z</time>
      </trkpt>
      <trkpt lat="42.91097" lon="0.28679">
        <ele>1431</ele>
        <time>2020-06-24T09:31:00Z</time>
      </trkpt>
      <trkpt lat="42.9112" lon="0.2868">
        <ele>1433</ele>
        <time>2020-06-24T09:31:06Z</time>
      </trkpt>
      <trkpt lat="42.91132" lon="0.28677">
        <ele>1434</ele>
        <time>2020-06-24T09:31:10Z</time>
      </trkpt>
      <trkpt lat="42.91137" lon="0.28673">
        <ele>1434</ele>
        <time>2020-06-24T09:31:12Z</time>
      </trkpt>
      <trkpt lat="42.91141" lon="0.28667">
        <ele>1434</ele>
        <time>2020-06-24T09:31:14Z</time>
      </trkpt>
      <trkpt lat="42.91143" lon="0.28659">
        <ele>1435</ele>
        <time>2020-06-24T09:31:18Z</time>
      </trkpt>
      <trkpt lat="42.91141" lon="0.28652">
        <ele>1436</ele>
        <time>2020-06-24T09:31:22Z</time>
      </trkpt>
      <trkpt lat="42.91138" lon="0.28644">
        <ele>1436</ele>
        <time>2020-06-24T09:31:26Z</time>
      </trkpt>
      <trkpt lat="42.91029" lon="0.28523">
        <ele>1447</ele>
        <time>2020-06-24T09:31:57Z</time>
      </trkpt>
      <trkpt lat="42.9091" lon="0.28341">
        <ele>1441</ele>
        <time>2020-06-24T09:32:22Z</time>
      </trkpt>
      <trkpt lat="42.90864" lon="0.28216">
        <ele>1440</ele>
        <time>2020-06-24T09:32:33Z</time>
      </trkpt>
      <trkpt lat="42.90849" lon="0.28155">
        <ele>1440</ele>
        <time>2020-06-24T09:32:38Z</time>
      </trkpt>
      <trkpt lat="42.90829" lon="0.28117">
        <ele>1441</ele>
        <time>2020-06-24T09:32:43Z</time>
      </trkpt>
      <trkpt lat="42.90827" lon="0.28112">
        <ele>1441</ele>
        <time>2020-06-24T09:32:44Z</time>
      </trkpt>
      <trkpt lat="42.90825" lon="0.28105">
        <ele>1441</ele>
        <time>2020-06-24T09:32:46Z</time>
      </trkpt>
      <trkpt lat="42.90828" lon="0.28097">
        <ele>1440</ele>
        <time>2020-06-24T09:34:15Z</time>
      </trkpt>
      <trkpt lat="42.90832" lon="0.28094">
        <ele>1440</ele>
        <time>2020-06-24T09:34:18Z</time>
      </trkpt>
      <trkpt lat="42.90837" lon="0.28092">
        <ele>1440</ele>
        <time>2020-06-24T09:34:21Z</time>
      </trkpt>
      <trkpt lat="42.90842" lon="0.28094">
        <ele>1439</ele>
        <time>2020-06-24T09:34:23Z</time>
      </trkpt>
      <trkpt lat="42.90854" lon="0.28114">
        <ele>1438</ele>
        <time>2020-06-24T09:34:27Z</time>
      </trkpt>
      <trkpt lat="42.9086" lon="0.28128">
        <ele>1437</ele>
        <time>2020-06-24T09:34:29Z</time>
      </trkpt>
      <trkpt lat="42.91081" lon="0.28371">
        <ele>1429</ele>
        <time>2020-06-24T09:34:59Z</time>
      </trkpt>
      <trkpt lat="42.91109" lon="0.28392">
        <ele>1428</ele>
        <time>2020-06-24T09:35:03Z</time>
      </trkpt>
      <trkpt lat="42.91318" lon="0.28525">
        <ele>1419</ele>
        <time>2020-06-24T09:35:34Z</time>
      </trkpt>
      <trkpt lat="42.91347" lon="0.28541">
        <ele>1417</ele>
        <time>2020-06-24T09:37:00Z</time>
      </trkpt>
      <trkpt lat="42.91373" lon="0.28561">
        <ele>1407</ele>
        <time>2020-06-24T09:37:09Z</time>
      </trkpt>
      <trkpt lat="42.91392" lon="0.28584">
        <ele>1402</ele>
        <time>2020-06-24T09:37:13Z</time>
      </trkpt>
      <trkpt lat="42.91403" lon="0.28598">
        <ele>1400</ele>
        <time>2020-06-24T09:37:15Z</time>
      </trkpt>
      <trkpt lat="42.91425" lon="0.28615">
        <ele>1398</ele>
        <time>2020-06-24T09:37:18Z</time>
      </trkpt>
      <trkpt lat="42.91606" lon="0.28669">
        <ele>1385</ele>
        <time>2020-06-24T09:37:38Z</time>
      </trkpt>
      <trkpt lat="42.91638" lon="0.28665">
        <ele>1383</ele>
        <time>2020-06-24T09:37:42Z</time>
      </trkpt>
      <trkpt lat="42.9175" lon="0.2862">
        <ele>1371</ele>
        <time>2020-06-24T09:37:54Z</time>
      </trkpt>
      <trkpt lat="42.91814" lon="0.28608">
        <ele>1365</ele>
        <time>2020-06-24T09:38:01Z</time>
      </trkpt>
      <trkpt lat="42.9206" lon="0.28708">
        <ele>1345</ele>
        <time>2020-06-24T09:38:26Z</time>
      </trkpt>
      <trkpt lat="42.92101" lon="0.28736">
        <ele>1342</ele>
        <time>2020-06-24T09:38:31Z</time>
      </trkpt>
      <trkpt lat="42.92139" lon="0.28773">
        <ele>1337</ele>
        <time>2020-06-24T09:38:36Z</time>
      </trkpt>
      <trkpt lat="42.9221" lon="0.28823">
        <ele>1330</ele>
        <time>2020-06-24T09:38:45Z</time>
      </trkpt>
      <trkpt lat="42.92319" lon="0.28937">
        <ele>1314</ele>
        <time>2020-06-24T09:38:59Z</time>
      </trkpt>
      <trkpt lat="42.92372" lon="0.29015">
        <ele>1308</ele>
        <time>2020-06-24T09:39:07Z</time>
      </trkpt>
      <trkpt lat="42.92377" lon="0.29021">
        <ele>1307</ele>
        <time>2020-06-24T09:39:08Z</time>
      </trkpt>
      <trkpt lat="42.9238" lon="0.29028">
        <ele>1306</ele>
        <time>2020-06-24T09:39:09Z</time>
      </trkpt>
      <trkpt lat="42.9238" lon="0.29035">
        <ele>1305</ele>
        <time>2020-06-24T09:39:10Z</time>
      </trkpt>
      <trkpt lat="42.92377" lon="0.29044">
        <ele>1305</ele>
        <time>2020-06-24T09:39:11Z</time>
      </trkpt>
      <trkpt lat="42.92368" lon="0.29055">
        <ele>1303</ele>
        <time>2020-06-24T09:39:13Z</time>
      </trkpt>
      <trkpt lat="42.92339" lon="0.2907">
        <ele>1300</ele>
        <time>2020-06-24T09:39:17Z</time>
      </trkpt>
      <trkpt lat="42.92289" lon="0.29115">
        <ele>1296</ele>
        <time>2020-06-24T09:39:23Z</time>
      </trkpt>
      <trkpt lat="42.9215" lon="0.29207">
        <ele>1280</ele>
        <time>2020-06-24T09:39:40Z</time>
      </trkpt>
      <trkpt lat="42.92145" lon="0.29212">
        <ele>1278</ele>
        <time>2020-06-24T09:39:41Z</time>
      </trkpt>
      <trkpt lat="42.92135" lon="0.29239">
        <ele>1276</ele>
        <time>2020-06-24T09:39:46Z</time>
      </trkpt>
      <trkpt lat="42.92133" lon="0.29249">
        <ele>1276</ele>
        <time>2020-06-24T09:39:49Z</time>
      </trkpt>
      <trkpt lat="42.92136" lon="0.29253">
        <ele>1277</ele>
        <time>2020-06-24T09:41:01Z</time>
      </trkpt>
      <trkpt lat="42.92139" lon="0.29262">
        <ele>1278</ele>
        <time>2020-06-24T09:41:04Z</time>
      </trkpt>
      <trkpt lat="42.92198" lon="0.29338">
        <ele>1277</ele>
        <time>2020-06-24T09:41:21Z</time>
      </trkpt>
      <trkpt lat="42.92207" lon="0.29346">
        <ele>1276</ele>
        <time>2020-06-24T09:41:23Z</time>
      </trkpt>
      <trkpt lat="42.92212" lon="0.29349">
        <ele>1276</ele>
        <time>2020-06-24T09:41:24Z</time>
      </trkpt>
      <trkpt lat="42.92217" lon="0.29351">
        <ele>1275</ele>
        <time>2020-06-24T09:41:25Z</time>
      </trkpt>
      <trkpt lat="42.92503" lon="0.29283">
        <ele>1259</ele>
        <time>2020-06-24T09:41:55Z</time>
      </trkpt>
      <trkpt lat="42.92535" lon="0.29285">
        <ele>1254</ele>
        <time>2020-06-24T09:41:58Z</time>
      </trkpt>
      <trkpt lat="42.92786" lon="0.29368">
        <ele>1236</ele>
        <time>2020-06-24T09:42:18Z</time>
      </trkpt>
      <trkpt lat="42.92879" lon="0.29368">
        <ele>1227</ele>
        <time>2020-06-24T09:42:25Z</time>
      </trkpt>
      <trkpt lat="42.93054" lon="0.2939">
        <ele>1212</ele>
        <time>2020-06-24T09:42:38Z</time>
      </trkpt>
      <trkpt lat="42.93187" lon="0.29382">
        <ele>1200</ele>
        <time>2020-06-24T09:42:50Z</time>
      </trkpt>
      <trkpt lat="42.93219" lon="0.29367">
        <ele>1199</ele>
        <time>2020-06-24T09:42:56Z</time>
      </trkpt>
      <trkpt lat="42.93222" lon="0.2936">
        <ele>1197</ele>
        <time>2020-06-24T09:43:41Z</time>
      </trkpt>
      <trkpt lat="42.9323" lon="0.29347">
        <ele>1194</ele>
        <time>2020-06-24T09:43:45Z</time>
      </trkpt>
      <trkpt lat="42.93303" lon="0.29293">
        <ele>1172</ele>
        <time>2020-06-24T09:44:00Z</time>
      </trkpt>
      <trkpt lat="42.93348" lon="0.29229">
        <ele>1170</ele>
        <time>2020-06-24T09:44:09Z</time>
      </trkpt>
      <trkpt lat="42.93493" lon="0.29132">
        <ele>1166</ele>
        <time>2020-06-24T09:44:28Z</time>
      </trkpt>
      <trkpt lat="42.93533" lon="0.29111">
        <ele>1165</ele>
        <time>2020-06-24T09:44:33Z</time>
      </trkpt>
      <trkpt lat="42.93547" lon="0.29099">
        <ele>1164</ele>
        <time>2020-06-24T09:44:35Z</time>
      </trkpt>
      <trkpt lat="42.93568" lon="0.29063">
        <ele>1163</ele>
        <time>2020-06-24T09:44:39Z</time>
      </trkpt>
      <trkpt lat="42.93609" lon="0.28978">
        <ele>1161</ele>
        <time>2020-06-24T09:44:49Z</time>
      </trkpt>
      <trkpt lat="42.93722" lon="0.28779">
        <ele>1157</ele>
        <time>2020-06-24T09:45:19Z</time>
      </trkpt>
      <trkpt lat="42.93846" lon="0.2857">
        <ele>1153</ele>
        <time>2020-06-24T09:45:49Z</time>
      </trkpt>
      <trkpt lat="42.93961" lon="0.28378">
        <ele>1148</ele>
        <time>2020-06-24T09:46:19Z</time>
      </trkpt>
      <trkpt lat="42.94042" lon="0.28264">
        <ele>1146</ele>
        <time>2020-06-24T09:46:40Z</time>
      </trkpt>
      <trkpt lat="42.9406" lon="0.28246">
        <ele>1145</ele>
        <time>2020-06-24T09:46:44Z</time>
      </trkpt>
      <trkpt lat="42.94081" lon="0.28218">
        <ele>1143</ele>
        <time>2020-06-24T09:46:49Z</time>
      </trkpt>
      <trkpt lat="42.94117" lon="0.2814">
        <ele>1141</ele>
        <time>2020-06-24T09:46:58Z</time>
      </trkpt>
      <trkpt lat="42.94131" lon="0.28121">
        <ele>1140</ele>
        <time>2020-06-24T09:47:00Z</time>
      </trkpt>
      <trkpt lat="42.94222" lon="0.28048">
        <ele>1136</ele>
        <time>2020-06-24T09:47:11Z</time>
      </trkpt>
      <trkpt lat="42.94236" lon="0.28033">
        <ele>1135</ele>
        <time>2020-06-24T09:47:14Z</time>
      </trkpt>
      <trkpt lat="42.94242" lon="0.28018">
        <ele>1134</ele>
        <time>2020-06-24T09:47:18Z</time>
      </trkpt>
      <trkpt lat="42.94239" lon="0.28013">
        <ele>1133</ele>
        <time>2020-06-24T09:49:00Z</time>
      </trkpt>
      <trkpt lat="42.94238" lon="0.28008">
        <ele>1132</ele>
        <time>2020-06-24T09:49:29Z</time>
      </trkpt>
      <trkpt lat="42.94226" lon="0.2799">
        <ele>1127</ele>
        <time>2020-06-24T09:49:34Z</time>
      </trkpt>
      <trkpt lat="42.94218" lon="0.27964">
        <ele>1121</ele>
        <time>2020-06-24T09:49:39Z</time>
      </trkpt>
      <trkpt lat="42.94216" lon="0.27941">
        <ele>1119</ele>
        <time>2020-06-24T09:49:43Z</time>
      </trkpt>
      <trkpt lat="42.94217" lon="0.27918">
        <ele>1118</ele>
        <time>2020-06-24T09:49:47Z</time>
      </trkpt>
      <trkpt lat="42.94217" lon="0.27912">
        <ele>1118</ele>
        <time>2020-06-24T09:49:48Z</time>
      </trkpt>
      <trkpt lat="42.94214" lon="0.27902">
        <ele>1117</ele>
        <time>2020-06-24T09:49:50Z</time>
      </trkpt>
      <trkpt lat="42.94207" lon="0.27892">
        <ele>1117</ele>
        <time>2020-06-24T09:49:52Z</time>
      </trkpt>
      <trkpt lat="42.94135" lon="0.27839">
        <ele>1117</ele>
        <time>2020-06-24T09:50:11Z</time>
      </trkpt>
      <trkpt lat="42.94127" lon="0.27827">
        <ele>1117</ele>
        <time>2020-06-24T09:50:14Z</time>
      </trkpt>
      <trkpt lat="42.94116" lon="0.27803">
        <ele>1117</ele>
        <time>2020-06-24T09:50:19Z</time>
      </trkpt>
      <trkpt lat="42.94101" lon="0.27726">
        <ele>1117</ele>
        <time>2020-06-24T09:50:38Z</time>
      </trkpt>
      <trkpt lat="42.94082" lon="0.27577">
        <ele>1118</ele>
        <time>2020-06-24T09:51:08Z</time>
      </trkpt>
      <trkpt lat="42.9407" lon="0.27433">
        <ele>1119</ele>
        <time>2020-06-24T09:51:36Z</time>
      </trkpt>
      <trkpt lat="42.9408" lon="0.27372">
        <ele>1120</ele>
        <time>2020-06-24T09:51:47Z</time>
      </trkpt>
      <trkpt lat="42.9408" lon="0.27357">
        <ele>1120</ele>
        <time>2020-06-24T09:51:50Z</time>
      </trkpt>
      <trkpt lat="42.94077" lon="0.27341">
        <ele>1120</ele>
        <time>2020-06-24T09:51:53Z</time>
      </trkpt>
      <trkpt lat="42.94072" lon="0.27328">
        <ele>1120</ele>
        <time>2020-06-24T09:51:56Z</time>
      </trkpt>
      <trkpt lat="42.94064" lon="0.27319">
        <ele>1120</ele>
        <time>2020-06-24T09:51:59Z</time>
      </trkpt>
      <trkpt lat="42.94005" lon="0.27268">
        <ele>1121</ele>
        <time>2020-06-24T09:52:21Z</time>
      </trkpt>
      <trkpt lat="42.93973" lon="0.27255">
        <ele>1121</ele>
        <time>2020-06-24T09:52:34Z</time>
      </trkpt>
      <trkpt lat="42.93958" lon="0.27254">
        <ele>1122</ele>
        <time>2020-06-24T09:52:39Z</time>
      </trkpt>
      <trkpt lat="42.9395" lon="0.27251">
        <ele>1122</ele>
        <time>2020-06-24T09:52:42Z</time>
      </trkpt>
      <trkpt lat="42.93948" lon="0.2725">
        <ele>1122</ele>
        <time>2020-06-24T09:52:43Z</time>
      </trkpt>
      <trkpt lat="42.9394" lon="0.2725">
        <ele>1122</ele>
        <time>2020-06-24T09:52:46Z</time>
      </trkpt>
      <trkpt lat="42.93938" lon="0.27249">
        <ele>1122</ele>
        <time>2020-06-24T09:52:47Z</time>
      </trkpt>
      <trkpt lat="42.93882" lon="0.27232">
        <ele>1124</ele>
        <time>2020-06-24T09:53:09Z</time>
      </trkpt>
      <trkpt lat="42.93799" lon="0.27178">
        <ele>1128</ele>
        <time>2020-06-24T09:53:38Z</time>
      </trkpt>
      <trkpt lat="42.93753" lon="0.27128">
        <ele>1134</ele>
        <time>2020-06-24T09:53:56Z</time>
      </trkpt>
      <trkpt lat="42.937" lon="0.27033">
        <ele>1142</ele>
        <time>2020-06-24T09:54:22Z</time>
      </trkpt>
      <trkpt lat="42.93692" lon="0.27003">
        <ele>1144</ele>
        <time>2020-06-24T09:54:27Z</time>
      </trkpt>
      <trkpt lat="42.93685" lon="0.26919">
        <ele>1147</ele>
        <time>2020-06-24T09:54:42Z</time>
      </trkpt>
      <trkpt lat="42.93687" lon="0.26854">
        <ele>1147</ele>
        <time>2020-06-24T09:54:59Z</time>
      </trkpt>
      <trkpt lat="42.93719" lon="0.26719">
        <ele>1151</ele>
        <time>2020-06-24T09:55:29Z</time>
      </trkpt>
      <trkpt lat="42.93722" lon="0.26699">
        <ele>1152</ele>
        <time>2020-06-24T09:55:33Z</time>
      </trkpt>
      <trkpt lat="42.93726" lon="0.26683">
        <ele>1152</ele>
        <time>2020-06-24T09:55:36Z</time>
      </trkpt>
      <trkpt lat="42.93733" lon="0.26665">
        <ele>1152</ele>
        <time>2020-06-24T09:55:40Z</time>
      </trkpt>
      <trkpt lat="42.93738" lon="0.26658">
        <ele>1152</ele>
        <time>2020-06-24T09:55:42Z</time>
      </trkpt>
      <trkpt lat="42.93796" lon="0.26613">
        <ele>1154</ele>
        <time>2020-06-24T09:56:02Z</time>
      </trkpt>
      <trkpt lat="42.93802" lon="0.26602">
        <ele>1155</ele>
        <time>2020-06-24T09:56:05Z</time>
      </trkpt>
      <trkpt lat="42.93809" lon="0.26576">
        <ele>1156</ele>
        <time>2020-06-24T09:56:11Z</time>
      </trkpt>
      <trkpt lat="42.93815" lon="0.26519">
        <ele>1161</ele>
        <time>2020-06-24T09:56:29Z</time>
      </trkpt>
      <trkpt lat="42.93819" lon="0.26481">
        <ele>1163</ele>
        <time>2020-06-24T09:56:35Z</time>
      </trkpt>
      <trkpt lat="42.93827" lon="0.26438">
        <ele>1167</ele>
        <time>2020-06-24T09:56:45Z</time>
      </trkpt>
      <trkpt lat="42.93827" lon="0.26383">
        <ele>1177</ele>
        <time>2020-06-24T09:57:01Z</time>
      </trkpt>
      <trkpt lat="42.93826" lon="0.26372">
        <ele>1178</ele>
        <time>2020-06-24T09:57:04Z</time>
      </trkpt>
      <trkpt lat="42.93825" lon="0.26355">
        <ele>1180</ele>
        <time>2020-06-24T09:57:08Z</time>
      </trkpt>
      <trkpt lat="42.93823" lon="0.26347">
        <ele>1180</ele>
        <time>2020-06-24T09:57:10Z</time>
      </trkpt>
      <trkpt lat="42.93819" lon="0.26336">
        <ele>1181</ele>
        <time>2020-06-24T09:57:12Z</time>
      </trkpt>
      <trkpt lat="42.93819" lon="0.26314">
        <ele>1182</ele>
        <time>2020-06-24T09:57:16Z</time>
      </trkpt>
      <trkpt lat="42.93833" lon="0.2625">
        <ele>1187</ele>
        <time>2020-06-24T09:57:30Z</time>
      </trkpt>
      <trkpt lat="42.93836" lon="0.26239">
        <ele>1188</ele>
        <time>2020-06-24T09:57:32Z</time>
      </trkpt>
      <trkpt lat="42.9384" lon="0.2623">
        <ele>1188</ele>
        <time>2020-06-24T09:57:34Z</time>
      </trkpt>
      <trkpt lat="42.93857" lon="0.26202">
        <ele>1192</ele>
        <time>2020-06-24T09:57:44Z</time>
      </trkpt>
      <trkpt lat="42.93883" lon="0.26133">
        <ele>1199</ele>
        <time>2020-06-24T09:58:01Z</time>
      </trkpt>
      <trkpt lat="42.93886" lon="0.26121">
        <ele>1200</ele>
        <time>2020-06-24T09:58:06Z</time>
      </trkpt>
      <trkpt lat="42.93889" lon="0.26119">
        <ele>1202</ele>
        <time>2020-06-24T09:58:48Z</time>
      </trkpt>
      <trkpt lat="42.93891" lon="0.26119">
        <ele>1205</ele>
        <time>2020-06-24T09:59:10Z</time>
      </trkpt>
      <trkpt lat="42.93892" lon="0.26117">
        <ele>1209</ele>
        <time>2020-06-24T10:00:24Z</time>
      </trkpt>
      <trkpt lat="42.93891" lon="0.26036">
        <ele>1236</ele>
        <time>2020-06-24T10:00:40Z</time>
      </trkpt>
      <trkpt lat="42.93895" lon="0.25996">
        <ele>1239</ele>
        <time>2020-06-24T10:00:48Z</time>
      </trkpt>
      <trkpt lat="42.93894" lon="0.25982">
        <ele>1239</ele>
        <time>2020-06-24T10:00:52Z</time>
      </trkpt>
      <trkpt lat="42.93892" lon="0.25979">
        <ele>1239</ele>
        <time>2020-06-24T10:02:12Z</time>
      </trkpt>
      <trkpt lat="42.93874" lon="0.2593">
        <ele>1242</ele>
        <time>2020-06-24T10:02:33Z</time>
      </trkpt>
      <trkpt lat="42.93833" lon="0.25846">
        <ele>1242</ele>
        <time>2020-06-24T10:02:55Z</time>
      </trkpt>
      <trkpt lat="42.9383" lon="0.2583">
        <ele>1242</ele>
        <time>2020-06-24T10:02:59Z</time>
      </trkpt>
      <trkpt lat="42.93829" lon="0.25799">
        <ele>1242</ele>
        <time>2020-06-24T10:03:07Z</time>
      </trkpt>
      <trkpt lat="42.93824" lon="0.25766">
        <ele>1242</ele>
        <time>2020-06-24T10:03:15Z</time>
      </trkpt>
      <trkpt lat="42.93817" lon="0.25746">
        <ele>1242</ele>
        <time>2020-06-24T10:03:21Z</time>
      </trkpt>
      <trkpt lat="42.93784" lon="0.25684">
        <ele>1242</ele>
        <time>2020-06-24T10:03:41Z</time>
      </trkpt>
      <trkpt lat="42.93761" lon="0.25627">
        <ele>1243</ele>
        <time>2020-06-24T10:03:57Z</time>
      </trkpt>
      <trkpt lat="42.93753" lon="0.2558">
        <ele>1243</ele>
        <time>2020-06-24T10:04:09Z</time>
      </trkpt>
      <trkpt lat="42.93751" lon="0.25573">
        <ele>1243</ele>
        <time>2020-06-24T10:04:11Z</time>
      </trkpt>
      <trkpt lat="42.93732" lon="0.25552">
        <ele>1243</ele>
        <time>2020-06-24T10:04:19Z</time>
      </trkpt>
      <trkpt lat="42.93708" lon="0.25515">
        <ele>1243</ele>
        <time>2020-06-24T10:04:31Z</time>
      </trkpt>
      <trkpt lat="42.93673" lon="0.25481">
        <ele>1244</ele>
        <time>2020-06-24T10:04:45Z</time>
      </trkpt>
      <trkpt lat="42.93668" lon="0.25477">
        <ele>1244</ele>
        <time>2020-06-24T10:04:47Z</time>
      </trkpt>
      <trkpt lat="42.93663" lon="0.25475">
        <ele>1244</ele>
        <time>2020-06-24T10:04:49Z</time>
      </trkpt>
      <trkpt lat="42.93652" lon="0.25474">
        <ele>1244</ele>
        <time>2020-06-24T10:04:53Z</time>
      </trkpt>
      <trkpt lat="42.93618" lon="0.2546">
        <ele>1245</ele>
        <time>2020-06-24T10:05:06Z</time>
      </trkpt>
      <trkpt lat="42.93549" lon="0.25426">
        <ele>1248</ele>
        <time>2020-06-24T10:05:36Z</time>
      </trkpt>
      <trkpt lat="42.93537" lon="0.25422">
        <ele>1248</ele>
        <time>2020-06-24T10:05:40Z</time>
      </trkpt>
      <trkpt lat="42.93517" lon="0.25419">
        <ele>1248</ele>
        <time>2020-06-24T10:05:46Z</time>
      </trkpt>
      <trkpt lat="42.93514" lon="0.25418">
        <ele>1248</ele>
        <time>2020-06-24T10:05:47Z</time>
      </trkpt>
      <trkpt lat="42.93505" lon="0.25413">
        <ele>1249</ele>
        <time>2020-06-24T10:05:50Z</time>
      </trkpt>
      <trkpt lat="42.93489" lon="0.25411">
        <ele>1249</ele>
        <time>2020-06-24T10:05:55Z</time>
      </trkpt>
      <trkpt lat="42.93462" lon="0.25415">
        <ele>1250</ele>
        <time>2020-06-24T10:06:03Z</time>
      </trkpt>
      <trkpt lat="42.93449" lon="0.25412">
        <ele>1250</ele>
        <time>2020-06-24T10:06:07Z</time>
      </trkpt>
      <trkpt lat="42.93437" lon="0.25403">
        <ele>1250</ele>
        <time>2020-06-24T10:06:12Z</time>
      </trkpt>
      <trkpt lat="42.93434" lon="0.25401">
        <ele>1250</ele>
        <time>2020-06-24T10:06:13Z</time>
      </trkpt>
      <trkpt lat="42.93425" lon="0.25397">
        <ele>1251</ele>
        <time>2020-06-24T10:06:16Z</time>
      </trkpt>
      <trkpt lat="42.93418" lon="0.25396">
        <ele>1251</ele>
        <time>2020-06-24T10:06:18Z</time>
      </trkpt>
      <trkpt lat="42.93376" lon="0.25407">
        <ele>1252</ele>
        <time>2020-06-24T10:06:33Z</time>
      </trkpt>
      <trkpt lat="42.93369" lon="0.25411">
        <ele>1252</ele>
        <time>2020-06-24T10:06:36Z</time>
      </trkpt>
      <trkpt lat="42.93345" lon="0.25421">
        <ele>1253</ele>
        <time>2020-06-24T10:06:44Z</time>
      </trkpt>
      <trkpt lat="42.93337" lon="0.25418">
        <ele>1253</ele>
        <time>2020-06-24T10:06:47Z</time>
      </trkpt>
      <trkpt lat="42.93335" lon="0.25418">
        <ele>1253</ele>
        <time>2020-06-24T10:06:48Z</time>
      </trkpt>
      <trkpt lat="42.9332" lon="0.25408">
        <ele>1254</ele>
        <time>2020-06-24T10:06:54Z</time>
      </trkpt>
      <trkpt lat="42.93318" lon="0.25407">
        <ele>1254</ele>
        <time>2020-06-24T10:06:55Z</time>
      </trkpt>
      <trkpt lat="42.93316" lon="0.25405">
        <ele>1254</ele>
        <time>2020-06-24T10:06:56Z</time>
      </trkpt>
      <trkpt lat="42.93315" lon="0.25401">
        <ele>1254</ele>
        <time>2020-06-24T10:06:57Z</time>
      </trkpt>
      <trkpt lat="42.93313" lon="0.25399">
        <ele>1254</ele>
        <time>2020-06-24T10:06:58Z</time>
      </trkpt>
      <trkpt lat="42.93311" lon="0.25396">
        <ele>1255</ele>
        <time>2020-06-24T10:06:59Z</time>
      </trkpt>
      <trkpt lat="42.93309" lon="0.25395">
        <ele>1255</ele>
        <time>2020-06-24T10:07:00Z</time>
      </trkpt>
      <trkpt lat="42.93308" lon="0.25392">
        <ele>1255</ele>
        <time>2020-06-24T10:07:01Z</time>
      </trkpt>
      <trkpt lat="42.93306" lon="0.25391">
        <ele>1255</ele>
        <time>2020-06-24T10:07:02Z</time>
      </trkpt>
      <trkpt lat="42.93304" lon="0.25388">
        <ele>1255</ele>
        <time>2020-06-24T10:07:03Z</time>
      </trkpt>
      <trkpt lat="42.93302" lon="0.25386">
        <ele>1255</ele>
        <time>2020-06-24T10:07:05Z</time>
      </trkpt>
      <trkpt lat="42.93299" lon="0.25384">
        <ele>1255</ele>
        <time>2020-06-24T10:07:06Z</time>
      </trkpt>
      <trkpt lat="42.93295" lon="0.25377">
        <ele>1255</ele>
        <time>2020-06-24T10:07:08Z</time>
      </trkpt>
      <trkpt lat="42.9329" lon="0.25376">
        <ele>1256</ele>
        <time>2020-06-24T10:07:12Z</time>
      </trkpt>
      <trkpt lat="42.93288" lon="0.25373">
        <ele>1256</ele>
        <time>2020-06-24T10:07:15Z</time>
      </trkpt>
      <trkpt lat="42.93284" lon="0.25371">
        <ele>1256</ele>
        <time>2020-06-24T10:07:17Z</time>
      </trkpt>
      <trkpt lat="42.93279" lon="0.25367">
        <ele>1257</ele>
        <time>2020-06-24T10:07:19Z</time>
      </trkpt>
      <trkpt lat="42.93276" lon="0.25362">
        <ele>1257</ele>
        <time>2020-06-24T10:07:21Z</time>
      </trkpt>
      <trkpt lat="42.93273" lon="0.25359">
        <ele>1257</ele>
        <time>2020-06-24T10:07:23Z</time>
      </trkpt>
      <trkpt lat="42.93272" lon="0.25357">
        <ele>1257</ele>
        <time>2020-06-24T10:07:24Z</time>
      </trkpt>
      <trkpt lat="42.9327" lon="0.25354">
        <ele>1257</ele>
        <time>2020-06-24T10:07:26Z</time>
      </trkpt>
      <trkpt lat="42.93206" lon="0.2532">
        <ele>1260</ele>
        <time>2020-06-24T10:07:56Z</time>
      </trkpt>
      <trkpt lat="42.93204" lon="0.25319">
        <ele>1261</ele>
        <time>2020-06-24T10:07:57Z</time>
      </trkpt>
      <trkpt lat="42.93202" lon="0.25318">
        <ele>1261</ele>
        <time>2020-06-24T10:07:58Z</time>
      </trkpt>
      <trkpt lat="42.9319" lon="0.25312">
        <ele>1261</ele>
        <time>2020-06-24T10:08:04Z</time>
      </trkpt>
      <trkpt lat="42.93188" lon="0.25311">
        <ele>1261</ele>
        <time>2020-06-24T10:08:05Z</time>
      </trkpt>
      <trkpt lat="42.93165" lon="0.25289">
        <ele>1262</ele>
        <time>2020-06-24T10:08:17Z</time>
      </trkpt>
      <trkpt lat="42.9315" lon="0.25272">
        <ele>1263</ele>
        <time>2020-06-24T10:08:26Z</time>
      </trkpt>
      <trkpt lat="42.93148" lon="0.25272">
        <ele>1263</ele>
        <time>2020-06-24T10:08:28Z</time>
      </trkpt>
      <trkpt lat="42.93146" lon="0.25276">
        <ele>1264</ele>
        <time>2020-06-24T10:09:19Z</time>
      </trkpt>
      <trkpt lat="42.93146" lon="0.25279">
        <ele>1265</ele>
        <time>2020-06-24T10:10:04Z</time>
      </trkpt>
      <trkpt lat="42.93146" lon="0.25281">
        <ele>1267</ele>
        <time>2020-06-24T10:11:15Z</time>
      </trkpt>
      <trkpt lat="42.93142" lon="0.25282">
        <ele>1269</ele>
        <time>2020-06-24T10:11:53Z</time>
      </trkpt>
      <trkpt lat="42.93144" lon="0.25283">
        <ele>1269</ele>
        <time>2020-06-24T10:12:53Z</time>
      </trkpt>
      <trkpt lat="42.93145" lon="0.25283">
        <ele>1272</ele>
        <time>2020-06-24T10:13:50Z</time>
      </trkpt>
      <trkpt lat="42.93145" lon="0.2528">
        <ele>1273</ele>
        <time>2020-06-24T10:14:03Z</time>
      </trkpt>
      <trkpt lat="42.93142" lon="0.2528">
        <ele>1273</ele>
        <time>2020-06-24T10:14:25Z</time>
      </trkpt>
      <trkpt lat="42.93143" lon="0.25284">
        <ele>1275</ele>
        <time>2020-06-24T10:15:11Z</time>
      </trkpt>
      <trkpt lat="42.93146" lon="0.25287">
        <ele>1275</ele>
        <time>2020-06-24T10:15:12Z</time>
      </trkpt>
      <trkpt lat="42.9317" lon="0.25314">
        <ele>1280</ele>
        <time>2020-06-24T10:15:19Z</time>
      </trkpt>
      <trkpt lat="42.93193" lon="0.25326">
        <ele>1281</ele>
        <time>2020-06-24T10:15:31Z</time>
      </trkpt>
      <trkpt lat="42.93223" lon="0.25332">
        <ele>1282</ele>
        <time>2020-06-24T10:15:40Z</time>
      </trkpt>
      <trkpt lat="42.93256" lon="0.25352">
        <ele>1282</ele>
        <time>2020-06-24T10:15:51Z</time>
      </trkpt>
      <trkpt lat="42.93273" lon="0.25373">
        <ele>1282</ele>
        <time>2020-06-24T10:16:00Z</time>
      </trkpt>
      <trkpt lat="42.93281" lon="0.25379">
        <ele>1282</ele>
        <time>2020-06-24T10:16:03Z</time>
      </trkpt>
      <trkpt lat="42.93286" lon="0.25381">
        <ele>1282</ele>
        <time>2020-06-24T10:16:05Z</time>
      </trkpt>
      <trkpt lat="42.9331" lon="0.25403">
        <ele>1282</ele>
        <time>2020-06-24T10:16:13Z</time>
      </trkpt>
      <trkpt lat="42.93316" lon="0.25411">
        <ele>1282</ele>
        <time>2020-06-24T10:16:16Z</time>
      </trkpt>
      <trkpt lat="42.93333" lon="0.25425">
        <ele>1281</ele>
        <time>2020-06-24T10:16:26Z</time>
      </trkpt>
      <trkpt lat="42.93342" lon="0.25426">
        <ele>1281</ele>
        <time>2020-06-24T10:16:29Z</time>
      </trkpt>
      <trkpt lat="42.93382" lon="0.25405">
        <ele>1281</ele>
        <time>2020-06-24T10:16:40Z</time>
      </trkpt>
      <trkpt lat="42.93416" lon="0.254">
        <ele>1280</ele>
        <time>2020-06-24T10:16:49Z</time>
      </trkpt>
      <trkpt lat="42.93423" lon="0.25401">
        <ele>1280</ele>
        <time>2020-06-24T10:16:51Z</time>
      </trkpt>
      <trkpt lat="42.93432" lon="0.25408">
        <ele>1280</ele>
        <time>2020-06-24T10:16:55Z</time>
      </trkpt>
      <trkpt lat="42.93437" lon="0.25413">
        <ele>1280</ele>
        <time>2020-06-24T10:16:57Z</time>
      </trkpt>
      <trkpt lat="42.9344" lon="0.25417">
        <ele>1280</ele>
        <time>2020-06-24T10:16:59Z</time>
      </trkpt>
      <trkpt lat="42.93454" lon="0.25424">
        <ele>1280</ele>
        <time>2020-06-24T10:17:05Z</time>
      </trkpt>
      <trkpt lat="42.93486" lon="0.25418">
        <ele>1279</ele>
        <time>2020-06-24T10:17:14Z</time>
      </trkpt>
      <trkpt lat="42.93498" lon="0.25421">
        <ele>1279</ele>
        <time>2020-06-24T10:17:17Z</time>
      </trkpt>
      <trkpt lat="42.93509" lon="0.25426">
        <ele>1278</ele>
        <time>2020-06-24T10:17:20Z</time>
      </trkpt>
      <trkpt lat="42.93556" lon="0.25435">
        <ele>1277</ele>
        <time>2020-06-24T10:17:30Z</time>
      </trkpt>
      <trkpt lat="42.9364" lon="0.25473">
        <ele>1276</ele>
        <time>2020-06-24T10:17:52Z</time>
      </trkpt>
      <trkpt lat="42.93655" lon="0.25474">
        <ele>1276</ele>
        <time>2020-06-24T10:17:56Z</time>
      </trkpt>
      <trkpt lat="42.93663" lon="0.25477">
        <ele>1276</ele>
        <time>2020-06-24T10:17:58Z</time>
      </trkpt>
      <trkpt lat="42.93709" lon="0.25524">
        <ele>1275</ele>
        <time>2020-06-24T10:18:10Z</time>
      </trkpt>
      <trkpt lat="42.93726" lon="0.2555">
        <ele>1274</ele>
        <time>2020-06-24T10:18:14Z</time>
      </trkpt>
      <trkpt lat="42.93744" lon="0.25568">
        <ele>1274</ele>
        <time>2020-06-24T10:18:18Z</time>
      </trkpt>
      <trkpt lat="42.93761" lon="0.25601">
        <ele>1273</ele>
        <time>2020-06-24T10:18:23Z</time>
      </trkpt>
      <trkpt lat="42.93767" lon="0.25626">
        <ele>1272</ele>
        <time>2020-06-24T10:18:26Z</time>
      </trkpt>
      <trkpt lat="42.93776" lon="0.2565">
        <ele>1271</ele>
        <time>2020-06-24T10:18:29Z</time>
      </trkpt>
      <trkpt lat="42.93781" lon="0.2567">
        <ele>1270</ele>
        <time>2020-06-24T10:18:32Z</time>
      </trkpt>
      <trkpt lat="42.93824" lon="0.25752">
        <ele>1270</ele>
        <time>2020-06-24T10:18:49Z</time>
      </trkpt>
      <trkpt lat="42.93834" lon="0.25791">
        <ele>1269</ele>
        <time>2020-06-24T10:18:56Z</time>
      </trkpt>
      <trkpt lat="42.93837" lon="0.25841">
        <ele>1270</ele>
        <time>2020-06-24T10:19:04Z</time>
      </trkpt>
      <trkpt lat="42.93839" lon="0.25853">
        <ele>1270</ele>
        <time>2020-06-24T10:19:06Z</time>
      </trkpt>
      <trkpt lat="42.93844" lon="0.25869">
        <ele>1269</ele>
        <time>2020-06-24T10:19:09Z</time>
      </trkpt>
      <trkpt lat="42.9386" lon="0.25902">
        <ele>1268</ele>
        <time>2020-06-24T10:19:15Z</time>
      </trkpt>
      <trkpt lat="42.93886" lon="0.25981">
        <ele>1264</ele>
        <time>2020-06-24T10:19:30Z</time>
      </trkpt>
      <trkpt lat="42.93889" lon="0.26001">
        <ele>1264</ele>
        <time>2020-06-24T10:19:36Z</time>
      </trkpt>
      <trkpt lat="42.93884" lon="0.26127">
        <ele>1257</ele>
        <time>2020-06-24T10:19:59Z</time>
      </trkpt>
      <trkpt lat="42.93883" lon="0.26132">
        <ele>1257</ele>
        <time>2020-06-24T10:20:01Z</time>
      </trkpt>
      <trkpt lat="42.93852" lon="0.26199">
        <ele>1253</ele>
        <time>2020-06-24T10:20:18Z</time>
      </trkpt>
      <trkpt lat="42.93835" lon="0.26226">
        <ele>1253</ele>
        <time>2020-06-24T10:20:30Z</time>
      </trkpt>
      <trkpt lat="42.93829" lon="0.26241">
        <ele>1252</ele>
        <time>2020-06-24T10:20:34Z</time>
      </trkpt>
      <trkpt lat="42.93813" lon="0.26305">
        <ele>1249</ele>
        <time>2020-06-24T10:20:47Z</time>
      </trkpt>
      <trkpt lat="42.93812" lon="0.2631">
        <ele>1249</ele>
        <time>2020-06-24T10:20:48Z</time>
      </trkpt>
      <trkpt lat="42.93814" lon="0.26324">
        <ele>1249</ele>
        <time>2020-06-24T10:20:51Z</time>
      </trkpt>
      <trkpt lat="42.93818" lon="0.2635">
        <ele>1248</ele>
        <time>2020-06-24T10:21:00Z</time>
      </trkpt>
      <trkpt lat="42.93817" lon="0.26372">
        <ele>1248</ele>
        <time>2020-06-24T10:21:05Z</time>
      </trkpt>
      <trkpt lat="42.93817" lon="0.26387">
        <ele>1247</ele>
        <time>2020-06-24T10:21:07Z</time>
      </trkpt>
      <trkpt lat="42.93816" lon="0.26436">
        <ele>1245</ele>
        <time>2020-06-24T10:21:14Z</time>
      </trkpt>
      <trkpt lat="42.93815" lon="0.26443">
        <ele>1245</ele>
        <time>2020-06-24T10:21:15Z</time>
      </trkpt>
      <trkpt lat="42.93816" lon="0.26457">
        <ele>1244</ele>
        <time>2020-06-24T10:21:17Z</time>
      </trkpt>
      <trkpt lat="42.93807" lon="0.26531">
        <ele>1242</ele>
        <time>2020-06-24T10:21:27Z</time>
      </trkpt>
      <trkpt lat="42.93814" lon="0.26541">
        <ele>1241</ele>
        <time>2020-06-24T10:21:29Z</time>
      </trkpt>
      <trkpt lat="42.93809" lon="0.26598">
        <ele>1236</ele>
        <time>2020-06-24T10:21:38Z</time>
      </trkpt>
      <trkpt lat="42.93802" lon="0.26617">
        <ele>1235</ele>
        <time>2020-06-24T10:21:42Z</time>
      </trkpt>
      <trkpt lat="42.93793" lon="0.26631">
        <ele>1235</ele>
        <time>2020-06-24T10:21:46Z</time>
      </trkpt>
      <trkpt lat="42.93787" lon="0.26634">
        <ele>1235</ele>
        <time>2020-06-24T10:21:48Z</time>
      </trkpt>
      <trkpt lat="42.93782" lon="0.26636">
        <ele>1235</ele>
        <time>2020-06-24T10:21:50Z</time>
      </trkpt>
      <trkpt lat="42.93763" lon="0.2665">
        <ele>1234</ele>
        <time>2020-06-24T10:21:57Z</time>
      </trkpt>
      <trkpt lat="42.9374" lon="0.26665">
        <ele>1231</ele>
        <time>2020-06-24T10:22:04Z</time>
      </trkpt>
      <trkpt lat="42.93731" lon="0.26674">
        <ele>1228</ele>
        <time>2020-06-24T10:22:07Z</time>
      </trkpt>
      <trkpt lat="42.9372" lon="0.26694">
        <ele>1226</ele>
        <time>2020-06-24T10:22:12Z</time>
      </trkpt>
      <trkpt lat="42.93708" lon="0.26746">
        <ele>1221</ele>
        <time>2020-06-24T10:22:22Z</time>
      </trkpt>
      <trkpt lat="42.93707" lon="0.26758">
        <ele>1220</ele>
        <time>2020-06-24T10:22:24Z</time>
      </trkpt>
      <trkpt lat="42.93681" lon="0.26866">
        <ele>1212</ele>
        <time>2020-06-24T10:22:41Z</time>
      </trkpt>
      <trkpt lat="42.93679" lon="0.26891">
        <ele>1211</ele>
        <time>2020-06-24T10:22:46Z</time>
      </trkpt>
      <trkpt lat="42.93678" lon="0.26896">
        <ele>1211</ele>
        <time>2020-06-24T10:22:48Z</time>
      </trkpt>
      <trkpt lat="42.93677" lon="0.26996">
        <ele>1198</ele>
        <time>2020-06-24T10:23:07Z</time>
      </trkpt>
      <trkpt lat="42.93686" lon="0.27033">
        <ele>1194</ele>
        <time>2020-06-24T10:23:14Z</time>
      </trkpt>
      <trkpt lat="42.937" lon="0.27064">
        <ele>1191</ele>
        <time>2020-06-24T10:23:20Z</time>
      </trkpt>
      <trkpt lat="42.93711" lon="0.27082">
        <ele>1190</ele>
        <time>2020-06-24T10:23:24Z</time>
      </trkpt>
      <trkpt lat="42.93742" lon="0.27141">
        <ele>1188</ele>
        <time>2020-06-24T10:23:38Z</time>
      </trkpt>
      <trkpt lat="42.93797" lon="0.27201">
        <ele>1183</ele>
        <time>2020-06-24T10:23:54Z</time>
      </trkpt>
      <trkpt lat="42.93806" lon="0.27206">
        <ele>1182</ele>
        <time>2020-06-24T10:23:56Z</time>
      </trkpt>
      <trkpt lat="42.93821" lon="0.27212">
        <ele>1182</ele>
        <time>2020-06-24T10:24:00Z</time>
      </trkpt>
      <trkpt lat="42.93834" lon="0.27221">
        <ele>1179</ele>
        <time>2020-06-24T10:24:04Z</time>
      </trkpt>
      <trkpt lat="42.93853" lon="0.27231">
        <ele>1176</ele>
        <time>2020-06-24T10:24:08Z</time>
      </trkpt>
      <trkpt lat="42.93856" lon="0.27233">
        <ele>1176</ele>
        <time>2020-06-24T10:24:09Z</time>
      </trkpt>
      <trkpt lat="42.93993" lon="0.27274">
        <ele>1164</ele>
        <time>2020-06-24T10:24:32Z</time>
      </trkpt>
      <trkpt lat="42.94061" lon="0.27319">
        <ele>1155</ele>
        <time>2020-06-24T10:24:43Z</time>
      </trkpt>
      <trkpt lat="42.9407" lon="0.27327">
        <ele>1154</ele>
        <time>2020-06-24T10:24:45Z</time>
      </trkpt>
      <trkpt lat="42.94077" lon="0.27338">
        <ele>1154</ele>
        <time>2020-06-24T10:24:47Z</time>
      </trkpt>
      <trkpt lat="42.94082" lon="0.27352">
        <ele>1153</ele>
        <time>2020-06-24T10:24:49Z</time>
      </trkpt>
      <trkpt lat="42.94085" lon="0.27369">
        <ele>1153</ele>
        <time>2020-06-24T10:24:51Z</time>
      </trkpt>
      <trkpt lat="42.94077" lon="0.27423">
        <ele>1150</ele>
        <time>2020-06-24T10:24:57Z</time>
      </trkpt>
      <trkpt lat="42.94097" lon="0.27685">
        <ele>1143</ele>
        <time>2020-06-24T10:25:27Z</time>
      </trkpt>
      <trkpt lat="42.94113" lon="0.27785">
        <ele>1142</ele>
        <time>2020-06-24T10:25:39Z</time>
      </trkpt>
      <trkpt lat="42.94124" lon="0.27817">
        <ele>1142</ele>
        <time>2020-06-24T10:25:43Z</time>
      </trkpt>
      <trkpt lat="42.9414" lon="0.27842">
        <ele>1141</ele>
        <time>2020-06-24T10:25:47Z</time>
      </trkpt>
      <trkpt lat="42.94153" lon="0.27857">
        <ele>1141</ele>
        <time>2020-06-24T10:25:50Z</time>
      </trkpt>
      <trkpt lat="42.94205" lon="0.27891">
        <ele>1139</ele>
        <time>2020-06-24T10:26:00Z</time>
      </trkpt>
      <trkpt lat="42.94209" lon="0.27895">
        <ele>1138</ele>
        <time>2020-06-24T10:26:01Z</time>
      </trkpt>
      <trkpt lat="42.94213" lon="0.279">
        <ele>1138</ele>
        <time>2020-06-24T10:26:02Z</time>
      </trkpt>
      <trkpt lat="42.94217" lon="0.27912">
        <ele>1138</ele>
        <time>2020-06-24T10:26:04Z</time>
      </trkpt>
      <trkpt lat="42.94219" lon="0.27973">
        <ele>1136</ele>
        <time>2020-06-24T10:26:12Z</time>
      </trkpt>
      <trkpt lat="42.94221" lon="0.27985">
        <ele>1135</ele>
        <time>2020-06-24T10:26:14Z</time>
      </trkpt>
      <trkpt lat="42.94222" lon="0.2799">
        <ele>1135</ele>
        <time>2020-06-24T10:26:15Z</time>
      </trkpt>
      <trkpt lat="42.94227" lon="0.27997">
        <ele>1134</ele>
        <time>2020-06-24T10:26:17Z</time>
      </trkpt>
      <trkpt lat="42.94234" lon="0.27999">
        <ele>1134</ele>
        <time>2020-06-24T10:26:20Z</time>
      </trkpt>
      <trkpt lat="42.94239" lon="0.27997">
        <ele>1134</ele>
        <time>2020-06-24T10:26:22Z</time>
      </trkpt>
      <trkpt lat="42.94246" lon="0.27989">
        <ele>1133</ele>
        <time>2020-06-24T10:26:24Z</time>
      </trkpt>
      <trkpt lat="42.94255" lon="0.27971">
        <ele>1131</ele>
        <time>2020-06-24T10:26:28Z</time>
      </trkpt>
      <trkpt lat="42.94329" lon="0.27805">
        <ele>1119</ele>
        <time>2020-06-24T10:26:56Z</time>
      </trkpt>
      <trkpt lat="42.94335" lon="0.27798">
        <ele>1118</ele>
        <time>2020-06-24T10:26:58Z</time>
      </trkpt>
      <trkpt lat="42.94343" lon="0.27795">
        <ele>1118</ele>
        <time>2020-06-24T10:27:00Z</time>
      </trkpt>
      <trkpt lat="42.94347" lon="0.27794">
        <ele>1118</ele>
        <time>2020-06-24T10:27:01Z</time>
      </trkpt>
      <trkpt lat="42.9435" lon="0.27794">
        <ele>1118</ele>
        <time>2020-06-24T10:27:02Z</time>
      </trkpt>
      <trkpt lat="42.94353" lon="0.27796">
        <ele>1118</ele>
        <time>2020-06-24T10:27:03Z</time>
      </trkpt>
      <trkpt lat="42.94355" lon="0.278">
        <ele>1118</ele>
        <time>2020-06-24T10:27:04Z</time>
      </trkpt>
      <trkpt lat="42.94361" lon="0.27968">
        <ele>1111</ele>
        <time>2020-06-24T10:27:34Z</time>
      </trkpt>
      <trkpt lat="42.94359" lon="0.27985">
        <ele>1110</ele>
        <time>2020-06-24T10:27:37Z</time>
      </trkpt>
      <trkpt lat="42.9434" lon="0.28048">
        <ele>1109</ele>
        <time>2020-06-24T10:27:48Z</time>
      </trkpt>
      <trkpt lat="42.94331" lon="0.28106">
        <ele>1108</ele>
        <time>2020-06-24T10:27:57Z</time>
      </trkpt>
      <trkpt lat="42.94321" lon="0.28131">
        <ele>1108</ele>
        <time>2020-06-24T10:28:01Z</time>
      </trkpt>
      <trkpt lat="42.94282" lon="0.28203">
        <ele>1108</ele>
        <time>2020-06-24T10:28:13Z</time>
      </trkpt>
      <trkpt lat="42.94275" lon="0.28225">
        <ele>1108</ele>
        <time>2020-06-24T10:28:16Z</time>
      </trkpt>
      <trkpt lat="42.94271" lon="0.28287">
        <ele>1107</ele>
        <time>2020-06-24T10:28:24Z</time>
      </trkpt>
      <trkpt lat="42.94272" lon="0.28479">
        <ele>1106</ele>
        <time>2020-06-24T10:28:54Z</time>
      </trkpt>
      <trkpt lat="42.94273" lon="0.28489">
        <ele>1106</ele>
        <time>2020-06-24T10:28:57Z</time>
      </trkpt>
    </trkseg>
  </trk>
</gpx>